<?xml version="1.0" encoding="UTF-8" standalone="no" ?>
<gpx xmlns="http://www.topografix.com/GPX/1/1" xmlns:xsi="http://www.w3.org/2001/XMLSchema-instance" xsi:schemaLocation="http://www.topografix.com/GPX/1/1 http://www.topografix.com/GPX/1/1/gpx.xsd" version="1.1" creator="VisuGPX - https://www.visugpx.com">
  <metadata>
    <name>B1-Chaponost</name>
  </metadata>
  <trk>
    <name><![CDATA[B1-Chaponost]]></name>
    <trkseg>
      <trkpt lat="45.66261" lon="4.56988">
        <ele>708.26001392344</ele>
        <time>2022-05-03T05:47:36.000Z</time>
      </trkpt>
      <trkpt lat="45.66258" lon="4.56966">
        <ele>708.1679780482</ele>
        <time>2022-05-03T05:47:36.003Z</time>
      </trkpt>
      <trkpt lat="45.66268" lon="4.5692">
        <ele>708.20983314194</ele>
        <time>2022-05-03T05:47:36.011Z</time>
      </trkpt>
      <trkpt lat="45.66305" lon="4.56685">
        <ele>708.95646197954</ele>
        <time>2022-05-03T05:47:36.046Z</time>
      </trkpt>
      <trkpt lat="45.66292" lon="4.56646">
        <ele>709.70426635743</ele>
        <time>2022-05-03T05:47:36.086Z</time>
      </trkpt>
      <trkpt lat="45.66289" lon="4.56641">
        <ele>710.23533842598</ele>
        <time>2022-05-03T05:47:36.127Z</time>
      </trkpt>
      <trkpt lat="45.66284" lon="4.56637">
        <ele>710.5496130019</ele>
        <time>2022-05-03T05:47:36.168Z</time>
      </trkpt>
      <trkpt lat="45.6628" lon="4.56637">
        <ele>710.68011950987</ele>
        <time>2022-05-03T05:47:36.210Z</time>
      </trkpt>
      <trkpt lat="45.66277" lon="4.56638">
        <ele>710.69424687648</ele>
        <time>2022-05-03T05:47:36.253Z</time>
      </trkpt>
      <trkpt lat="45.66272" lon="4.5664">
        <ele>710.61970807583</ele>
        <time>2022-05-03T05:47:36.296Z</time>
      </trkpt>
      <trkpt lat="45.66267" lon="4.56624">
        <ele>710.6943797069</ele>
        <time>2022-05-03T05:47:36.341Z</time>
      </trkpt>
      <trkpt lat="45.66254" lon="4.56593">
        <ele>710.96243319376</ele>
        <time>2022-05-03T05:47:36.390Z</time>
      </trkpt>
      <trkpt lat="45.66245" lon="4.56579">
        <ele>711.42352301314</ele>
        <time>2022-05-03T05:47:36.442Z</time>
      </trkpt>
      <trkpt lat="45.66236" lon="4.56566">
        <ele>712.04317248327</ele>
        <time>2022-05-03T05:47:36.496Z</time>
      </trkpt>
      <trkpt lat="45.66225" lon="4.56554">
        <ele>712.74486509713</ele>
        <time>2022-05-03T05:47:36.552Z</time>
      </trkpt>
      <trkpt lat="45.66211" lon="4.56539">
        <ele>713.45253107523</ele>
        <time>2022-05-03T05:47:36.611Z</time>
      </trkpt>
      <trkpt lat="45.66198" lon="4.56528">
        <ele>714.13011380088</ele>
        <time>2022-05-03T05:47:36.672Z</time>
      </trkpt>
      <trkpt lat="45.66194" lon="4.56525">
        <ele>714.7712921428</ele>
        <time>2022-05-03T05:47:36.734Z</time>
      </trkpt>
      <trkpt lat="45.66187" lon="4.56519">
        <ele>715.40645529933</ele>
        <time>2022-05-03T05:47:36.797Z</time>
      </trkpt>
      <trkpt lat="45.66176" lon="4.56511">
        <ele>716.05581857525</ele>
        <time>2022-05-03T05:47:36.862Z</time>
      </trkpt>
      <trkpt lat="45.66169" lon="4.56506">
        <ele>716.74893878807</ele>
        <time>2022-05-03T05:47:36.928Z</time>
      </trkpt>
      <trkpt lat="45.66161" lon="4.56497">
        <ele>717.53929694751</ele>
        <time>2022-05-03T05:47:36.996Z</time>
      </trkpt>
      <trkpt lat="45.66158" lon="4.56489">
        <ele>718.40220176931</ele>
        <time>2022-05-03T05:47:37.065Z</time>
      </trkpt>
      <trkpt lat="45.66157" lon="4.56485">
        <ele>719.34599417403</ele>
        <time>2022-05-03T05:47:37.134Z</time>
      </trkpt>
      <trkpt lat="45.66151" lon="4.5648">
        <ele>720.38323930672</ele>
        <time>2022-05-03T05:47:37.205Z</time>
      </trkpt>
      <trkpt lat="45.66148" lon="4.56479">
        <ele>721.49155606896</ele>
        <time>2022-05-03T05:47:37.276Z</time>
      </trkpt>
      <trkpt lat="45.66143" lon="4.56479">
        <ele>722.67804880469</ele>
        <time>2022-05-03T05:47:37.348Z</time>
      </trkpt>
      <trkpt lat="45.66138" lon="4.56476">
        <ele>723.94183997961</ele>
        <time>2022-05-03T05:47:37.421Z</time>
      </trkpt>
      <trkpt lat="45.66134" lon="4.56473">
        <ele>725.24645832143</ele>
        <time>2022-05-03T05:47:37.494Z</time>
      </trkpt>
      <trkpt lat="45.66116" lon="4.56434">
        <ele>726.83651121671</ele>
        <time>2022-05-03T05:47:37.573Z</time>
      </trkpt>
      <trkpt lat="45.66104" lon="4.56413">
        <ele>728.47200608717</ele>
        <time>2022-05-03T05:47:37.655Z</time>
      </trkpt>
      <trkpt lat="45.66101" lon="4.56407">
        <ele>729.86601070215</ele>
        <time>2022-05-03T05:47:37.738Z</time>
      </trkpt>
      <trkpt lat="45.66093" lon="4.56366">
        <ele>731.2281389148</ele>
        <time>2022-05-03T05:47:37.825Z</time>
      </trkpt>
      <trkpt lat="45.66091" lon="4.56342">
        <ele>732.19898117897</ele>
        <time>2022-05-03T05:47:37.915Z</time>
      </trkpt>
      <trkpt lat="45.66075" lon="4.56349">
        <ele>732.85112716234</ele>
        <time>2022-05-03T05:47:38.008Z</time>
      </trkpt>
      <trkpt lat="45.66047" lon="4.56366">
        <ele>733.15566620136</ele>
        <time>2022-05-03T05:47:38.106Z</time>
      </trkpt>
      <trkpt lat="45.66024" lon="4.56378">
        <ele>733.05215017832</ele>
        <time>2022-05-03T05:47:38.208Z</time>
      </trkpt>
      <trkpt lat="45.66007" lon="4.56386">
        <ele>732.64739659705</ele>
        <time>2022-05-03T05:47:38.312Z</time>
      </trkpt>
      <trkpt lat="45.65975" lon="4.564">
        <ele>732.03618942654</ele>
        <time>2022-05-03T05:47:38.422Z</time>
      </trkpt>
      <trkpt lat="45.65947" lon="4.56399">
        <ele>731.18583107535</ele>
        <time>2022-05-03T05:47:38.536Z</time>
      </trkpt>
      <trkpt lat="45.65904" lon="4.56399">
        <ele>729.99160764013</ele>
        <time>2022-05-03T05:47:38.657Z</time>
      </trkpt>
      <trkpt lat="45.65898" lon="4.56401">
        <ele>728.8909563043</ele>
        <time>2022-05-03T05:47:38.779Z</time>
      </trkpt>
      <trkpt lat="45.65897" lon="4.56397">
        <ele>727.80220290885</ele>
        <time>2022-05-03T05:47:38.902Z</time>
      </trkpt>
      <trkpt lat="45.65895" lon="4.56393">
        <ele>726.75783239884</ele>
        <time>2022-05-03T05:47:39.025Z</time>
      </trkpt>
      <trkpt lat="45.65892" lon="4.56391">
        <ele>725.79743278311</ele>
        <time>2022-05-03T05:47:39.149Z</time>
      </trkpt>
      <trkpt lat="45.65889" lon="4.5639">
        <ele>724.95071362929</ele>
        <time>2022-05-03T05:47:39.273Z</time>
      </trkpt>
      <trkpt lat="45.65887" lon="4.5639">
        <ele>724.23215919321</ele>
        <time>2022-05-03T05:47:39.397Z</time>
      </trkpt>
      <trkpt lat="45.65884" lon="4.56392">
        <ele>723.65032631279</ele>
        <time>2022-05-03T05:47:39.522Z</time>
      </trkpt>
      <trkpt lat="45.65882" lon="4.56394">
        <ele>723.21262420503</ele>
        <time>2022-05-03T05:47:39.647Z</time>
      </trkpt>
      <trkpt lat="45.6588" lon="4.56401">
        <ele>722.9270772132</ele>
        <time>2022-05-03T05:47:39.773Z</time>
      </trkpt>
      <trkpt lat="45.65879" lon="4.56404">
        <ele>722.77853922127</ele>
        <time>2022-05-03T05:47:39.900Z</time>
      </trkpt>
      <trkpt lat="45.6588" lon="4.56408">
        <ele>722.77336354479</ele>
        <time>2022-05-03T05:47:40.027Z</time>
      </trkpt>
      <trkpt lat="45.65881" lon="4.56412">
        <ele>722.90274518774</ele>
        <time>2022-05-03T05:47:40.155Z</time>
      </trkpt>
      <trkpt lat="45.65883" lon="4.56414">
        <ele>723.16018565263</ele>
        <time>2022-05-03T05:47:40.283Z</time>
      </trkpt>
      <trkpt lat="45.65879" lon="4.56432">
        <ele>723.56154856247</ele>
        <time>2022-05-03T05:47:40.413Z</time>
      </trkpt>
      <trkpt lat="45.65873" lon="4.56451">
        <ele>724.07644879681</ele>
        <time>2022-05-03T05:47:40.545Z</time>
      </trkpt>
      <trkpt lat="45.65871" lon="4.56456">
        <ele>724.69798281044</ele>
        <time>2022-05-03T05:47:40.678Z</time>
      </trkpt>
      <trkpt lat="45.65867" lon="4.56469">
        <ele>725.45134985724</ele>
        <time>2022-05-03T05:47:40.813Z</time>
      </trkpt>
      <trkpt lat="45.65847" lon="4.56516">
        <ele>726.30124826708</ele>
        <time>2022-05-03T05:47:40.954Z</time>
      </trkpt>
      <trkpt lat="45.65813" lon="4.56586">
        <ele>727.23958155668</ele>
        <time>2022-05-03T05:47:41.104Z</time>
      </trkpt>
      <trkpt lat="45.65801" lon="4.56603">
        <ele>728.33249179452</ele>
        <time>2022-05-03T05:47:41.257Z</time>
      </trkpt>
      <trkpt lat="45.65772" lon="4.56635">
        <ele>729.51515908416</ele>
        <time>2022-05-03T05:47:41.416Z</time>
      </trkpt>
      <trkpt lat="45.65753" lon="4.56647">
        <ele>730.70247682686</ele>
        <time>2022-05-03T05:47:41.578Z</time>
      </trkpt>
      <trkpt lat="45.65727" lon="4.56647">
        <ele>731.9824145667</ele>
        <time>2022-05-03T05:47:41.744Z</time>
      </trkpt>
      <trkpt lat="45.65691" lon="4.56623">
        <ele>733.55146364852</ele>
        <time>2022-05-03T05:47:41.917Z</time>
      </trkpt>
      <trkpt lat="45.65678" lon="4.56622">
        <ele>734.94749167613</ele>
        <time>2022-05-03T05:47:42.092Z</time>
      </trkpt>
      <trkpt lat="45.65659" lon="4.56633">
        <ele>736.35519599892</ele>
        <time>2022-05-03T05:47:42.270Z</time>
      </trkpt>
      <trkpt lat="45.65646" lon="4.56652">
        <ele>737.64615428154</ele>
        <time>2022-05-03T05:47:42.451Z</time>
      </trkpt>
      <trkpt lat="45.65606" lon="4.56762">
        <ele>738.7741626825</ele>
        <time>2022-05-03T05:47:42.646Z</time>
      </trkpt>
      <trkpt lat="45.65605" lon="4.56765">
        <ele>739.78364202036</ele>
        <time>2022-05-03T05:47:42.841Z</time>
      </trkpt>
      <trkpt lat="45.65603" lon="4.56777">
        <ele>740.63766159978</ele>
        <time>2022-05-03T05:47:43.038Z</time>
      </trkpt>
      <trkpt lat="45.65604" lon="4.56793">
        <ele>741.35876929756</ele>
        <time>2022-05-03T05:47:43.237Z</time>
      </trkpt>
      <trkpt lat="45.65622" lon="4.56866">
        <ele>742.07273082905</ele>
        <time>2022-05-03T05:47:43.444Z</time>
      </trkpt>
      <trkpt lat="45.65622" lon="4.56879">
        <ele>742.67654847504</ele>
        <time>2022-05-03T05:47:43.653Z</time>
      </trkpt>
      <trkpt lat="45.65618" lon="4.56894">
        <ele>743.18403480943</ele>
        <time>2022-05-03T05:47:43.864Z</time>
      </trkpt>
      <trkpt lat="45.6561" lon="4.56908">
        <ele>743.55010259397</ele>
        <time>2022-05-03T05:47:44.077Z</time>
      </trkpt>
      <trkpt lat="45.65607" lon="4.56911">
        <ele>743.7920677669</ele>
        <time>2022-05-03T05:47:44.290Z</time>
      </trkpt>
      <trkpt lat="45.65601" lon="4.56916">
        <ele>743.90251591591</ele>
        <time>2022-05-03T05:47:44.504Z</time>
      </trkpt>
      <trkpt lat="45.65587" lon="4.56925">
        <ele>743.89694446603</ele>
        <time>2022-05-03T05:47:44.721Z</time>
      </trkpt>
      <trkpt lat="45.65575" lon="4.5693">
        <ele>743.82794137712</ele>
        <time>2022-05-03T05:47:44.940Z</time>
      </trkpt>
      <trkpt lat="45.65568" lon="4.56933">
        <ele>743.64660678076</ele>
        <time>2022-05-03T05:47:45.160Z</time>
      </trkpt>
      <trkpt lat="45.6552" lon="4.56948">
        <ele>743.39648617901</ele>
        <time>2022-05-03T05:47:45.388Z</time>
      </trkpt>
      <trkpt lat="45.65489" lon="4.56953">
        <ele>743.08029816648</ele>
        <time>2022-05-03T05:47:45.621Z</time>
      </trkpt>
      <trkpt lat="45.65471" lon="4.56952">
        <ele>742.74552176578</ele>
        <time>2022-05-03T05:47:45.857Z</time>
      </trkpt>
      <trkpt lat="45.65453" lon="4.56958">
        <ele>742.29503186301</ele>
        <time>2022-05-03T05:47:46.096Z</time>
      </trkpt>
      <trkpt lat="45.65444" lon="4.56973">
        <ele>741.62785075823</ele>
        <time>2022-05-03T05:47:46.337Z</time>
      </trkpt>
      <trkpt lat="45.65442" lon="4.56996">
        <ele>740.92785017988</ele>
        <time>2022-05-03T05:47:46.580Z</time>
      </trkpt>
      <trkpt lat="45.65446" lon="4.57007">
        <ele>740.19443177077</ele>
        <time>2022-05-03T05:47:46.825Z</time>
      </trkpt>
      <trkpt lat="45.65452" lon="4.57025">
        <ele>739.43847122726</ele>
        <time>2022-05-03T05:47:47.072Z</time>
      </trkpt>
      <trkpt lat="45.6547" lon="4.5706">
        <ele>738.65659519245</ele>
        <time>2022-05-03T05:47:47.324Z</time>
      </trkpt>
      <trkpt lat="45.65498" lon="4.57142">
        <ele>737.81896554214</ele>
        <time>2022-05-03T05:47:47.586Z</time>
      </trkpt>
      <trkpt lat="45.655" lon="4.57178">
        <ele>736.98411626609</ele>
        <time>2022-05-03T05:47:47.852Z</time>
      </trkpt>
      <trkpt lat="45.65495" lon="4.57218">
        <ele>736.13169490358</ele>
        <time>2022-05-03T05:47:48.123Z</time>
      </trkpt>
      <trkpt lat="45.65454" lon="4.57295">
        <ele>735.3050414431</ele>
        <time>2022-05-03T05:47:48.405Z</time>
      </trkpt>
      <trkpt lat="45.65453" lon="4.57313">
        <ele>734.46045164608</ele>
        <time>2022-05-03T05:47:48.689Z</time>
      </trkpt>
      <trkpt lat="45.65465" lon="4.57342">
        <ele>733.60741141171</ele>
        <time>2022-05-03T05:47:48.976Z</time>
      </trkpt>
      <trkpt lat="45.65516" lon="4.57431">
        <ele>732.61369194701</ele>
        <time>2022-05-03T05:47:49.276Z</time>
      </trkpt>
      <trkpt lat="45.65519" lon="4.57447">
        <ele>731.67095388715</ele>
        <time>2022-05-03T05:47:49.578Z</time>
      </trkpt>
      <trkpt lat="45.65519" lon="4.57463">
        <ele>730.72694347518</ele>
        <time>2022-05-03T05:47:49.882Z</time>
      </trkpt>
      <trkpt lat="45.65514" lon="4.5749">
        <ele>729.85462069249</ele>
        <time>2022-05-03T05:47:50.189Z</time>
      </trkpt>
      <trkpt lat="45.65512" lon="4.57502">
        <ele>728.89194922129</ele>
        <time>2022-05-03T05:47:50.497Z</time>
      </trkpt>
      <trkpt lat="45.65499" lon="4.57559">
        <ele>727.75506808015</ele>
        <time>2022-05-03T05:47:50.812Z</time>
      </trkpt>
      <trkpt lat="45.65489" lon="4.57575">
        <ele>726.75278384027</ele>
        <time>2022-05-03T05:47:51.130Z</time>
      </trkpt>
      <trkpt lat="45.65472" lon="4.57586">
        <ele>725.80081228361</ele>
        <time>2022-05-03T05:47:51.451Z</time>
      </trkpt>
      <trkpt lat="45.65459" lon="4.57599">
        <ele>724.71920288005</ele>
        <time>2022-05-03T05:47:51.774Z</time>
      </trkpt>
      <trkpt lat="45.65454" lon="4.57616">
        <ele>723.50838286237</ele>
        <time>2022-05-03T05:47:52.099Z</time>
      </trkpt>
      <trkpt lat="45.65456" lon="4.57653">
        <ele>722.12900614857</ele>
        <time>2022-05-03T05:47:52.428Z</time>
      </trkpt>
      <trkpt lat="45.65479" lon="4.57809">
        <ele>719.95941654708</ele>
        <time>2022-05-03T05:47:52.775Z</time>
      </trkpt>
      <trkpt lat="45.65506" lon="4.57955">
        <ele>718.457072793</ele>
        <time>2022-05-03T05:47:53.139Z</time>
      </trkpt>
      <trkpt lat="45.65505" lon="4.57975">
        <ele>717.27801214511</ele>
        <time>2022-05-03T05:47:53.505Z</time>
      </trkpt>
      <trkpt lat="45.65496" lon="4.57996">
        <ele>716.32723499314</ele>
        <time>2022-05-03T05:47:53.874Z</time>
      </trkpt>
      <trkpt lat="45.65489" lon="4.58001">
        <ele>715.54588858797</ele>
        <time>2022-05-03T05:47:54.244Z</time>
      </trkpt>
      <trkpt lat="45.65437" lon="4.58013">
        <ele>715.38441787796</ele>
        <time>2022-05-03T05:47:54.623Z</time>
      </trkpt>
      <trkpt lat="45.65425" lon="4.5802">
        <ele>715.01905227774</ele>
        <time>2022-05-03T05:47:55.004Z</time>
      </trkpt>
      <trkpt lat="45.65417" lon="4.58032">
        <ele>714.65518382781</ele>
        <time>2022-05-03T05:47:55.387Z</time>
      </trkpt>
      <trkpt lat="45.65411" lon="4.58046">
        <ele>714.26032680611</ele>
        <time>2022-05-03T05:47:55.772Z</time>
      </trkpt>
      <trkpt lat="45.65408" lon="4.58056">
        <ele>713.91417575342</ele>
        <time>2022-05-03T05:47:56.158Z</time>
      </trkpt>
      <trkpt lat="45.65408" lon="4.58069">
        <ele>713.55346448068</ele>
        <time>2022-05-03T05:47:56.545Z</time>
      </trkpt>
      <trkpt lat="45.65412" lon="4.58081">
        <ele>713.24404886931</ele>
        <time>2022-05-03T05:47:56.934Z</time>
      </trkpt>
      <trkpt lat="45.65437" lon="4.58115">
        <ele>712.66741216235</ele>
        <time>2022-05-03T05:47:57.328Z</time>
      </trkpt>
      <trkpt lat="45.65444" lon="4.58135">
        <ele>712.83345423805</ele>
        <time>2022-05-03T05:47:57.725Z</time>
      </trkpt>
      <trkpt lat="45.65446" lon="4.58152">
        <ele>713.21041682619</ele>
        <time>2022-05-03T05:47:58.124Z</time>
      </trkpt>
      <trkpt lat="45.65442" lon="4.58247">
        <ele>714.08756858932</ele>
        <time>2022-05-03T05:47:58.534Z</time>
      </trkpt>
      <trkpt lat="45.65458" lon="4.58347">
        <ele>714.69468556504</ele>
        <time>2022-05-03T05:47:58.955Z</time>
      </trkpt>
      <trkpt lat="45.65464" lon="4.58378">
        <ele>715.37416511518</ele>
        <time>2022-05-03T05:47:59.380Z</time>
      </trkpt>
      <trkpt lat="45.65465" lon="4.58427">
        <ele>716.12813251898</ele>
        <time>2022-05-03T05:47:59.810Z</time>
      </trkpt>
      <trkpt lat="45.65456" lon="4.58477">
        <ele>717.03702910648</ele>
        <time>2022-05-03T05:48:00.246Z</time>
      </trkpt>
      <trkpt lat="45.65447" lon="4.58502">
        <ele>717.81814113329</ele>
        <time>2022-05-03T05:48:00.685Z</time>
      </trkpt>
      <trkpt lat="45.65437" lon="4.58528">
        <ele>718.57477418071</ele>
        <time>2022-05-03T05:48:01.127Z</time>
      </trkpt>
      <trkpt lat="45.65423" lon="4.58556">
        <ele>719.09823397771</ele>
        <time>2022-05-03T05:48:01.573Z</time>
      </trkpt>
      <trkpt lat="45.65401" lon="4.58583">
        <ele>719.46928773764</ele>
        <time>2022-05-03T05:48:02.024Z</time>
      </trkpt>
      <trkpt lat="45.65359" lon="4.5861">
        <ele>719.92077237173</ele>
        <time>2022-05-03T05:48:02.482Z</time>
      </trkpt>
      <trkpt lat="45.65332" lon="4.58626">
        <ele>719.96794227002</ele>
        <time>2022-05-03T05:48:02.945Z</time>
      </trkpt>
      <trkpt lat="45.65322" lon="4.58635">
        <ele>719.56013962372</ele>
        <time>2022-05-03T05:48:03.410Z</time>
      </trkpt>
      <trkpt lat="45.65312" lon="4.58662">
        <ele>718.64348052941</ele>
        <time>2022-05-03T05:48:03.878Z</time>
      </trkpt>
      <trkpt lat="45.65306" lon="4.58681">
        <ele>717.55109477844</ele>
        <time>2022-05-03T05:48:04.349Z</time>
      </trkpt>
      <trkpt lat="45.65304" lon="4.58704">
        <ele>716.13980102435</ele>
        <time>2022-05-03T05:48:04.822Z</time>
      </trkpt>
      <trkpt lat="45.65306" lon="4.58723">
        <ele>714.4717110958</ele>
        <time>2022-05-03T05:48:05.297Z</time>
      </trkpt>
      <trkpt lat="45.65311" lon="4.58737">
        <ele>712.52887006006</ele>
        <time>2022-05-03T05:48:05.774Z</time>
      </trkpt>
      <trkpt lat="45.65323" lon="4.5875">
        <ele>710.23301818818</ele>
        <time>2022-05-03T05:48:06.254Z</time>
      </trkpt>
      <trkpt lat="45.65366" lon="4.58766">
        <ele>707.34673806896</ele>
        <time>2022-05-03T05:48:06.741Z</time>
      </trkpt>
      <trkpt lat="45.65398" lon="4.58801">
        <ele>704.57733178867</ele>
        <time>2022-05-03T05:48:07.234Z</time>
      </trkpt>
      <trkpt lat="45.65429" lon="4.58859">
        <ele>701.73637361782</ele>
        <time>2022-05-03T05:48:07.735Z</time>
      </trkpt>
      <trkpt lat="45.65472" lon="4.58961">
        <ele>698.45396381422</ele>
        <time>2022-05-03T05:48:08.250Z</time>
      </trkpt>
      <trkpt lat="45.6548" lon="4.59004">
        <ele>695.39631567428</ele>
        <time>2022-05-03T05:48:08.770Z</time>
      </trkpt>
      <trkpt lat="45.6548" lon="4.59047">
        <ele>692.4065674789</ele>
        <time>2022-05-03T05:48:09.295Z</time>
      </trkpt>
      <trkpt lat="45.65472" lon="4.59086">
        <ele>689.43464854593</ele>
        <time>2022-05-03T05:48:09.824Z</time>
      </trkpt>
      <trkpt lat="45.6545" lon="4.59113">
        <ele>686.57019206961</ele>
        <time>2022-05-03T05:48:10.358Z</time>
      </trkpt>
      <trkpt lat="45.65437" lon="4.59143">
        <ele>683.60112576529</ele>
        <time>2022-05-03T05:48:10.896Z</time>
      </trkpt>
      <trkpt lat="45.65435" lon="4.59169">
        <ele>680.64186841011</ele>
        <time>2022-05-03T05:48:11.437Z</time>
      </trkpt>
      <trkpt lat="45.65443" lon="4.5919">
        <ele>677.69615090021</ele>
        <time>2022-05-03T05:48:11.980Z</time>
      </trkpt>
      <trkpt lat="45.65491" lon="4.59258">
        <ele>674.54911669646</ele>
        <time>2022-05-03T05:48:12.534Z</time>
      </trkpt>
      <trkpt lat="45.65567" lon="4.59462">
        <ele>671.52074061554</ele>
        <time>2022-05-03T05:48:13.114Z</time>
      </trkpt>
      <trkpt lat="45.65592" lon="4.59496">
        <ele>668.73942476244</ele>
        <time>2022-05-03T05:48:13.700Z</time>
      </trkpt>
      <trkpt lat="45.65664" lon="4.5955">
        <ele>666.00213211122</ele>
        <time>2022-05-03T05:48:14.299Z</time>
      </trkpt>
      <trkpt lat="45.65664" lon="4.5955">
        <ele>663.70482843356</ele>
        <time>2022-05-03T05:48:14.898Z</time>
      </trkpt>
      <trkpt lat="45.65664" lon="4.5955">
        <ele>661.56624029733</ele>
        <time>2022-05-03T05:48:15.497Z</time>
      </trkpt>
      <trkpt lat="45.65665" lon="4.5955">
        <ele>659.56819618524</ele>
        <time>2022-05-03T05:48:16.096Z</time>
      </trkpt>
      <trkpt lat="45.65689" lon="4.59583">
        <ele>657.67348624905</ele>
        <time>2022-05-03T05:48:16.700Z</time>
      </trkpt>
      <trkpt lat="45.65697" lon="4.59603">
        <ele>655.8778769885</ele>
        <time>2022-05-03T05:48:17.307Z</time>
      </trkpt>
      <trkpt lat="45.65699" lon="4.59608">
        <ele>654.13071133134</ele>
        <time>2022-05-03T05:48:17.914Z</time>
      </trkpt>
      <trkpt lat="45.65702" lon="4.59638">
        <ele>652.41415857179</ele>
        <time>2022-05-03T05:48:18.525Z</time>
      </trkpt>
      <trkpt lat="45.65722" lon="4.59698">
        <ele>650.56174266653</ele>
        <time>2022-05-03T05:48:19.143Z</time>
      </trkpt>
      <trkpt lat="45.65767" lon="4.59869">
        <ele>648.46980180623</ele>
        <time>2022-05-03T05:48:19.782Z</time>
      </trkpt>
      <trkpt lat="45.6577" lon="4.5989">
        <ele>646.68621529678</ele>
        <time>2022-05-03T05:48:20.423Z</time>
      </trkpt>
      <trkpt lat="45.6577" lon="4.5989">
        <ele>644.94538775048</ele>
        <time>2022-05-03T05:48:21.064Z</time>
      </trkpt>
      <trkpt lat="45.65778" lon="4.59944">
        <ele>642.94330561075</ele>
        <time>2022-05-03T05:48:21.711Z</time>
      </trkpt>
      <trkpt lat="45.65821" lon="4.60017">
        <ele>641.26300057468</ele>
        <time>2022-05-03T05:48:22.369Z</time>
      </trkpt>
      <trkpt lat="45.65831" lon="4.60076">
        <ele>639.37752143957</ele>
        <time>2022-05-03T05:48:23.034Z</time>
      </trkpt>
      <trkpt lat="45.65832" lon="4.6013">
        <ele>637.56987968486</ele>
        <time>2022-05-03T05:48:23.705Z</time>
      </trkpt>
      <trkpt lat="45.65844" lon="4.60189">
        <ele>635.92006413018</ele>
        <time>2022-05-03T05:48:24.383Z</time>
      </trkpt>
      <trkpt lat="45.65842" lon="4.60221">
        <ele>634.34474071011</ele>
        <time>2022-05-03T05:48:25.064Z</time>
      </trkpt>
      <trkpt lat="45.6583" lon="4.60238">
        <ele>632.82667896685</ele>
        <time>2022-05-03T05:48:25.748Z</time>
      </trkpt>
      <trkpt lat="45.65832" lon="4.60244">
        <ele>631.45034363973</ele>
        <time>2022-05-03T05:48:26.433Z</time>
      </trkpt>
      <trkpt lat="45.65832" lon="4.60244">
        <ele>630.11804774879</ele>
        <time>2022-05-03T05:48:27.118Z</time>
      </trkpt>
      <trkpt lat="45.65832" lon="4.60244">
        <ele>628.80890453354</ele>
        <time>2022-05-03T05:48:27.803Z</time>
      </trkpt>
      <trkpt lat="45.65832" lon="4.60244">
        <ele>630.11804774879</ele>
        <time>2022-05-03T05:48:28.488Z</time>
      </trkpt>
      <trkpt lat="45.6583" lon="4.60238">
        <ele>632.82667896685</ele>
        <time>2022-05-03T05:48:29.173Z</time>
      </trkpt>
      <trkpt lat="45.65796" lon="4.60265">
        <ele>624.71136553943</ele>
        <time>2022-05-03T05:48:29.865Z</time>
      </trkpt>
      <trkpt lat="45.65782" lon="4.60276">
        <ele>623.3159098176</ele>
        <time>2022-05-03T05:48:30.559Z</time>
      </trkpt>
      <trkpt lat="45.65755" lon="4.60306">
        <ele>621.79041081132</ele>
        <time>2022-05-03T05:48:31.259Z</time>
      </trkpt>
      <trkpt lat="45.65726" lon="4.6039">
        <ele>620.15818105596</ele>
        <time>2022-05-03T05:48:31.969Z</time>
      </trkpt>
      <trkpt lat="45.65706" lon="4.60495">
        <ele>618.53423195867</ele>
        <time>2022-05-03T05:48:32.691Z</time>
      </trkpt>
      <trkpt lat="45.65685" lon="4.60658">
        <ele>616.75145784918</ele>
        <time>2022-05-03T05:48:33.432Z</time>
      </trkpt>
      <trkpt lat="45.65679" lon="4.60679">
        <ele>615.20260641651</ele>
        <time>2022-05-03T05:48:34.176Z</time>
      </trkpt>
      <trkpt lat="45.65668" lon="4.60699">
        <ele>613.80103109745</ele>
        <time>2022-05-03T05:48:34.923Z</time>
      </trkpt>
      <trkpt lat="45.65652" lon="4.60716">
        <ele>612.35095677263</ele>
        <time>2022-05-03T05:48:35.673Z</time>
      </trkpt>
      <trkpt lat="45.65641" lon="4.60733">
        <ele>611.04884209302</ele>
        <time>2022-05-03T05:48:36.425Z</time>
      </trkpt>
      <trkpt lat="45.65633" lon="4.60751">
        <ele>609.82547060496</ele>
        <time>2022-05-03T05:48:37.180Z</time>
      </trkpt>
      <trkpt lat="45.65626" lon="4.60772">
        <ele>608.81268168208</ele>
        <time>2022-05-03T05:48:37.937Z</time>
      </trkpt>
      <trkpt lat="45.65624" lon="4.60795">
        <ele>607.90400830774</ele>
        <time>2022-05-03T05:48:38.697Z</time>
      </trkpt>
      <trkpt lat="45.65625" lon="4.60843">
        <ele>607.01855603728</ele>
        <time>2022-05-03T05:48:39.462Z</time>
      </trkpt>
      <trkpt lat="45.6563" lon="4.60881">
        <ele>606.06777453222</ele>
        <time>2022-05-03T05:48:40.232Z</time>
      </trkpt>
      <trkpt lat="45.65639" lon="4.60912">
        <ele>605.09362342536</ele>
        <time>2022-05-03T05:48:41.005Z</time>
      </trkpt>
      <trkpt lat="45.65652" lon="4.60938">
        <ele>604.21019471835</ele>
        <time>2022-05-03T05:48:41.782Z</time>
      </trkpt>
      <trkpt lat="45.65701" lon="4.60989">
        <ele>603.29907590772</ele>
        <time>2022-05-03T05:48:42.569Z</time>
      </trkpt>
      <trkpt lat="45.65722" lon="4.61007">
        <ele>602.60588235361</ele>
        <time>2022-05-03T05:48:43.360Z</time>
      </trkpt>
      <trkpt lat="45.65733" lon="4.61026">
        <ele>601.86444373279</ele>
        <time>2022-05-03T05:48:44.153Z</time>
      </trkpt>
      <trkpt lat="45.65741" lon="4.61048">
        <ele>601.10872197802</ele>
        <time>2022-05-03T05:48:44.949Z</time>
      </trkpt>
      <trkpt lat="45.65744" lon="4.61067">
        <ele>600.36844033395</ele>
        <time>2022-05-03T05:48:45.747Z</time>
      </trkpt>
      <trkpt lat="45.65744" lon="4.61067">
        <ele>599.66182176212</ele>
        <time>2022-05-03T05:48:46.545Z</time>
      </trkpt>
      <trkpt lat="45.65744" lon="4.61067">
        <ele>598.93834331938</ele>
        <time>2022-05-03T05:48:47.343Z</time>
      </trkpt>
      <trkpt lat="45.65746" lon="4.61077">
        <ele>598.18464853209</ele>
        <time>2022-05-03T05:48:48.143Z</time>
      </trkpt>
      <trkpt lat="45.65751" lon="4.61116">
        <ele>597.34932280614</ele>
        <time>2022-05-03T05:48:48.947Z</time>
      </trkpt>
      <trkpt lat="45.65752" lon="4.61154">
        <ele>596.47518317907</ele>
        <time>2022-05-03T05:48:49.755Z</time>
      </trkpt>
      <trkpt lat="45.65751" lon="4.61168">
        <ele>595.5760711811</ele>
        <time>2022-05-03T05:48:50.565Z</time>
      </trkpt>
      <trkpt lat="45.65744" lon="4.61202">
        <ele>594.57965696739</ele>
        <time>2022-05-03T05:48:51.379Z</time>
      </trkpt>
      <trkpt lat="45.65742" lon="4.61225">
        <ele>593.57147961052</ele>
        <time>2022-05-03T05:48:52.195Z</time>
      </trkpt>
      <trkpt lat="45.65746" lon="4.61261">
        <ele>592.54455751006</ele>
        <time>2022-05-03T05:48:53.015Z</time>
      </trkpt>
      <trkpt lat="45.65746" lon="4.61261">
        <ele>591.61116969995</ele>
        <time>2022-05-03T05:48:53.835Z</time>
      </trkpt>
      <trkpt lat="45.65754" lon="4.61283">
        <ele>590.66484414051</ele>
        <time>2022-05-03T05:48:54.658Z</time>
      </trkpt>
      <trkpt lat="45.65772" lon="4.61317">
        <ele>589.70828984829</ele>
        <time>2022-05-03T05:48:55.486Z</time>
      </trkpt>
      <trkpt lat="45.65795" lon="4.61345">
        <ele>588.86108223493</ele>
        <time>2022-05-03T05:48:56.319Z</time>
      </trkpt>
      <trkpt lat="45.65881" lon="4.61448">
        <ele>587.62156636037</ele>
        <time>2022-05-03T05:48:57.170Z</time>
      </trkpt>
      <trkpt lat="45.65895" lon="4.61468">
        <ele>586.76576797537</ele>
        <time>2022-05-03T05:48:58.024Z</time>
      </trkpt>
      <trkpt lat="45.65913" lon="4.61498">
        <ele>585.99503764292</ele>
        <time>2022-05-03T05:48:58.882Z</time>
      </trkpt>
      <trkpt lat="45.65919" lon="4.61506">
        <ele>585.23102112939</ele>
        <time>2022-05-03T05:48:59.742Z</time>
      </trkpt>
      <trkpt lat="45.65934" lon="4.61513">
        <ele>584.44784405496</ele>
        <time>2022-05-03T05:49:00.604Z</time>
      </trkpt>
      <trkpt lat="45.65976" lon="4.61505">
        <ele>583.7648514332</ele>
        <time>2022-05-03T05:49:01.473Z</time>
      </trkpt>
      <trkpt lat="45.65987" lon="4.61505">
        <ele>582.9879692161</ele>
        <time>2022-05-03T05:49:02.344Z</time>
      </trkpt>
      <trkpt lat="45.65993" lon="4.61506">
        <ele>582.14631541389</ele>
        <time>2022-05-03T05:49:03.216Z</time>
      </trkpt>
      <trkpt lat="45.66005" lon="4.61516">
        <ele>581.17716830785</ele>
        <time>2022-05-03T05:49:04.090Z</time>
      </trkpt>
      <trkpt lat="45.66013" lon="4.61541">
        <ele>580.07766409429</ele>
        <time>2022-05-03T05:49:04.967Z</time>
      </trkpt>
      <trkpt lat="45.66017" lon="4.61555">
        <ele>578.92064067509</ele>
        <time>2022-05-03T05:49:05.846Z</time>
      </trkpt>
      <trkpt lat="45.6602" lon="4.61588">
        <ele>577.57011339504</ele>
        <time>2022-05-03T05:49:06.728Z</time>
      </trkpt>
      <trkpt lat="45.66019" lon="4.6161">
        <ele>576.25046421167</ele>
        <time>2022-05-03T05:49:07.613Z</time>
      </trkpt>
      <trkpt lat="45.66019" lon="4.6161">
        <ele>574.87852037131</ele>
        <time>2022-05-03T05:49:08.498Z</time>
      </trkpt>
      <trkpt lat="45.66019" lon="4.6161">
        <ele>573.40838420384</ele>
        <time>2022-05-03T05:49:09.383Z</time>
      </trkpt>
      <trkpt lat="45.66019" lon="4.61619">
        <ele>571.82810683821</ele>
        <time>2022-05-03T05:49:10.269Z</time>
      </trkpt>
      <trkpt lat="45.66009" lon="4.61689">
        <ele>569.94596455834</ele>
        <time>2022-05-03T05:49:11.163Z</time>
      </trkpt>
      <trkpt lat="45.66002" lon="4.61708">
        <ele>568.12218169961</ele>
        <time>2022-05-03T05:49:12.059Z</time>
      </trkpt>
      <trkpt lat="45.65989" lon="4.61728">
        <ele>566.22239899134</ele>
        <time>2022-05-03T05:49:12.958Z</time>
      </trkpt>
      <trkpt lat="45.65981" lon="4.61736">
        <ele>564.32746669496</ele>
        <time>2022-05-03T05:49:13.859Z</time>
      </trkpt>
      <trkpt lat="45.65935" lon="4.61765">
        <ele>562.20427043037</ele>
        <time>2022-05-03T05:49:14.768Z</time>
      </trkpt>
      <trkpt lat="45.65924" lon="4.61773">
        <ele>560.20205673764</ele>
        <time>2022-05-03T05:49:15.679Z</time>
      </trkpt>
      <trkpt lat="45.65917" lon="4.61782">
        <ele>558.22352745699</ele>
        <time>2022-05-03T05:49:16.592Z</time>
      </trkpt>
      <trkpt lat="45.65898" lon="4.6184">
        <ele>556.29701933944</ele>
        <time>2022-05-03T05:49:17.512Z</time>
      </trkpt>
      <trkpt lat="45.65849" lon="4.61916">
        <ele>554.21611234059</ele>
        <time>2022-05-03T05:49:18.443Z</time>
      </trkpt>
      <trkpt lat="45.65834" lon="4.61949">
        <ele>552.41603562723</ele>
        <time>2022-05-03T05:49:19.379Z</time>
      </trkpt>
      <trkpt lat="45.65806" lon="4.62016">
        <ele>550.5935424125</ele>
        <time>2022-05-03T05:49:20.323Z</time>
      </trkpt>
      <trkpt lat="45.65798" lon="4.62034">
        <ele>548.95414472182</ele>
        <time>2022-05-03T05:49:21.270Z</time>
      </trkpt>
      <trkpt lat="45.65778" lon="4.62062">
        <ele>547.33512713164</ele>
        <time>2022-05-03T05:49:22.221Z</time>
      </trkpt>
      <trkpt lat="45.65774" lon="4.62077">
        <ele>545.96491587802</ele>
        <time>2022-05-03T05:49:23.174Z</time>
      </trkpt>
      <trkpt lat="45.65774" lon="4.62077">
        <ele>544.68443480258</ele>
        <time>2022-05-03T05:49:24.127Z</time>
      </trkpt>
      <trkpt lat="45.65769" lon="4.62123">
        <ele>543.51213707362</ele>
        <time>2022-05-03T05:49:25.085Z</time>
      </trkpt>
      <trkpt lat="45.65758" lon="4.62167">
        <ele>542.22568102847</ele>
        <time>2022-05-03T05:49:26.049Z</time>
      </trkpt>
      <trkpt lat="45.65756" lon="4.62199">
        <ele>541.02185202531</ele>
        <time>2022-05-03T05:49:27.016Z</time>
      </trkpt>
      <trkpt lat="45.65757" lon="4.62215">
        <ele>539.95670197841</ele>
        <time>2022-05-03T05:49:27.985Z</time>
      </trkpt>
      <trkpt lat="45.65761" lon="4.62234">
        <ele>538.94633025411</ele>
        <time>2022-05-03T05:49:28.956Z</time>
      </trkpt>
      <trkpt lat="45.65767" lon="4.62251">
        <ele>537.90803657218</ele>
        <time>2022-05-03T05:49:29.929Z</time>
      </trkpt>
      <trkpt lat="45.65785" lon="4.62297">
        <ele>536.82524767075</ele>
        <time>2022-05-03T05:49:30.908Z</time>
      </trkpt>
      <trkpt lat="45.65789" lon="4.62313">
        <ele>535.64390283724</ele>
        <time>2022-05-03T05:49:31.889Z</time>
      </trkpt>
      <trkpt lat="45.65791" lon="4.62341">
        <ele>534.37077732631</ele>
        <time>2022-05-03T05:49:32.873Z</time>
      </trkpt>
      <trkpt lat="45.65787" lon="4.62372">
        <ele>533.06414972321</ele>
        <time>2022-05-03T05:49:33.861Z</time>
      </trkpt>
      <trkpt lat="45.65765" lon="4.62429">
        <ele>531.60751546153</ele>
        <time>2022-05-03T05:49:34.856Z</time>
      </trkpt>
      <trkpt lat="45.65699" lon="4.62517">
        <ele>529.89965314849</ele>
        <time>2022-05-03T05:49:35.866Z</time>
      </trkpt>
      <trkpt lat="45.65671" lon="4.62577">
        <ele>528.54010345892</ele>
        <time>2022-05-03T05:49:36.884Z</time>
      </trkpt>
      <trkpt lat="45.65662" lon="4.62609">
        <ele>527.15550728948</ele>
        <time>2022-05-03T05:49:37.906Z</time>
      </trkpt>
      <trkpt lat="45.65663" lon="4.62642">
        <ele>525.7570762514</ele>
        <time>2022-05-03T05:49:38.931Z</time>
      </trkpt>
      <trkpt lat="45.65674" lon="4.62667">
        <ele>524.42604819155</ele>
        <time>2022-05-03T05:49:39.960Z</time>
      </trkpt>
      <trkpt lat="45.65702" lon="4.62682">
        <ele>523.22563073285</ele>
        <time>2022-05-03T05:49:40.993Z</time>
      </trkpt>
      <trkpt lat="45.65735" lon="4.62692">
        <ele>522.05307411173</ele>
        <time>2022-05-03T05:49:42.032Z</time>
      </trkpt>
      <trkpt lat="45.65798" lon="4.62716">
        <ele>520.54275374682</ele>
        <time>2022-05-03T05:49:43.081Z</time>
      </trkpt>
      <trkpt lat="45.65856" lon="4.62703">
        <ele>519.26970162513</ele>
        <time>2022-05-03T05:49:44.140Z</time>
      </trkpt>
      <trkpt lat="45.65894" lon="4.6269">
        <ele>517.74346370695</ele>
        <time>2022-05-03T05:49:45.205Z</time>
      </trkpt>
      <trkpt lat="45.65924" lon="4.62697">
        <ele>516.08531049782</ele>
        <time>2022-05-03T05:49:46.275Z</time>
      </trkpt>
      <trkpt lat="45.65992" lon="4.62777">
        <ele>514.19797837889</ele>
        <time>2022-05-03T05:49:47.359Z</time>
      </trkpt>
      <trkpt lat="45.66001" lon="4.62799">
        <ele>512.55729734653</ele>
        <time>2022-05-03T05:49:48.446Z</time>
      </trkpt>
      <trkpt lat="45.65998" lon="4.62825">
        <ele>510.87924609585</ele>
        <time>2022-05-03T05:49:49.536Z</time>
      </trkpt>
      <trkpt lat="45.65969" lon="4.62921">
        <ele>509.10044417644</ele>
        <time>2022-05-03T05:49:50.637Z</time>
      </trkpt>
      <trkpt lat="45.65965" lon="4.62948">
        <ele>507.58578925902</ele>
        <time>2022-05-03T05:49:51.742Z</time>
      </trkpt>
      <trkpt lat="45.65967" lon="4.62962">
        <ele>506.16752061322</ele>
        <time>2022-05-03T05:49:52.848Z</time>
      </trkpt>
      <trkpt lat="45.65967" lon="4.62962">
        <ele>504.84068945812</ele>
        <time>2022-05-03T05:49:53.954Z</time>
      </trkpt>
      <trkpt lat="45.65971" lon="4.6299">
        <ele>503.55915998368</ele>
        <time>2022-05-03T05:49:55.063Z</time>
      </trkpt>
      <trkpt lat="45.66044" lon="4.63067">
        <ele>502.29691208864</ele>
        <time>2022-05-03T05:49:56.187Z</time>
      </trkpt>
      <trkpt lat="45.6605" lon="4.63074">
        <ele>501.21853250204</ele>
        <time>2022-05-03T05:49:57.312Z</time>
      </trkpt>
      <trkpt lat="45.66055" lon="4.63094">
        <ele>500.18031565558</ele>
        <time>2022-05-03T05:49:58.440Z</time>
      </trkpt>
      <trkpt lat="45.66053" lon="4.63151">
        <ele>499.12535572012</ele>
        <time>2022-05-03T05:49:59.574Z</time>
      </trkpt>
      <trkpt lat="45.66052" lon="4.63183">
        <ele>498.27686990876</ele>
        <time>2022-05-03T05:50:00.712Z</time>
      </trkpt>
      <trkpt lat="45.66056" lon="4.63191">
        <ele>497.50793726838</ele>
        <time>2022-05-03T05:50:01.851Z</time>
      </trkpt>
      <trkpt lat="45.66061" lon="4.63196">
        <ele>496.77076733139</ele>
        <time>2022-05-03T05:50:02.991Z</time>
      </trkpt>
      <trkpt lat="45.66072" lon="4.63211">
        <ele>496.04417499328</ele>
        <time>2022-05-03T05:50:04.133Z</time>
      </trkpt>
      <trkpt lat="45.66085" lon="4.63229">
        <ele>495.28625943903</ele>
        <time>2022-05-03T05:50:05.278Z</time>
      </trkpt>
      <trkpt lat="45.66091" lon="4.63243">
        <ele>494.45029702136</ele>
        <time>2022-05-03T05:50:06.425Z</time>
      </trkpt>
      <trkpt lat="45.66096" lon="4.63259">
        <ele>493.49869599393</ele>
        <time>2022-05-03T05:50:07.574Z</time>
      </trkpt>
      <trkpt lat="45.66096" lon="4.63259">
        <ele>492.46082537561</ele>
        <time>2022-05-03T05:50:08.723Z</time>
      </trkpt>
      <trkpt lat="45.66096" lon="4.63259">
        <ele>491.28007917521</ele>
        <time>2022-05-03T05:50:09.872Z</time>
      </trkpt>
      <trkpt lat="45.66096" lon="4.63259">
        <ele>492.46082537561</ele>
        <time>2022-05-03T05:50:11.021Z</time>
      </trkpt>
      <trkpt lat="45.66106" lon="4.6329">
        <ele>488.33458180837</ele>
        <time>2022-05-03T05:50:12.174Z</time>
      </trkpt>
      <trkpt lat="45.66106" lon="4.63316">
        <ele>486.60178576057</ele>
        <time>2022-05-03T05:50:13.329Z</time>
      </trkpt>
      <trkpt lat="45.66066" lon="4.63479">
        <ele>484.26650102771</ele>
        <time>2022-05-03T05:50:14.504Z</time>
      </trkpt>
      <trkpt lat="45.66041" lon="4.63584">
        <ele>482.14274573996</ele>
        <time>2022-05-03T05:50:15.691Z</time>
      </trkpt>
      <trkpt lat="45.66036" lon="4.63613">
        <ele>480.07036443557</ele>
        <time>2022-05-03T05:50:16.882Z</time>
      </trkpt>
      <trkpt lat="45.6604" lon="4.63637">
        <ele>478.06663779995</ele>
        <time>2022-05-03T05:50:18.075Z</time>
      </trkpt>
      <trkpt lat="45.66047" lon="4.63647">
        <ele>476.07119159008</ele>
        <time>2022-05-03T05:50:19.270Z</time>
      </trkpt>
      <trkpt lat="45.66047" lon="4.63647">
        <ele>474.03634270145</ele>
        <time>2022-05-03T05:50:20.465Z</time>
      </trkpt>
      <trkpt lat="45.66047" lon="4.63647">
        <ele>471.95654314743</ele>
        <time>2022-05-03T05:50:21.660Z</time>
      </trkpt>
      <trkpt lat="45.66054" lon="4.63657">
        <ele>469.79143339413</ele>
        <time>2022-05-03T05:50:22.857Z</time>
      </trkpt>
      <trkpt lat="45.66071" lon="4.63666">
        <ele>467.56763187865</ele>
        <time>2022-05-03T05:50:24.057Z</time>
      </trkpt>
      <trkpt lat="45.66099" lon="4.63676">
        <ele>465.18299535468</ele>
        <time>2022-05-03T05:50:25.261Z</time>
      </trkpt>
      <trkpt lat="45.66195" lon="4.63684">
        <ele>462.50047583294</ele>
        <time>2022-05-03T05:50:26.480Z</time>
      </trkpt>
      <trkpt lat="45.66263" lon="4.63693">
        <ele>459.76356254586</ele>
        <time>2022-05-03T05:50:27.710Z</time>
      </trkpt>
      <trkpt lat="45.66298" lon="4.63692">
        <ele>456.97655488654</ele>
        <time>2022-05-03T05:50:28.946Z</time>
      </trkpt>
      <trkpt lat="45.66304" lon="4.63692">
        <ele>454.28416623344</ele>
        <time>2022-05-03T05:50:30.183Z</time>
      </trkpt>
      <trkpt lat="45.66352" lon="4.6369">
        <ele>451.39294895059</ele>
        <time>2022-05-03T05:50:31.428Z</time>
      </trkpt>
      <trkpt lat="45.66352" lon="4.6369">
        <ele>448.66619514959</ele>
        <time>2022-05-03T05:50:32.673Z</time>
      </trkpt>
      <trkpt lat="45.66352" lon="4.6369">
        <ele>445.91693933179</ele>
        <time>2022-05-03T05:50:33.918Z</time>
      </trkpt>
      <trkpt lat="45.66431" lon="4.63687">
        <ele>442.80471334925</ele>
        <time>2022-05-03T05:50:35.175Z</time>
      </trkpt>
      <trkpt lat="45.66459" lon="4.63707">
        <ele>439.92466078217</ele>
        <time>2022-05-03T05:50:36.437Z</time>
      </trkpt>
      <trkpt lat="45.66483" lon="4.63731">
        <ele>437.13137005144</ele>
        <time>2022-05-03T05:50:37.704Z</time>
      </trkpt>
      <trkpt lat="45.66498" lon="4.63756">
        <ele>434.36006639981</ele>
        <time>2022-05-03T05:50:38.975Z</time>
      </trkpt>
      <trkpt lat="45.66508" lon="4.63785">
        <ele>431.63553520649</ele>
        <time>2022-05-03T05:50:40.249Z</time>
      </trkpt>
      <trkpt lat="45.66536" lon="4.63898">
        <ele>428.87485594866</ele>
        <time>2022-05-03T05:50:41.537Z</time>
      </trkpt>
      <trkpt lat="45.6656" lon="4.63991">
        <ele>426.30899061538</ele>
        <time>2022-05-03T05:50:42.836Z</time>
      </trkpt>
      <trkpt lat="45.66574" lon="4.64136">
        <ele>423.67952556878</ele>
        <time>2022-05-03T05:50:44.151Z</time>
      </trkpt>
      <trkpt lat="45.66592" lon="4.64241">
        <ele>421.26262996876</ele>
        <time>2022-05-03T05:50:45.478Z</time>
      </trkpt>
      <trkpt lat="45.66608" lon="4.64317">
        <ele>419.01158713644</ele>
        <time>2022-05-03T05:50:46.814Z</time>
      </trkpt>
      <trkpt lat="45.66616" lon="4.64359">
        <ele>416.97034420313</ele>
        <time>2022-05-03T05:50:48.155Z</time>
      </trkpt>
      <trkpt lat="45.66634" lon="4.64392">
        <ele>415.06219396565</ele>
        <time>2022-05-03T05:50:49.501Z</time>
      </trkpt>
      <trkpt lat="45.66655" lon="4.64411">
        <ele>413.24674449666</ele>
        <time>2022-05-03T05:50:50.851Z</time>
      </trkpt>
      <trkpt lat="45.66688" lon="4.64422">
        <ele>411.51973827632</ele>
        <time>2022-05-03T05:50:52.206Z</time>
      </trkpt>
      <trkpt lat="45.6671" lon="4.64433">
        <ele>409.97654445876</ele>
        <time>2022-05-03T05:50:53.565Z</time>
      </trkpt>
      <trkpt lat="45.6671" lon="4.64434">
        <ele>408.55827578191</ele>
        <time>2022-05-03T05:50:54.924Z</time>
      </trkpt>
      <trkpt lat="45.6671" lon="4.64434">
        <ele>407.17078587185</ele>
        <time>2022-05-03T05:50:56.283Z</time>
      </trkpt>
      <trkpt lat="45.66736" lon="4.64447">
        <ele>405.74726487525</ele>
        <time>2022-05-03T05:50:57.646Z</time>
      </trkpt>
      <trkpt lat="45.66782" lon="4.64479">
        <ele>404.16545298221</ele>
        <time>2022-05-03T05:50:59.018Z</time>
      </trkpt>
      <trkpt lat="45.66799" lon="4.64496">
        <ele>402.53847808009</ele>
        <time>2022-05-03T05:51:00.393Z</time>
      </trkpt>
      <trkpt lat="45.66819" lon="4.64521">
        <ele>400.78307450685</ele>
        <time>2022-05-03T05:51:01.772Z</time>
      </trkpt>
      <trkpt lat="45.66849" lon="4.64563">
        <ele>398.89025162826</ele>
        <time>2022-05-03T05:51:03.158Z</time>
      </trkpt>
      <trkpt lat="45.66861" lon="4.64578">
        <ele>396.8493999552</ele>
        <time>2022-05-03T05:51:04.547Z</time>
      </trkpt>
      <trkpt lat="45.66875" lon="4.64591">
        <ele>394.62281391443</ele>
        <time>2022-05-03T05:51:05.938Z</time>
      </trkpt>
      <trkpt lat="45.66952" lon="4.64628">
        <ele>391.9812092438</ele>
        <time>2022-05-03T05:51:07.342Z</time>
      </trkpt>
      <trkpt lat="45.66979" lon="4.64638">
        <ele>389.34392489566</ele>
        <time>2022-05-03T05:51:08.751Z</time>
      </trkpt>
      <trkpt lat="45.67017" lon="4.64648">
        <ele>386.4194867354</ele>
        <time>2022-05-03T05:51:10.166Z</time>
      </trkpt>
      <trkpt lat="45.67108" lon="4.64677">
        <ele>383.04581391556</ele>
        <time>2022-05-03T05:51:11.596Z</time>
      </trkpt>
      <trkpt lat="45.6714" lon="4.64676">
        <ele>379.81439895689</ele>
        <time>2022-05-03T05:51:13.031Z</time>
      </trkpt>
      <trkpt lat="45.6718" lon="4.64659">
        <ele>376.40383011159</ele>
        <time>2022-05-03T05:51:14.472Z</time>
      </trkpt>
      <trkpt lat="45.67213" lon="4.6464">
        <ele>372.86622425124</ele>
        <time>2022-05-03T05:51:15.919Z</time>
      </trkpt>
      <trkpt lat="45.67253" lon="4.64617">
        <ele>369.16001338257</ele>
        <time>2022-05-03T05:51:17.373Z</time>
      </trkpt>
      <trkpt lat="45.67273" lon="4.6459">
        <ele>365.51425044214</ele>
        <time>2022-05-03T05:51:18.832Z</time>
      </trkpt>
      <trkpt lat="45.67302" lon="4.64506">
        <ele>361.74561225141</ele>
        <time>2022-05-03T05:51:20.301Z</time>
      </trkpt>
      <trkpt lat="45.67325" lon="4.64463">
        <ele>358.01030353159</ele>
        <time>2022-05-03T05:51:21.776Z</time>
      </trkpt>
      <trkpt lat="45.67342" lon="4.64457">
        <ele>354.39227292566</ele>
        <time>2022-05-03T05:51:23.254Z</time>
      </trkpt>
      <trkpt lat="45.67404" lon="4.64463">
        <ele>350.61413367527</ele>
        <time>2022-05-03T05:51:24.742Z</time>
      </trkpt>
      <trkpt lat="45.67414" lon="4.64467">
        <ele>347.10894785547</ele>
        <time>2022-05-03T05:51:26.231Z</time>
      </trkpt>
      <trkpt lat="45.67603" lon="4.64612">
        <ele>343.12980817312</ele>
        <time>2022-05-03T05:51:27.755Z</time>
      </trkpt>
      <trkpt lat="45.67639" lon="4.64643">
        <ele>339.94286538175</ele>
        <time>2022-05-03T05:51:29.286Z</time>
      </trkpt>
      <trkpt lat="45.67672" lon="4.64688">
        <ele>337.00220545532</ele>
        <time>2022-05-03T05:51:30.824Z</time>
      </trkpt>
      <trkpt lat="45.67711" lon="4.6476">
        <ele>334.24626479392</ele>
        <time>2022-05-03T05:51:32.372Z</time>
      </trkpt>
      <trkpt lat="45.67727" lon="4.64784">
        <ele>331.98714572783</ele>
        <time>2022-05-03T05:51:33.924Z</time>
      </trkpt>
      <trkpt lat="45.67756" lon="4.64811">
        <ele>330.08203790537</ele>
        <time>2022-05-03T05:51:35.481Z</time>
      </trkpt>
      <trkpt lat="45.67756" lon="4.64811">
        <ele>328.49215949114</ele>
        <time>2022-05-03T05:51:37.038Z</time>
      </trkpt>
      <trkpt lat="45.67783" lon="4.64825">
        <ele>327.17874212805</ele>
        <time>2022-05-03T05:51:38.600Z</time>
      </trkpt>
      <trkpt lat="45.67806" lon="4.64847">
        <ele>326.07329326304</ele>
        <time>2022-05-03T05:51:40.166Z</time>
      </trkpt>
      <trkpt lat="45.67806" lon="4.64847">
        <ele>325.31729646544</ele>
        <time>2022-05-03T05:51:41.732Z</time>
      </trkpt>
      <trkpt lat="45.67806" lon="4.64846">
        <ele>324.79048468637</ele>
        <time>2022-05-03T05:51:43.299Z</time>
      </trkpt>
      <trkpt lat="45.67806" lon="4.64847">
        <ele>324.44119049544</ele>
        <time>2022-05-03T05:51:44.866Z</time>
      </trkpt>
      <trkpt lat="45.67847" lon="4.64879">
        <ele>324.14234273993</ele>
        <time>2022-05-03T05:51:46.440Z</time>
      </trkpt>
      <trkpt lat="45.67857" lon="4.64887">
        <ele>324.04475846791</ele>
        <time>2022-05-03T05:51:48.016Z</time>
      </trkpt>
      <trkpt lat="45.67871" lon="4.64905">
        <ele>324.02985119021</ele>
        <time>2022-05-03T05:51:49.595Z</time>
      </trkpt>
      <trkpt lat="45.67916" lon="4.65002">
        <ele>324.10282002583</ele>
        <time>2022-05-03T05:51:51.187Z</time>
      </trkpt>
      <trkpt lat="45.67941" lon="4.65042">
        <ele>324.28123988342</ele>
        <time>2022-05-03T05:51:52.785Z</time>
      </trkpt>
      <trkpt lat="45.67947" lon="4.65048">
        <ele>324.37024489674</ele>
        <time>2022-05-03T05:51:54.384Z</time>
      </trkpt>
      <trkpt lat="45.67975" lon="4.65117">
        <ele>324.32893428616</ele>
        <time>2022-05-03T05:51:55.992Z</time>
      </trkpt>
      <trkpt lat="45.67978" lon="4.65126">
        <ele>324.27353694994</ele>
        <time>2022-05-03T05:51:57.601Z</time>
      </trkpt>
      <trkpt lat="45.67974" lon="4.6515">
        <ele>324.12715122883</ele>
        <time>2022-05-03T05:51:59.213Z</time>
      </trkpt>
      <trkpt lat="45.67957" lon="4.65234">
        <ele>323.92451607695</ele>
        <time>2022-05-03T05:52:00.835Z</time>
      </trkpt>
      <trkpt lat="45.67953" lon="4.65269">
        <ele>323.50439281621</ele>
        <time>2022-05-03T05:52:02.461Z</time>
      </trkpt>
      <trkpt lat="45.67953" lon="4.65492">
        <ele>322.74388972481</ele>
        <time>2022-05-03T05:52:04.112Z</time>
      </trkpt>
      <trkpt lat="45.67949" lon="4.65546">
        <ele>322.1275528212</ele>
        <time>2022-05-03T05:52:05.769Z</time>
      </trkpt>
      <trkpt lat="45.6794" lon="4.65591">
        <ele>321.44024354508</ele>
        <time>2022-05-03T05:52:07.431Z</time>
      </trkpt>
      <trkpt lat="45.67939" lon="4.65594">
        <ele>320.69903105261</ele>
        <time>2022-05-03T05:52:09.094Z</time>
      </trkpt>
      <trkpt lat="45.67912" lon="4.65703">
        <ele>319.95633284532</ele>
        <time>2022-05-03T05:52:10.770Z</time>
      </trkpt>
      <trkpt lat="45.67907" lon="4.65735">
        <ele>319.08453082136</ele>
        <time>2022-05-03T05:52:12.449Z</time>
      </trkpt>
      <trkpt lat="45.67906" lon="4.6577">
        <ele>318.1795589297</ele>
        <time>2022-05-03T05:52:14.132Z</time>
      </trkpt>
      <trkpt lat="45.67915" lon="4.65837">
        <ele>317.30922661061</ele>
        <time>2022-05-03T05:52:15.823Z</time>
      </trkpt>
      <trkpt lat="45.67916" lon="4.6585">
        <ele>316.55501783529</ele>
        <time>2022-05-03T05:52:17.515Z</time>
      </trkpt>
      <trkpt lat="45.67916" lon="4.65857">
        <ele>315.8838148658</ele>
        <time>2022-05-03T05:52:19.208Z</time>
      </trkpt>
      <trkpt lat="45.67915" lon="4.65868">
        <ele>315.30291582234</ele>
        <time>2022-05-03T05:52:20.902Z</time>
      </trkpt>
      <trkpt lat="45.67907" lon="4.65881">
        <ele>314.82584861912</ele>
        <time>2022-05-03T05:52:22.598Z</time>
      </trkpt>
      <trkpt lat="45.67901" lon="4.65882">
        <ele>314.48223670474</ele>
        <time>2022-05-03T05:52:24.295Z</time>
      </trkpt>
      <trkpt lat="45.67895" lon="4.65886">
        <ele>314.27515334646</ele>
        <time>2022-05-03T05:52:25.993Z</time>
      </trkpt>
      <trkpt lat="45.67892" lon="4.65891">
        <ele>314.2230127886</ele>
        <time>2022-05-03T05:52:27.692Z</time>
      </trkpt>
      <trkpt lat="45.67889" lon="4.65897">
        <ele>314.32072427176</ele>
        <time>2022-05-03T05:52:29.392Z</time>
      </trkpt>
      <trkpt lat="45.67888" lon="4.65903">
        <ele>314.56178792944</ele>
        <time>2022-05-03T05:52:31.093Z</time>
      </trkpt>
      <trkpt lat="45.67888" lon="4.65911">
        <ele>314.93293917771</ele>
        <time>2022-05-03T05:52:32.795Z</time>
      </trkpt>
      <trkpt lat="45.67889" lon="4.65918">
        <ele>315.41584212346</ele>
        <time>2022-05-03T05:52:34.497Z</time>
      </trkpt>
      <trkpt lat="45.67892" lon="4.65924">
        <ele>315.99025081846</ele>
        <time>2022-05-03T05:52:36.200Z</time>
      </trkpt>
      <trkpt lat="45.6789" lon="4.65934">
        <ele>316.6405523393</ele>
        <time>2022-05-03T05:52:37.904Z</time>
      </trkpt>
      <trkpt lat="45.67887" lon="4.65957">
        <ele>317.3540812276</ele>
        <time>2022-05-03T05:52:39.611Z</time>
      </trkpt>
      <trkpt lat="45.67875" lon="4.65988">
        <ele>318.09239903326</ele>
        <time>2022-05-03T05:52:41.322Z</time>
      </trkpt>
      <trkpt lat="45.6787" lon="4.66013">
        <ele>318.79585672084</ele>
        <time>2022-05-03T05:52:43.036Z</time>
      </trkpt>
      <trkpt lat="45.67881" lon="4.66092">
        <ele>319.28939166213</ele>
        <time>2022-05-03T05:52:44.759Z</time>
      </trkpt>
      <trkpt lat="45.6789" lon="4.66178">
        <ele>319.58945585683</ele>
        <time>2022-05-03T05:52:46.492Z</time>
      </trkpt>
      <trkpt lat="45.67895" lon="4.66321">
        <ele>320.13550797604</ele>
        <time>2022-05-03T05:52:48.241Z</time>
      </trkpt>
      <trkpt lat="45.67893" lon="4.66343">
        <ele>320.42140028865</ele>
        <time>2022-05-03T05:52:49.992Z</time>
      </trkpt>
      <trkpt lat="45.67905" lon="4.66346">
        <ele>320.4714199369</ele>
        <time>2022-05-03T05:52:51.745Z</time>
      </trkpt>
      <trkpt lat="45.67914" lon="4.66366">
        <ele>320.43226492799</ele>
        <time>2022-05-03T05:52:53.501Z</time>
      </trkpt>
      <trkpt lat="45.67917" lon="4.66412">
        <ele>320.29893111967</ele>
        <time>2022-05-03T05:52:55.262Z</time>
      </trkpt>
      <trkpt lat="45.67989" lon="4.66655">
        <ele>319.67712626376</ele>
        <time>2022-05-03T05:52:57.053Z</time>
      </trkpt>
      <trkpt lat="45.68009" lon="4.66716">
        <ele>319.10676908501</ele>
        <time>2022-05-03T05:52:58.851Z</time>
      </trkpt>
      <trkpt lat="45.68016" lon="4.66728">
        <ele>318.40724775083</ele>
        <time>2022-05-03T05:53:00.651Z</time>
      </trkpt>
      <trkpt lat="45.68024" lon="4.66737">
        <ele>317.60197848477</ele>
        <time>2022-05-03T05:53:02.453Z</time>
      </trkpt>
      <trkpt lat="45.6803" lon="4.66742">
        <ele>316.72776099395</ele>
        <time>2022-05-03T05:53:04.256Z</time>
      </trkpt>
      <trkpt lat="45.68042" lon="4.66751">
        <ele>315.7872808561</ele>
        <time>2022-05-03T05:53:06.061Z</time>
      </trkpt>
      <trkpt lat="45.68054" lon="4.66765">
        <ele>314.81570652157</ele>
        <time>2022-05-03T05:53:07.868Z</time>
      </trkpt>
      <trkpt lat="45.68065" lon="4.66801">
        <ele>313.84913036992</ele>
        <time>2022-05-03T05:53:09.680Z</time>
      </trkpt>
      <trkpt lat="45.68069" lon="4.66832">
        <ele>312.96996758755</ele>
        <time>2022-05-03T05:53:11.495Z</time>
      </trkpt>
      <trkpt lat="45.68079" lon="4.66849">
        <ele>312.16072597198</ele>
        <time>2022-05-03T05:53:13.313Z</time>
      </trkpt>
      <trkpt lat="45.68092" lon="4.66861">
        <ele>311.47527045208</ele>
        <time>2022-05-03T05:53:15.133Z</time>
      </trkpt>
      <trkpt lat="45.68099" lon="4.6687">
        <ele>310.97198115961</ele>
        <time>2022-05-03T05:53:16.955Z</time>
      </trkpt>
      <trkpt lat="45.68114" lon="4.66915">
        <ele>310.66089238024</ele>
        <time>2022-05-03T05:53:18.782Z</time>
      </trkpt>
      <trkpt lat="45.68125" lon="4.66938">
        <ele>310.54253830511</ele>
        <time>2022-05-03T05:53:20.612Z</time>
      </trkpt>
      <trkpt lat="45.68131" lon="4.66956">
        <ele>310.59079999653</ele>
        <time>2022-05-03T05:53:22.445Z</time>
      </trkpt>
      <trkpt lat="45.6814" lon="4.67001">
        <ele>310.7814363368</ele>
        <time>2022-05-03T05:53:24.283Z</time>
      </trkpt>
      <trkpt lat="45.68154" lon="4.6704">
        <ele>311.0745834018</ele>
        <time>2022-05-03T05:53:26.126Z</time>
      </trkpt>
      <trkpt lat="45.68171" lon="4.67099">
        <ele>311.51956083357</ele>
        <time>2022-05-03T05:53:27.976Z</time>
      </trkpt>
      <trkpt lat="45.68177" lon="4.6714">
        <ele>312.21675768656</ele>
        <time>2022-05-03T05:53:29.831Z</time>
      </trkpt>
      <trkpt lat="45.68196" lon="4.67187">
        <ele>313.05523155488</ele>
        <time>2022-05-03T05:53:31.692Z</time>
      </trkpt>
      <trkpt lat="45.68208" lon="4.67216">
        <ele>313.89559100019</ele>
        <time>2022-05-03T05:53:33.557Z</time>
      </trkpt>
      <trkpt lat="45.68216" lon="4.67272">
        <ele>314.79911034085</ele>
        <time>2022-05-03T05:53:35.428Z</time>
      </trkpt>
      <trkpt lat="45.68216" lon="4.67274">
        <ele>315.5754126346</ele>
        <time>2022-05-03T05:53:37.299Z</time>
      </trkpt>
      <trkpt lat="45.68227" lon="4.67427">
        <ele>316.08098103306</ele>
        <time>2022-05-03T05:53:39.187Z</time>
      </trkpt>
      <trkpt lat="45.68229" lon="4.67504">
        <ele>316.71914661572</ele>
        <time>2022-05-03T05:53:41.084Z</time>
      </trkpt>
      <trkpt lat="45.68231" lon="4.67651">
        <ele>317.61834056993</ele>
        <time>2022-05-03T05:53:42.998Z</time>
      </trkpt>
      <trkpt lat="45.68228" lon="4.67713">
        <ele>318.25070666504</ele>
        <time>2022-05-03T05:53:44.919Z</time>
      </trkpt>
      <trkpt lat="45.6823" lon="4.67777">
        <ele>318.65601691691</ele>
        <time>2022-05-03T05:53:46.847Z</time>
      </trkpt>
      <trkpt lat="45.68241" lon="4.67877">
        <ele>318.91499007062</ele>
        <time>2022-05-03T05:53:48.786Z</time>
      </trkpt>
      <trkpt lat="45.68262" lon="4.67947">
        <ele>318.94096072699</ele>
        <time>2022-05-03T05:53:50.734Z</time>
      </trkpt>
      <trkpt lat="45.68278" lon="4.68041">
        <ele>318.90086823161</ele>
        <time>2022-05-03T05:53:52.692Z</time>
      </trkpt>
      <trkpt lat="45.68286" lon="4.68109">
        <ele>318.78320130753</ele>
        <time>2022-05-03T05:53:54.658Z</time>
      </trkpt>
      <trkpt lat="45.683" lon="4.68289">
        <ele>318.35356040592</ele>
        <time>2022-05-03T05:53:56.645Z</time>
      </trkpt>
      <trkpt lat="45.68304" lon="4.68349">
        <ele>317.9590678568</ele>
        <time>2022-05-03T05:53:58.638Z</time>
      </trkpt>
      <trkpt lat="45.68305" lon="4.68387">
        <ele>317.66087216651</ele>
        <time>2022-05-03T05:54:00.636Z</time>
      </trkpt>
      <trkpt lat="45.68314" lon="4.68419">
        <ele>317.42600963795</ele>
        <time>2022-05-03T05:54:02.637Z</time>
      </trkpt>
      <trkpt lat="45.68402" lon="4.68581">
        <ele>317.71490063536</ele>
        <time>2022-05-03T05:54:04.661Z</time>
      </trkpt>
      <trkpt lat="45.68494" lon="4.68779">
        <ele>317.62579301435</ele>
        <time>2022-05-03T05:54:06.712Z</time>
      </trkpt>
      <trkpt lat="45.6852" lon="4.68841">
        <ele>317.83484752282</ele>
        <time>2022-05-03T05:54:08.771Z</time>
      </trkpt>
      <trkpt lat="45.68541" lon="4.68914">
        <ele>318.15797818716</ele>
        <time>2022-05-03T05:54:10.839Z</time>
      </trkpt>
      <trkpt lat="45.68551" lon="4.68996">
        <ele>318.6616097832</ele>
        <time>2022-05-03T05:54:12.916Z</time>
      </trkpt>
      <trkpt lat="45.68554" lon="4.69049">
        <ele>319.59714161766</ele>
        <time>2022-05-03T05:54:14.999Z</time>
      </trkpt>
      <trkpt lat="45.68577" lon="4.69143">
        <ele>320.77410407075</ele>
        <time>2022-05-03T05:54:17.094Z</time>
      </trkpt>
      <trkpt lat="45.68578" lon="4.69221">
        <ele>322.41464564581</ele>
        <time>2022-05-03T05:54:19.197Z</time>
      </trkpt>
      <trkpt lat="45.68574" lon="4.69249">
        <ele>324.40587899462</ele>
        <time>2022-05-03T05:54:21.303Z</time>
      </trkpt>
      <trkpt lat="45.68555" lon="4.69316">
        <ele>326.80666927493</ele>
        <time>2022-05-03T05:54:23.418Z</time>
      </trkpt>
      <trkpt lat="45.68498" lon="4.69483">
        <ele>329.53252294709</ele>
        <time>2022-05-03T05:54:25.553Z</time>
      </trkpt>
      <trkpt lat="45.68489" lon="4.6952">
        <ele>332.02974314183</ele>
        <time>2022-05-03T05:54:27.693Z</time>
      </trkpt>
      <trkpt lat="45.68485" lon="4.69601">
        <ele>334.72349432673</ele>
        <time>2022-05-03T05:54:29.842Z</time>
      </trkpt>
      <trkpt lat="45.68481" lon="4.69628">
        <ele>337.55993558933</ele>
        <time>2022-05-03T05:54:31.994Z</time>
      </trkpt>
      <trkpt lat="45.68439" lon="4.6978">
        <ele>340.75158696092</ele>
        <time>2022-05-03T05:54:34.164Z</time>
      </trkpt>
      <trkpt lat="45.68423" lon="4.69814">
        <ele>343.44321013487</ele>
        <time>2022-05-03T05:54:36.339Z</time>
      </trkpt>
      <trkpt lat="45.68406" lon="4.69846">
        <ele>345.89109429036</ele>
        <time>2022-05-03T05:54:38.518Z</time>
      </trkpt>
      <trkpt lat="45.68384" lon="4.69913">
        <ele>348.16940982762</ele>
        <time>2022-05-03T05:54:40.706Z</time>
      </trkpt>
      <trkpt lat="45.6837" lon="4.69959">
        <ele>350.12617148232</ele>
        <time>2022-05-03T05:54:42.899Z</time>
      </trkpt>
      <trkpt lat="45.68405" lon="4.69981">
        <ele>351.65996417456</ele>
        <time>2022-05-03T05:54:45.098Z</time>
      </trkpt>
      <trkpt lat="45.68416" lon="4.6999">
        <ele>352.8715723032</ele>
        <time>2022-05-03T05:54:47.300Z</time>
      </trkpt>
      <trkpt lat="45.6843" lon="4.7">
        <ele>353.76192937513</ele>
        <time>2022-05-03T05:54:49.504Z</time>
      </trkpt>
      <trkpt lat="45.68443" lon="4.70014">
        <ele>354.35525434653</ele>
        <time>2022-05-03T05:54:51.711Z</time>
      </trkpt>
      <trkpt lat="45.68447" lon="4.7005">
        <ele>354.66326761904</ele>
        <time>2022-05-03T05:54:53.922Z</time>
      </trkpt>
      <trkpt lat="45.68455" lon="4.701">
        <ele>354.71541767293</ele>
        <time>2022-05-03T05:54:56.138Z</time>
      </trkpt>
      <trkpt lat="45.68461" lon="4.70129">
        <ele>354.57538827398</ele>
        <time>2022-05-03T05:54:58.358Z</time>
      </trkpt>
      <trkpt lat="45.68484" lon="4.70161">
        <ele>354.28792191841</ele>
        <time>2022-05-03T05:55:00.583Z</time>
      </trkpt>
      <trkpt lat="45.68497" lon="4.70189">
        <ele>353.86432648494</ele>
        <time>2022-05-03T05:55:02.812Z</time>
      </trkpt>
      <trkpt lat="45.68505" lon="4.70221">
        <ele>353.33714635432</ele>
        <time>2022-05-03T05:55:05.045Z</time>
      </trkpt>
      <trkpt lat="45.68508" lon="4.70235">
        <ele>352.74009796661</ele>
        <time>2022-05-03T05:55:07.279Z</time>
      </trkpt>
      <trkpt lat="45.68516" lon="4.7027">
        <ele>352.04883445549</ele>
        <time>2022-05-03T05:55:09.517Z</time>
      </trkpt>
      <trkpt lat="45.68517" lon="4.70301">
        <ele>351.35607316539</ele>
        <time>2022-05-03T05:55:11.759Z</time>
      </trkpt>
      <trkpt lat="45.6851" lon="4.70357">
        <ele>350.59866207125</ele>
        <time>2022-05-03T05:55:14.007Z</time>
      </trkpt>
      <trkpt lat="45.68506" lon="4.70368">
        <ele>349.83465060455</ele>
        <time>2022-05-03T05:55:16.257Z</time>
      </trkpt>
      <trkpt lat="45.68494" lon="4.70385">
        <ele>349.05225676512</ele>
        <time>2022-05-03T05:55:18.509Z</time>
      </trkpt>
      <trkpt lat="45.68495" lon="4.70411">
        <ele>348.1735831618</ele>
        <time>2022-05-03T05:55:20.764Z</time>
      </trkpt>
      <trkpt lat="45.68486" lon="4.70418">
        <ele>347.28750196832</ele>
        <time>2022-05-03T05:55:23.021Z</time>
      </trkpt>
      <trkpt lat="45.68478" lon="4.70465">
        <ele>346.31136325163</ele>
        <time>2022-05-03T05:55:25.283Z</time>
      </trkpt>
      <trkpt lat="45.68466" lon="4.70486">
        <ele>345.20789167162</ele>
        <time>2022-05-03T05:55:27.548Z</time>
      </trkpt>
      <trkpt lat="45.6846" lon="4.70518">
        <ele>343.89447838193</ele>
        <time>2022-05-03T05:55:29.817Z</time>
      </trkpt>
      <trkpt lat="45.68458" lon="4.70593">
        <ele>342.22210263631</ele>
        <time>2022-05-03T05:55:32.094Z</time>
      </trkpt>
      <trkpt lat="45.6846" lon="4.70642">
        <ele>340.37703837335</ele>
        <time>2022-05-03T05:55:34.377Z</time>
      </trkpt>
      <trkpt lat="45.68469" lon="4.7067">
        <ele>338.33631098021</ele>
        <time>2022-05-03T05:55:36.663Z</time>
      </trkpt>
      <trkpt lat="45.68486" lon="4.70695">
        <ele>336.03731657151</ele>
        <time>2022-05-03T05:55:38.953Z</time>
      </trkpt>
      <trkpt lat="45.68532" lon="4.70756">
        <ele>333.46814518331</ele>
        <time>2022-05-03T05:55:41.253Z</time>
      </trkpt>
      <trkpt lat="45.68585" lon="4.70826">
        <ele>330.78531465743</ele>
        <time>2022-05-03T05:55:43.565Z</time>
      </trkpt>
      <trkpt lat="45.68655" lon="4.70897">
        <ele>327.99957000111</ele>
        <time>2022-05-03T05:55:45.891Z</time>
      </trkpt>
      <trkpt lat="45.68718" lon="4.7095">
        <ele>325.24081681015</ele>
        <time>2022-05-03T05:55:48.228Z</time>
      </trkpt>
      <trkpt lat="45.68709" lon="4.70973">
        <ele>322.536736776</ele>
        <time>2022-05-03T05:55:50.568Z</time>
      </trkpt>
      <trkpt lat="45.68709" lon="4.71013">
        <ele>319.81752173041</ele>
        <time>2022-05-03T05:55:52.913Z</time>
      </trkpt>
      <trkpt lat="45.68728" lon="4.71079">
        <ele>317.10301332032</ele>
        <time>2022-05-03T05:55:55.266Z</time>
      </trkpt>
      <trkpt lat="45.68751" lon="4.71165">
        <ele>314.42870702916</ele>
        <time>2022-05-03T05:55:57.629Z</time>
      </trkpt>
      <trkpt lat="45.68769" lon="4.71235">
        <ele>311.83486607892</ele>
        <time>2022-05-03T05:56:00.001Z</time>
      </trkpt>
      <trkpt lat="45.68793" lon="4.71299">
        <ele>309.44563255654</ele>
        <time>2022-05-03T05:56:02.381Z</time>
      </trkpt>
      <trkpt lat="45.68833" lon="4.7134">
        <ele>307.25119234109</ele>
        <time>2022-05-03T05:56:04.769Z</time>
      </trkpt>
      <trkpt lat="45.68884" lon="4.71379">
        <ele>305.33229974214</ele>
        <time>2022-05-03T05:56:07.166Z</time>
      </trkpt>
      <trkpt lat="45.68948" lon="4.71429">
        <ele>303.65129111938</ele>
        <time>2022-05-03T05:56:09.575Z</time>
      </trkpt>
      <trkpt lat="45.68992" lon="4.71464">
        <ele>302.16640417614</ele>
        <time>2022-05-03T05:56:11.992Z</time>
      </trkpt>
      <trkpt lat="45.69052" lon="4.71506">
        <ele>300.92828774336</ele>
        <time>2022-05-03T05:56:14.419Z</time>
      </trkpt>
      <trkpt lat="45.69105" lon="4.71535">
        <ele>299.86876895837</ele>
        <time>2022-05-03T05:56:16.855Z</time>
      </trkpt>
      <trkpt lat="45.69131" lon="4.71544">
        <ele>299.04194452913</ele>
        <time>2022-05-03T05:56:19.296Z</time>
      </trkpt>
      <trkpt lat="45.69159" lon="4.71547">
        <ele>298.31996596408</ele>
        <time>2022-05-03T05:56:21.741Z</time>
      </trkpt>
      <trkpt lat="45.69181" lon="4.71556">
        <ele>297.66524790193</ele>
        <time>2022-05-03T05:56:24.190Z</time>
      </trkpt>
      <trkpt lat="45.69204" lon="4.71575">
        <ele>297.04363629047</ele>
        <time>2022-05-03T05:56:26.643Z</time>
      </trkpt>
      <trkpt lat="45.69212" lon="4.71585">
        <ele>296.43125384781</ele>
        <time>2022-05-03T05:56:29.098Z</time>
      </trkpt>
      <trkpt lat="45.69226" lon="4.71607">
        <ele>295.7960833631</ele>
        <time>2022-05-03T05:56:31.556Z</time>
      </trkpt>
      <trkpt lat="45.69236" lon="4.71638">
        <ele>295.0915453713</ele>
        <time>2022-05-03T05:56:34.018Z</time>
      </trkpt>
      <trkpt lat="45.69217" lon="4.71674">
        <ele>294.22625864132</ele>
        <time>2022-05-03T05:56:36.485Z</time>
      </trkpt>
      <trkpt lat="45.69189" lon="4.71731">
        <ele>293.1178875565</ele>
        <time>2022-05-03T05:56:38.960Z</time>
      </trkpt>
      <trkpt lat="45.69169" lon="4.71778">
        <ele>291.88426850333</ele>
        <time>2022-05-03T05:56:41.441Z</time>
      </trkpt>
      <trkpt lat="45.69171" lon="4.71794">
        <ele>290.50447277171</ele>
        <time>2022-05-03T05:56:43.924Z</time>
      </trkpt>
      <trkpt lat="45.69196" lon="4.7186">
        <ele>288.67119522464</ele>
        <time>2022-05-03T05:56:46.415Z</time>
      </trkpt>
      <trkpt lat="45.69213" lon="4.71873">
        <ele>286.83224685128</ele>
        <time>2022-05-03T05:56:48.909Z</time>
      </trkpt>
      <trkpt lat="45.69248" lon="4.71884">
        <ele>284.91686948086</ele>
        <time>2022-05-03T05:56:51.409Z</time>
      </trkpt>
      <trkpt lat="45.69265" lon="4.71907">
        <ele>282.64853828723</ele>
        <time>2022-05-03T05:56:53.913Z</time>
      </trkpt>
      <trkpt lat="45.6927" lon="4.71932">
        <ele>280.02306538397</ele>
        <time>2022-05-03T05:56:56.420Z</time>
      </trkpt>
      <trkpt lat="45.69268" lon="4.71953">
        <ele>277.112758851</ele>
        <time>2022-05-03T05:56:58.929Z</time>
      </trkpt>
      <trkpt lat="45.69272" lon="4.71962">
        <ele>274.26266745533</ele>
        <time>2022-05-03T05:57:01.439Z</time>
      </trkpt>
      <trkpt lat="45.69292" lon="4.71974">
        <ele>271.40649250228</ele>
        <time>2022-05-03T05:57:03.953Z</time>
      </trkpt>
      <trkpt lat="45.69297" lon="4.71983">
        <ele>268.40135774755</ele>
        <time>2022-05-03T05:57:06.468Z</time>
      </trkpt>
      <trkpt lat="45.69296" lon="4.72025">
        <ele>265.07521302724</ele>
        <time>2022-05-03T05:57:08.988Z</time>
      </trkpt>
      <trkpt lat="45.69305" lon="4.72094">
        <ele>261.77825988272</ele>
        <time>2022-05-03T05:57:11.516Z</time>
      </trkpt>
      <trkpt lat="45.69321" lon="4.72139">
        <ele>258.58000005753</ele>
        <time>2022-05-03T05:57:14.049Z</time>
      </trkpt>
      <trkpt lat="45.69333" lon="4.7216">
        <ele>255.49590111128</ele>
        <time>2022-05-03T05:57:16.585Z</time>
      </trkpt>
      <trkpt lat="45.69334" lon="4.72216">
        <ele>252.28630447071</ele>
        <time>2022-05-03T05:57:19.128Z</time>
      </trkpt>
      <trkpt lat="45.69345" lon="4.72273">
        <ele>249.22351929004</ele>
        <time>2022-05-03T05:57:21.677Z</time>
      </trkpt>
      <trkpt lat="45.69359" lon="4.7232">
        <ele>246.22389933955</ele>
        <time>2022-05-03T05:57:24.232Z</time>
      </trkpt>
      <trkpt lat="45.6938" lon="4.72353">
        <ele>243.4978141161</ele>
        <time>2022-05-03T05:57:26.792Z</time>
      </trkpt>
      <trkpt lat="45.69381" lon="4.72354">
        <ele>241.05820217112</ele>
        <time>2022-05-03T05:57:29.352Z</time>
      </trkpt>
      <trkpt lat="45.69401" lon="4.72385">
        <ele>238.75940124311</ele>
        <time>2022-05-03T05:57:31.917Z</time>
      </trkpt>
      <trkpt lat="45.69411" lon="4.72435">
        <ele>236.51698966068</ele>
        <time>2022-05-03T05:57:34.488Z</time>
      </trkpt>
      <trkpt lat="45.69413" lon="4.72445">
        <ele>234.69483923657</ele>
        <time>2022-05-03T05:57:37.060Z</time>
      </trkpt>
      <trkpt lat="45.69418" lon="4.72465">
        <ele>233.09965651878</ele>
        <time>2022-05-03T05:57:39.634Z</time>
      </trkpt>
      <trkpt lat="45.69423" lon="4.72512">
        <ele>231.70904589066</ele>
        <time>2022-05-03T05:57:42.214Z</time>
      </trkpt>
      <trkpt lat="45.69423" lon="4.72534">
        <ele>230.63267905607</ele>
        <time>2022-05-03T05:57:44.796Z</time>
      </trkpt>
      <trkpt lat="45.69411" lon="4.72577">
        <ele>229.7316841796</ele>
        <time>2022-05-03T05:57:47.383Z</time>
      </trkpt>
      <trkpt lat="45.69408" lon="4.72591">
        <ele>229.07731741965</ele>
        <time>2022-05-03T05:57:49.972Z</time>
      </trkpt>
      <trkpt lat="45.69407" lon="4.72593">
        <ele>228.61121219106</ele>
        <time>2022-05-03T05:57:52.561Z</time>
      </trkpt>
      <trkpt lat="45.69408" lon="4.72593">
        <ele>228.30569986736</ele>
        <time>2022-05-03T05:57:55.150Z</time>
      </trkpt>
      <trkpt lat="45.69406" lon="4.72603">
        <ele>228.15140663221</ele>
        <time>2022-05-03T05:57:57.740Z</time>
      </trkpt>
      <trkpt lat="45.69407" lon="4.72613">
        <ele>228.09499061133</ele>
        <time>2022-05-03T05:58:00.332Z</time>
      </trkpt>
      <trkpt lat="45.69352" lon="4.72657">
        <ele>228.16688282753</ele>
        <time>2022-05-03T05:58:02.934Z</time>
      </trkpt>
      <trkpt lat="45.69255" lon="4.7276">
        <ele>228.39333313788</ele>
        <time>2022-05-03T05:58:05.555Z</time>
      </trkpt>
      <trkpt lat="45.69255" lon="4.7276">
        <ele>228.61691755555</ele>
        <time>2022-05-03T05:58:08.176Z</time>
      </trkpt>
      <trkpt lat="45.69205" lon="4.72829">
        <ele>228.85510987938</ele>
        <time>2022-05-03T05:58:10.808Z</time>
      </trkpt>
      <trkpt lat="45.69161" lon="4.72895">
        <ele>229.19222335898</ele>
        <time>2022-05-03T05:58:13.450Z</time>
      </trkpt>
      <trkpt lat="45.6914" lon="4.72983">
        <ele>229.69088759432</ele>
        <time>2022-05-03T05:58:16.103Z</time>
      </trkpt>
      <trkpt lat="45.69117" lon="4.73042">
        <ele>230.10669133472</ele>
        <time>2022-05-03T05:58:18.763Z</time>
      </trkpt>
      <trkpt lat="45.69114" lon="4.73073">
        <ele>230.68401626898</ele>
        <time>2022-05-03T05:58:21.427Z</time>
      </trkpt>
      <trkpt lat="45.69123" lon="4.73097">
        <ele>231.42903595912</ele>
        <time>2022-05-03T05:58:24.094Z</time>
      </trkpt>
      <trkpt lat="45.69163" lon="4.73145">
        <ele>232.33984187187</ele>
        <time>2022-05-03T05:58:26.769Z</time>
      </trkpt>
      <trkpt lat="45.69193" lon="4.73156">
        <ele>233.4028998682</ele>
        <time>2022-05-03T05:58:29.449Z</time>
      </trkpt>
      <trkpt lat="45.69195" lon="4.73157">
        <ele>234.46569143934</ele>
        <time>2022-05-03T05:58:32.129Z</time>
      </trkpt>
      <trkpt lat="45.69144" lon="4.73087">
        <ele>235.68679882522</ele>
        <time>2022-05-03T05:58:34.821Z</time>
      </trkpt>
      <trkpt lat="45.69141" lon="4.73061">
        <ele>236.93254672155</ele>
        <time>2022-05-03T05:58:37.516Z</time>
      </trkpt>
      <trkpt lat="45.6916" lon="4.73001">
        <ele>238.38429760695</ele>
        <time>2022-05-03T05:58:40.218Z</time>
      </trkpt>
      <trkpt lat="45.69174" lon="4.72939">
        <ele>239.83343244575</ele>
        <time>2022-05-03T05:58:42.927Z</time>
      </trkpt>
      <trkpt lat="45.69181" lon="4.72928">
        <ele>241.31187788266</ele>
        <time>2022-05-03T05:58:45.638Z</time>
      </trkpt>
      <trkpt lat="45.69215" lon="4.72905">
        <ele>242.99508007839</ele>
        <time>2022-05-03T05:58:48.355Z</time>
      </trkpt>
      <trkpt lat="45.69251" lon="4.7285">
        <ele>244.30054335154</ele>
        <time>2022-05-03T05:58:51.080Z</time>
      </trkpt>
      <trkpt lat="45.69262" lon="4.72822">
        <ele>245.50155180219</ele>
        <time>2022-05-03T05:58:53.809Z</time>
      </trkpt>
      <trkpt lat="45.6927" lon="4.72817">
        <ele>246.8602008954</ele>
        <time>2022-05-03T05:58:56.539Z</time>
      </trkpt>
      <trkpt lat="45.69278" lon="4.7282">
        <ele>248.31361837374</ele>
        <time>2022-05-03T05:58:59.271Z</time>
      </trkpt>
      <trkpt lat="45.69277" lon="4.72831">
        <ele>249.74399047968</ele>
        <time>2022-05-03T05:59:02.004Z</time>
      </trkpt>
      <trkpt lat="45.69259" lon="4.72855">
        <ele>251.07994289321</ele>
        <time>2022-05-03T05:59:04.741Z</time>
      </trkpt>
      <trkpt lat="45.69232" lon="4.72924">
        <ele>252.62441571193</ele>
        <time>2022-05-03T05:59:07.487Z</time>
      </trkpt>
      <trkpt lat="45.69212" lon="4.72956">
        <ele>253.77774109805</ele>
        <time>2022-05-03T05:59:10.238Z</time>
      </trkpt>
      <trkpt lat="45.69214" lon="4.72968">
        <ele>255.02942048998</ele>
        <time>2022-05-03T05:59:12.990Z</time>
      </trkpt>
      <trkpt lat="45.69222" lon="4.72968">
        <ele>256.34538972863</ele>
        <time>2022-05-03T05:59:15.743Z</time>
      </trkpt>
      <trkpt lat="45.6927" lon="4.72902">
        <ele>257.77475078752</ele>
        <time>2022-05-03T05:59:18.507Z</time>
      </trkpt>
      <trkpt lat="45.69286" lon="4.72872">
        <ele>258.93787315001</ele>
        <time>2022-05-03T05:59:21.275Z</time>
      </trkpt>
      <trkpt lat="45.69293" lon="4.72866">
        <ele>260.14972362509</ele>
        <time>2022-05-03T05:59:24.045Z</time>
      </trkpt>
      <trkpt lat="45.69299" lon="4.7287">
        <ele>261.49684895102</ele>
        <time>2022-05-03T05:59:26.816Z</time>
      </trkpt>
      <trkpt lat="45.693" lon="4.72879">
        <ele>262.92705778914</ele>
        <time>2022-05-03T05:59:29.588Z</time>
      </trkpt>
      <trkpt lat="45.69296" lon="4.72885">
        <ele>264.38477379197</ele>
        <time>2022-05-03T05:59:32.360Z</time>
      </trkpt>
      <trkpt lat="45.69281" lon="4.72903">
        <ele>265.9118323029</ele>
        <time>2022-05-03T05:59:35.136Z</time>
      </trkpt>
      <trkpt lat="45.69281" lon="4.72913">
        <ele>267.58063237403</ele>
        <time>2022-05-03T05:59:37.913Z</time>
      </trkpt>
      <trkpt lat="45.69285" lon="4.7292">
        <ele>269.38502518756</ele>
        <time>2022-05-03T05:59:40.691Z</time>
      </trkpt>
      <trkpt lat="45.69308" lon="4.72913">
        <ele>271.39981426695</ele>
        <time>2022-05-03T05:59:43.472Z</time>
      </trkpt>
      <trkpt lat="45.69323" lon="4.72916">
        <ele>273.47864923891</ele>
        <time>2022-05-03T05:59:46.256Z</time>
      </trkpt>
      <trkpt lat="45.6934" lon="4.72921">
        <ele>275.67706448717</ele>
        <time>2022-05-03T05:59:49.043Z</time>
      </trkpt>
      <trkpt lat="45.69342" lon="4.72921">
        <ele>277.8536993749</ele>
        <time>2022-05-03T05:59:51.830Z</time>
      </trkpt>
      <trkpt lat="45.69342" lon="4.72921">
        <ele>280.09441230111</ele>
        <time>2022-05-03T05:59:54.617Z</time>
      </trkpt>
      <trkpt lat="45.69429" lon="4.72944">
        <ele>282.72331196877</ele>
        <time>2022-05-03T05:59:57.418Z</time>
      </trkpt>
      <trkpt lat="45.69452" lon="4.72946">
        <ele>285.11204334056</ele>
        <time>2022-05-03T06:00:00.223Z</time>
      </trkpt>
      <trkpt lat="45.69564" lon="4.73021">
        <ele>287.68164104945</ele>
        <time>2022-05-03T06:00:03.048Z</time>
      </trkpt>
      <trkpt lat="45.69619" lon="4.73059">
        <ele>290.07174299716</ele>
        <time>2022-05-03T06:00:05.882Z</time>
      </trkpt>
      <trkpt lat="45.69671" lon="4.73087">
        <ele>292.15246542535</ele>
        <time>2022-05-03T06:00:08.725Z</time>
      </trkpt>
      <trkpt lat="45.69738" lon="4.73109">
        <ele>294.22938178946</ele>
        <time>2022-05-03T06:00:11.579Z</time>
      </trkpt>
      <trkpt lat="45.69792" lon="4.73116">
        <ele>296.28069324117</ele>
        <time>2022-05-03T06:00:14.442Z</time>
      </trkpt>
      <trkpt lat="45.69811" lon="4.73124">
        <ele>298.06283430005</ele>
        <time>2022-05-03T06:00:17.308Z</time>
      </trkpt>
      <trkpt lat="45.69859" lon="4.73158">
        <ele>299.69652689932</ele>
        <time>2022-05-03T06:00:20.183Z</time>
      </trkpt>
      <trkpt lat="45.69904" lon="4.73173">
        <ele>301.26641450022</ele>
        <time>2022-05-03T06:00:23.065Z</time>
      </trkpt>
      <trkpt lat="45.69956" lon="4.73198">
        <ele>302.75786418364</ele>
        <time>2022-05-03T06:00:25.956Z</time>
      </trkpt>
      <trkpt lat="45.69976" lon="4.73215">
        <ele>304.10795012654</ele>
        <time>2022-05-03T06:00:28.851Z</time>
      </trkpt>
      <trkpt lat="45.70058" lon="4.73299">
        <ele>305.36185432283</ele>
        <time>2022-05-03T06:00:31.762Z</time>
      </trkpt>
      <trkpt lat="45.70075" lon="4.73324">
        <ele>306.54359721966</ele>
        <time>2022-05-03T06:00:34.677Z</time>
      </trkpt>
      <trkpt lat="45.70119" lon="4.7338">
        <ele>307.73048162302</ele>
        <time>2022-05-03T06:00:37.601Z</time>
      </trkpt>
      <trkpt lat="45.70134" lon="4.73405">
        <ele>308.99527362269</ele>
        <time>2022-05-03T06:00:40.529Z</time>
      </trkpt>
      <trkpt lat="45.70143" lon="4.73418">
        <ele>310.28330717254</ele>
        <time>2022-05-03T06:00:43.459Z</time>
      </trkpt>
      <trkpt lat="45.70162" lon="4.7344">
        <ele>311.60636605087</ele>
        <time>2022-05-03T06:00:46.393Z</time>
      </trkpt>
      <trkpt lat="45.70267" lon="4.7355">
        <ele>313.00389851654</ele>
        <time>2022-05-03T06:00:49.348Z</time>
      </trkpt>
      <trkpt lat="45.70254" lon="4.73596">
        <ele>314.38215841138</ele>
        <time>2022-05-03T06:00:52.308Z</time>
      </trkpt>
      <trkpt lat="45.70246" lon="4.7365">
        <ele>315.73972207661</ele>
        <time>2022-05-03T06:00:55.274Z</time>
      </trkpt>
      <trkpt lat="45.70244" lon="4.73735">
        <ele>317.15570486711</ele>
        <time>2022-05-03T06:00:58.250Z</time>
      </trkpt>
      <trkpt lat="45.70233" lon="4.73806">
        <ele>318.35196808648</ele>
        <time>2022-05-03T06:01:01.234Z</time>
      </trkpt>
      <trkpt lat="45.70235" lon="4.73827">
        <ele>319.41820994934</ele>
        <time>2022-05-03T06:01:04.220Z</time>
      </trkpt>
      <trkpt lat="45.70238" lon="4.73835">
        <ele>320.24055154771</ele>
        <time>2022-05-03T06:01:07.207Z</time>
      </trkpt>
      <trkpt lat="45.70251" lon="4.7387">
        <ele>320.84294916889</ele>
        <time>2022-05-03T06:01:10.199Z</time>
      </trkpt>
      <trkpt lat="45.70277" lon="4.73948">
        <ele>321.1365596033</ele>
        <time>2022-05-03T06:01:13.201Z</time>
      </trkpt>
      <trkpt lat="45.70289" lon="4.73983">
        <ele>321.04001679863</ele>
        <time>2022-05-03T06:01:16.207Z</time>
      </trkpt>
      <trkpt lat="45.70303" lon="4.74025">
        <ele>320.62499490812</ele>
        <time>2022-05-03T06:01:19.218Z</time>
      </trkpt>
      <trkpt lat="45.70349" lon="4.7417">
        <ele>319.74709283001</ele>
        <time>2022-05-03T06:01:22.247Z</time>
      </trkpt>
      <trkpt lat="45.70379" lon="4.74252">
        <ele>318.63124255693</ele>
        <time>2022-05-03T06:01:25.286Z</time>
      </trkpt>
      <trkpt lat="45.70385" lon="4.74269">
        <ele>317.21914821455</ele>
        <time>2022-05-03T06:01:28.328Z</time>
      </trkpt>
      <trkpt lat="45.70388" lon="4.74281">
        <ele>315.47799911073</ele>
        <time>2022-05-03T06:01:31.371Z</time>
      </trkpt>
      <trkpt lat="45.70396" lon="4.74312">
        <ele>313.40097151395</ele>
        <time>2022-05-03T06:01:34.418Z</time>
      </trkpt>
      <trkpt lat="45.70408" lon="4.74365">
        <ele>310.91776990934</ele>
        <time>2022-05-03T06:01:37.471Z</time>
      </trkpt>
      <trkpt lat="45.7042" lon="4.74438">
        <ele>308.20814634089</ele>
        <time>2022-05-03T06:01:40.532Z</time>
      </trkpt>
      <trkpt lat="45.70428" lon="4.74576">
        <ele>305.24878809638</ele>
        <time>2022-05-03T06:01:43.609Z</time>
      </trkpt>
      <trkpt lat="45.70432" lon="4.74748">
        <ele>301.61414544054</ele>
        <time>2022-05-03T06:01:46.705Z</time>
      </trkpt>
      <trkpt lat="45.70443" lon="4.74809">
        <ele>297.88910686848</ele>
        <time>2022-05-03T06:01:49.808Z</time>
      </trkpt>
      <trkpt lat="45.70449" lon="4.74904">
        <ele>293.89787051418</ele>
        <time>2022-05-03T06:01:52.922Z</time>
      </trkpt>
      <trkpt lat="45.70451" lon="4.7497">
        <ele>289.92626138805</ele>
        <time>2022-05-03T06:01:56.043Z</time>
      </trkpt>
      <trkpt lat="45.70452" lon="4.74982">
        <ele>286.2113749625</ele>
        <time>2022-05-03T06:01:59.166Z</time>
      </trkpt>
      <trkpt lat="45.7046" lon="4.75137">
        <ele>282.26459044309</ele>
        <time>2022-05-03T06:02:02.306Z</time>
      </trkpt>
      <trkpt lat="45.70461" lon="4.75142">
        <ele>278.99868866324</ele>
        <time>2022-05-03T06:02:05.447Z</time>
      </trkpt>
      <trkpt lat="45.70461" lon="4.75148">
        <ele>276.07306301462</ele>
        <time>2022-05-03T06:02:08.588Z</time>
      </trkpt>
      <trkpt lat="45.70461" lon="4.75154">
        <ele>273.55865607994</ele>
        <time>2022-05-03T06:02:11.730Z</time>
      </trkpt>
      <trkpt lat="45.70464" lon="4.75243">
        <ele>271.30146816388</ele>
        <time>2022-05-03T06:02:14.882Z</time>
      </trkpt>
      <trkpt lat="45.70459" lon="4.75249">
        <ele>269.78418738744</ele>
        <time>2022-05-03T06:02:18.035Z</time>
      </trkpt>
      <trkpt lat="45.70462" lon="4.75259">
        <ele>268.82232110875</ele>
        <time>2022-05-03T06:02:21.189Z</time>
      </trkpt>
      <trkpt lat="45.70463" lon="4.75308">
        <ele>268.39360817207</ele>
        <time>2022-05-03T06:02:24.349Z</time>
      </trkpt>
      <trkpt lat="45.70465" lon="4.75336">
        <ele>268.64713991731</ele>
        <time>2022-05-03T06:02:27.512Z</time>
      </trkpt>
      <trkpt lat="45.70468" lon="4.75341">
        <ele>269.50137529942</ele>
        <time>2022-05-03T06:02:30.676Z</time>
      </trkpt>
      <trkpt lat="45.70467" lon="4.75352">
        <ele>270.92012541976</ele>
        <time>2022-05-03T06:02:33.841Z</time>
      </trkpt>
      <trkpt lat="45.70437" lon="4.7539">
        <ele>272.94499594408</ele>
        <time>2022-05-03T06:02:37.012Z</time>
      </trkpt>
      <trkpt lat="45.70428" lon="4.75424">
        <ele>275.50127021544</ele>
        <time>2022-05-03T06:02:40.187Z</time>
      </trkpt>
      <trkpt lat="45.70454" lon="4.75501">
        <ele>278.61529212287</ele>
        <time>2022-05-03T06:02:43.372Z</time>
      </trkpt>
      <trkpt lat="45.70468" lon="4.75512">
        <ele>281.64835836779</ele>
        <time>2022-05-03T06:02:46.560Z</time>
      </trkpt>
      <trkpt lat="45.7052" lon="4.75511">
        <ele>284.86397942428</ele>
        <time>2022-05-03T06:02:49.756Z</time>
      </trkpt>
      <trkpt lat="45.70545" lon="4.75517">
        <ele>288.22723495372</ele>
        <time>2022-05-03T06:02:52.956Z</time>
      </trkpt>
      <trkpt lat="45.70567" lon="4.75542">
        <ele>291.60779723923</ele>
        <time>2022-05-03T06:02:56.160Z</time>
      </trkpt>
      <trkpt lat="45.70575" lon="4.75577">
        <ele>294.83484201281</ele>
        <time>2022-05-03T06:02:59.369Z</time>
      </trkpt>
      <trkpt lat="45.70578" lon="4.75631">
        <ele>297.73147919574</ele>
        <time>2022-05-03T06:03:02.584Z</time>
      </trkpt>
      <trkpt lat="45.7058" lon="4.75676">
        <ele>300.48224962322</ele>
        <time>2022-05-03T06:03:05.804Z</time>
      </trkpt>
      <trkpt lat="45.70597" lon="4.75739">
        <ele>302.95241430023</ele>
        <time>2022-05-03T06:03:09.031Z</time>
      </trkpt>
      <trkpt lat="45.70597" lon="4.75741">
        <ele>304.85637701196</ele>
        <time>2022-05-03T06:03:12.259Z</time>
      </trkpt>
      <trkpt lat="45.70598" lon="4.75741">
        <ele>306.35317785482</ele>
        <time>2022-05-03T06:03:15.487Z</time>
      </trkpt>
      <trkpt lat="45.70599" lon="4.75743">
        <ele>307.4426789148</ele>
        <time>2022-05-03T06:03:18.715Z</time>
      </trkpt>
      <trkpt lat="45.70608" lon="4.75764">
        <ele>308.14251529422</ele>
        <time>2022-05-03T06:03:21.946Z</time>
      </trkpt>
      <trkpt lat="45.70619" lon="4.75781">
        <ele>308.42775662164</ele>
        <time>2022-05-03T06:03:25.179Z</time>
      </trkpt>
      <trkpt lat="45.70621" lon="4.75791">
        <ele>308.34956759533</ele>
        <time>2022-05-03T06:03:28.413Z</time>
      </trkpt>
      <trkpt lat="45.70624" lon="4.75851">
        <ele>307.95214500827</ele>
        <time>2022-05-03T06:03:31.654Z</time>
      </trkpt>
      <trkpt lat="45.70639" lon="4.75965">
        <ele>307.01995067914</ele>
        <time>2022-05-03T06:03:34.908Z</time>
      </trkpt>
      <trkpt lat="45.70638" lon="4.75982">
        <ele>306.1014322923</ele>
        <time>2022-05-03T06:03:38.164Z</time>
      </trkpt>
      <trkpt lat="45.70631" lon="4.76013">
        <ele>305.00728956271</ele>
        <time>2022-05-03T06:03:41.424Z</time>
      </trkpt>
      <trkpt lat="45.70626" lon="4.76095">
        <ele>303.69745682794</ele>
        <time>2022-05-03T06:03:44.693Z</time>
      </trkpt>
      <trkpt lat="45.70627" lon="4.76106">
        <ele>302.46452584107</ele>
        <time>2022-05-03T06:03:47.963Z</time>
      </trkpt>
      <trkpt lat="45.70618" lon="4.76116">
        <ele>301.21871432283</ele>
        <time>2022-05-03T06:03:51.235Z</time>
      </trkpt>
      <trkpt lat="45.70618" lon="4.76116">
        <ele>300.05408392701</ele>
        <time>2022-05-03T06:03:54.507Z</time>
      </trkpt>
      <trkpt lat="45.70616" lon="4.76138">
        <ele>298.90162705311</ele>
        <time>2022-05-03T06:03:57.782Z</time>
      </trkpt>
      <trkpt lat="45.70619" lon="4.76159">
        <ele>297.81369695023</ele>
        <time>2022-05-03T06:04:01.059Z</time>
      </trkpt>
      <trkpt lat="45.70628" lon="4.76177">
        <ele>296.7919820206</ele>
        <time>2022-05-03T06:04:04.338Z</time>
      </trkpt>
      <trkpt lat="45.70646" lon="4.76188">
        <ele>295.85462174746</ele>
        <time>2022-05-03T06:04:07.621Z</time>
      </trkpt>
      <trkpt lat="45.70689" lon="4.76196">
        <ele>294.95713965921</ele>
        <time>2022-05-03T06:04:10.910Z</time>
      </trkpt>
      <trkpt lat="45.7072" lon="4.76209">
        <ele>294.19261772142</ele>
        <time>2022-05-03T06:04:14.205Z</time>
      </trkpt>
      <trkpt lat="45.70734" lon="4.76217">
        <ele>293.4462852676</ele>
        <time>2022-05-03T06:04:17.502Z</time>
      </trkpt>
      <trkpt lat="45.70744" lon="4.76233">
        <ele>292.62725784967</ele>
        <time>2022-05-03T06:04:20.801Z</time>
      </trkpt>
      <trkpt lat="45.70743" lon="4.76254">
        <ele>291.68648557628</ele>
        <time>2022-05-03T06:04:24.103Z</time>
      </trkpt>
      <trkpt lat="45.70738" lon="4.76262">
        <ele>290.6260764749</ele>
        <time>2022-05-03T06:04:27.406Z</time>
      </trkpt>
      <trkpt lat="45.70731" lon="4.76267">
        <ele>289.37126361914</ele>
        <time>2022-05-03T06:04:30.710Z</time>
      </trkpt>
      <trkpt lat="45.70716" lon="4.76268">
        <ele>287.82211760628</ele>
        <time>2022-05-03T06:04:34.017Z</time>
      </trkpt>
      <trkpt lat="45.70702" lon="4.76262">
        <ele>285.98377902209</ele>
        <time>2022-05-03T06:04:37.326Z</time>
      </trkpt>
      <trkpt lat="45.70696" lon="4.76265">
        <ele>283.89703476359</ele>
        <time>2022-05-03T06:04:40.636Z</time>
      </trkpt>
      <trkpt lat="45.70675" lon="4.76265">
        <ele>281.39803147797</ele>
        <time>2022-05-03T06:04:43.949Z</time>
      </trkpt>
      <trkpt lat="45.70657" lon="4.76271">
        <ele>278.67115969489</ele>
        <time>2022-05-03T06:04:47.265Z</time>
      </trkpt>
      <trkpt lat="45.7064" lon="4.76282">
        <ele>275.59499538475</ele>
        <time>2022-05-03T06:04:50.584Z</time>
      </trkpt>
      <trkpt lat="45.70618" lon="4.76314">
        <ele>272.17216088362</ele>
        <time>2022-05-03T06:04:53.908Z</time>
      </trkpt>
      <trkpt lat="45.7058" lon="4.76325">
        <ele>268.59921639657</ele>
        <time>2022-05-03T06:04:57.239Z</time>
      </trkpt>
      <trkpt lat="45.70547" lon="4.76341">
        <ele>264.87684359182</ele>
        <time>2022-05-03T06:05:00.575Z</time>
      </trkpt>
      <trkpt lat="45.70525" lon="4.76356">
        <ele>261.10104390698</ele>
        <time>2022-05-03T06:05:03.915Z</time>
      </trkpt>
      <trkpt lat="45.70506" lon="4.76364">
        <ele>257.26197088639</ele>
        <time>2022-05-03T06:05:07.258Z</time>
      </trkpt>
      <trkpt lat="45.70475" lon="4.76389">
        <ele>253.24863239126</ele>
        <time>2022-05-03T06:05:10.607Z</time>
      </trkpt>
      <trkpt lat="45.70457" lon="4.7641">
        <ele>249.4529161726</ele>
        <time>2022-05-03T06:05:13.960Z</time>
      </trkpt>
      <trkpt lat="45.70497" lon="4.76539">
        <ele>245.7288773142</ele>
        <time>2022-05-03T06:05:17.329Z</time>
      </trkpt>
      <trkpt lat="45.70499" lon="4.76571">
        <ele>242.53724518527</ele>
        <time>2022-05-03T06:05:20.701Z</time>
      </trkpt>
      <trkpt lat="45.70488" lon="4.76648">
        <ele>239.51189084844</ele>
        <time>2022-05-03T06:05:24.082Z</time>
      </trkpt>
      <trkpt lat="45.70482" lon="4.76682">
        <ele>236.86825861361</ele>
        <time>2022-05-03T06:05:27.467Z</time>
      </trkpt>
      <trkpt lat="45.70469" lon="4.76747">
        <ele>234.59571245892</ele>
        <time>2022-05-03T06:05:30.859Z</time>
      </trkpt>
      <trkpt lat="45.70463" lon="4.76782">
        <ele>232.69025246465</ele>
        <time>2022-05-03T06:05:34.255Z</time>
      </trkpt>
      <trkpt lat="45.70461" lon="4.76782">
        <ele>231.18320546722</ele>
        <time>2022-05-03T06:05:37.652Z</time>
      </trkpt>
      <trkpt lat="45.70459" lon="4.76782">
        <ele>229.99643061481</ele>
        <time>2022-05-03T06:05:41.049Z</time>
      </trkpt>
      <trkpt lat="45.70459" lon="4.76782">
        <ele>229.09763190824</ele>
        <time>2022-05-03T06:05:44.446Z</time>
      </trkpt>
      <trkpt lat="45.70376" lon="4.76779">
        <ele>228.40692300953</ele>
        <time>2022-05-03T06:05:47.856Z</time>
      </trkpt>
      <trkpt lat="45.70363" lon="4.76772">
        <ele>227.97642919608</ele>
        <time>2022-05-03T06:05:51.269Z</time>
      </trkpt>
      <trkpt lat="45.70384" lon="4.76733">
        <ele>227.76519380308</ele>
        <time>2022-05-03T06:05:54.687Z</time>
      </trkpt>
      <trkpt lat="45.70469" lon="4.76747">
        <ele>234.59571245892</ele>
        <time>2022-05-03T06:05:58.119Z</time>
      </trkpt>
      <trkpt lat="45.70463" lon="4.76782">
        <ele>232.69025246465</ele>
        <time>2022-05-03T06:06:01.555Z</time>
      </trkpt>
      <trkpt lat="45.70462" lon="4.76792">
        <ele>227.43234950084</ele>
        <time>2022-05-03T06:06:04.992Z</time>
      </trkpt>
      <trkpt lat="45.70575" lon="4.76792">
        <ele>227.35448030679</ele>
        <time>2022-05-03T06:06:08.447Z</time>
      </trkpt>
      <trkpt lat="45.70616" lon="4.76802">
        <ele>227.2708290736</ele>
        <time>2022-05-03T06:06:11.909Z</time>
      </trkpt>
      <trkpt lat="45.70663" lon="4.76822">
        <ele>227.19553238026</ele>
        <time>2022-05-03T06:06:15.379Z</time>
      </trkpt>
      <trkpt lat="45.70712" lon="4.76847">
        <ele>227.10314893622</ele>
        <time>2022-05-03T06:06:18.857Z</time>
      </trkpt>
      <trkpt lat="45.70712" lon="4.76847">
        <ele>226.9807186938</ele>
        <time>2022-05-03T06:06:22.335Z</time>
      </trkpt>
      <trkpt lat="45.70833" lon="4.7694">
        <ele>226.6573874738</ele>
        <time>2022-05-03T06:06:25.835Z</time>
      </trkpt>
      <trkpt lat="45.70833" lon="4.7694">
        <ele>226.47781142512</ele>
        <time>2022-05-03T06:06:29.335Z</time>
      </trkpt>
      <trkpt lat="45.70881" lon="4.76976">
        <ele>226.34309697871</ele>
        <time>2022-05-03T06:06:32.844Z</time>
      </trkpt>
      <trkpt lat="45.70896" lon="4.76989">
        <ele>226.12970785522</ele>
        <time>2022-05-03T06:06:36.356Z</time>
      </trkpt>
      <trkpt lat="45.70935" lon="4.77019">
        <ele>225.89921463309</ele>
        <time>2022-05-03T06:06:39.875Z</time>
      </trkpt>
      <trkpt lat="45.70977" lon="4.77052">
        <ele>225.6860005044</ele>
        <time>2022-05-03T06:06:43.401Z</time>
      </trkpt>
      <trkpt lat="45.70978" lon="4.77054">
        <ele>225.50487424459</ele>
        <time>2022-05-03T06:06:46.927Z</time>
      </trkpt>
      <trkpt lat="45.70978" lon="4.77053">
        <ele>225.35349367339</ele>
        <time>2022-05-03T06:06:50.453Z</time>
      </trkpt>
      <trkpt lat="45.70978" lon="4.77054">
        <ele>225.50487424459</ele>
        <time>2022-05-03T06:06:53.980Z</time>
      </trkpt>
      <trkpt lat="45.70935" lon="4.77019">
        <ele>225.89921463309</ele>
        <time>2022-05-03T06:06:57.514Z</time>
      </trkpt>
      <trkpt lat="45.70896" lon="4.76989">
        <ele>226.12970785522</ele>
        <time>2022-05-03T06:07:01.055Z</time>
      </trkpt>
      <trkpt lat="45.70881" lon="4.76976">
        <ele>226.34309697871</ele>
        <time>2022-05-03T06:07:04.599Z</time>
      </trkpt>
      <trkpt lat="45.70833" lon="4.7694">
        <ele>226.47781142512</ele>
        <time>2022-05-03T06:07:08.152Z</time>
      </trkpt>
      <trkpt lat="45.70833" lon="4.7694">
        <ele>226.6573874738</ele>
        <time>2022-05-03T06:07:11.705Z</time>
      </trkpt>
      <trkpt lat="45.70712" lon="4.76847">
        <ele>226.9807186938</ele>
        <time>2022-05-03T06:07:15.280Z</time>
      </trkpt>
      <trkpt lat="45.70712" lon="4.76847">
        <ele>227.10314893622</ele>
        <time>2022-05-03T06:07:18.855Z</time>
      </trkpt>
      <trkpt lat="45.70663" lon="4.76822">
        <ele>227.19553238026</ele>
        <time>2022-05-03T06:07:22.438Z</time>
      </trkpt>
      <trkpt lat="45.70616" lon="4.76802">
        <ele>227.2708290736</ele>
        <time>2022-05-03T06:07:26.029Z</time>
      </trkpt>
      <trkpt lat="45.70575" lon="4.76792">
        <ele>227.35448030679</ele>
        <time>2022-05-03T06:07:29.627Z</time>
      </trkpt>
      <trkpt lat="45.7056" lon="4.76788">
        <ele>229.97517593039</ele>
        <time>2022-05-03T06:07:33.227Z</time>
      </trkpt>
      <trkpt lat="45.70558" lon="4.76788">
        <ele>231.11104192694</ele>
        <time>2022-05-03T06:07:36.828Z</time>
      </trkpt>
      <trkpt lat="45.70558" lon="4.76788">
        <ele>232.38132468197</ele>
        <time>2022-05-03T06:07:40.429Z</time>
      </trkpt>
      <trkpt lat="45.70545" lon="4.76785">
        <ele>233.8110276382</ele>
        <time>2022-05-03T06:07:44.032Z</time>
      </trkpt>
      <trkpt lat="45.70463" lon="4.76782">
        <ele>232.69025246465</ele>
        <time>2022-05-03T06:07:47.648Z</time>
      </trkpt>
      <trkpt lat="45.70469" lon="4.76747">
        <ele>234.59571245892</ele>
        <time>2022-05-03T06:07:51.268Z</time>
      </trkpt>
      <trkpt lat="45.70482" lon="4.76682">
        <ele>236.86825861361</ele>
        <time>2022-05-03T06:07:54.895Z</time>
      </trkpt>
      <trkpt lat="45.70488" lon="4.76648">
        <ele>239.51189084844</ele>
        <time>2022-05-03T06:07:58.526Z</time>
      </trkpt>
      <trkpt lat="45.70499" lon="4.76571">
        <ele>242.53724518527</ele>
        <time>2022-05-03T06:08:02.166Z</time>
      </trkpt>
      <trkpt lat="45.70497" lon="4.76539">
        <ele>245.7288773142</ele>
        <time>2022-05-03T06:08:05.810Z</time>
      </trkpt>
      <trkpt lat="45.70457" lon="4.7641">
        <ele>249.4529161726</ele>
        <time>2022-05-03T06:08:09.470Z</time>
      </trkpt>
      <trkpt lat="45.70442" lon="4.76388">
        <ele>247.43111428045</ele>
        <time>2022-05-03T06:08:13.133Z</time>
      </trkpt>
      <trkpt lat="45.70417" lon="4.76373">
        <ele>248.61667108406</ele>
        <time>2022-05-03T06:08:16.801Z</time>
      </trkpt>
      <trkpt lat="45.70297" lon="4.76322">
        <ele>249.40721457313</ele>
        <time>2022-05-03T06:08:20.488Z</time>
      </trkpt>
      <trkpt lat="45.70286" lon="4.76318">
        <ele>249.86822082496</ele>
        <time>2022-05-03T06:08:24.177Z</time>
      </trkpt>
      <trkpt lat="45.70274" lon="4.76321">
        <ele>249.99421716527</ele>
        <time>2022-05-03T06:08:27.868Z</time>
      </trkpt>
      <trkpt lat="45.70256" lon="4.76317">
        <ele>249.82713059836</ele>
        <time>2022-05-03T06:08:31.562Z</time>
      </trkpt>
      <trkpt lat="45.7025" lon="4.76316">
        <ele>249.39487348112</ele>
        <time>2022-05-03T06:08:35.257Z</time>
      </trkpt>
      <trkpt lat="45.70248" lon="4.76315">
        <ele>248.68979300581</ele>
        <time>2022-05-03T06:08:38.952Z</time>
      </trkpt>
      <trkpt lat="45.70249" lon="4.76314">
        <ele>247.74424171326</ele>
        <time>2022-05-03T06:08:42.647Z</time>
      </trkpt>
      <trkpt lat="45.70204" lon="4.76302">
        <ele>246.52634156928</ele>
        <time>2022-05-03T06:08:46.350Z</time>
      </trkpt>
      <trkpt lat="45.70064" lon="4.76257">
        <ele>245.01171415853</ele>
        <time>2022-05-03T06:08:50.076Z</time>
      </trkpt>
      <trkpt lat="45.70035" lon="4.76247">
        <ele>243.50230346267</ele>
        <time>2022-05-03T06:08:53.806Z</time>
      </trkpt>
      <trkpt lat="45.7" lon="4.76242">
        <ele>241.92717696426</ele>
        <time>2022-05-03T06:08:57.542Z</time>
      </trkpt>
      <trkpt lat="45.69941" lon="4.7624">
        <ele>240.07703474741</ele>
        <time>2022-05-03T06:09:01.288Z</time>
      </trkpt>
      <trkpt lat="45.69936" lon="4.7624">
        <ele>238.60764979818</ele>
        <time>2022-05-03T06:09:05.034Z</time>
      </trkpt>
      <trkpt lat="45.69911" lon="4.76238">
        <ele>237.20388663187</ele>
        <time>2022-05-03T06:09:08.784Z</time>
      </trkpt>
      <trkpt lat="45.69912" lon="4.76233">
        <ele>236.01675159973</ele>
        <time>2022-05-03T06:09:12.535Z</time>
      </trkpt>
      <trkpt lat="45.69907" lon="4.76222">
        <ele>235.01091671162</ele>
        <time>2022-05-03T06:09:16.287Z</time>
      </trkpt>
      <trkpt lat="45.69905" lon="4.7622">
        <ele>234.1355583382</ele>
        <time>2022-05-03T06:09:20.040Z</time>
      </trkpt>
      <trkpt lat="45.69902" lon="4.76219">
        <ele>233.4163551634</ele>
        <time>2022-05-03T06:09:23.793Z</time>
      </trkpt>
      <trkpt lat="45.69896" lon="4.76221">
        <ele>232.83173571927</ele>
        <time>2022-05-03T06:09:27.547Z</time>
      </trkpt>
      <trkpt lat="45.69892" lon="4.76228">
        <ele>232.37422907809</ele>
        <time>2022-05-03T06:09:31.302Z</time>
      </trkpt>
      <trkpt lat="45.69891" lon="4.76232">
        <ele>232.0731879853</ele>
        <time>2022-05-03T06:09:35.058Z</time>
      </trkpt>
      <trkpt lat="45.69876" lon="4.76227">
        <ele>231.9374903343</ele>
        <time>2022-05-03T06:09:38.816Z</time>
      </trkpt>
      <trkpt lat="45.69862" lon="4.76222">
        <ele>231.85949732679</ele>
        <time>2022-05-03T06:09:42.577Z</time>
      </trkpt>
      <trkpt lat="45.69831" lon="4.76212">
        <ele>231.78107457887</ele>
        <time>2022-05-03T06:09:46.343Z</time>
      </trkpt>
      <trkpt lat="45.69819" lon="4.76201">
        <ele>231.71479712645</ele>
        <time>2022-05-03T06:09:50.111Z</time>
      </trkpt>
      <trkpt lat="45.69801" lon="4.76171">
        <ele>231.6904912975</ele>
        <time>2022-05-03T06:09:53.883Z</time>
      </trkpt>
      <trkpt lat="45.69781" lon="4.76142">
        <ele>231.74666105118</ele>
        <time>2022-05-03T06:09:57.660Z</time>
      </trkpt>
      <trkpt lat="45.69763" lon="4.7613">
        <ele>231.68140551123</ele>
        <time>2022-05-03T06:10:01.440Z</time>
      </trkpt>
      <trkpt lat="45.69747" lon="4.76126">
        <ele>231.52864594726</ele>
        <time>2022-05-03T06:10:05.223Z</time>
      </trkpt>
      <trkpt lat="45.69745" lon="4.76125">
        <ele>231.35718449406</ele>
        <time>2022-05-03T06:10:09.006Z</time>
      </trkpt>
      <trkpt lat="45.69651" lon="4.76132">
        <ele>231.18752506842</ele>
        <time>2022-05-03T06:10:12.804Z</time>
      </trkpt>
      <trkpt lat="45.69505" lon="4.76147">
        <ele>230.89539544311</ele>
        <time>2022-05-03T06:10:16.626Z</time>
      </trkpt>
      <trkpt lat="45.69462" lon="4.76152">
        <ele>230.73029737326</ele>
        <time>2022-05-03T06:10:20.454Z</time>
      </trkpt>
      <trkpt lat="45.69312" lon="4.76213">
        <ele>230.41636381419</ele>
        <time>2022-05-03T06:10:24.307Z</time>
      </trkpt>
      <trkpt lat="45.69303" lon="4.76228">
        <ele>230.30398809727</ele>
        <time>2022-05-03T06:10:28.163Z</time>
      </trkpt>
      <trkpt lat="45.69294" lon="4.76245">
        <ele>230.36646782543</ele>
        <time>2022-05-03T06:10:32.021Z</time>
      </trkpt>
      <trkpt lat="45.6928" lon="4.76253">
        <ele>230.65600418342</ele>
        <time>2022-05-03T06:10:35.881Z</time>
      </trkpt>
      <trkpt lat="45.69246" lon="4.76247">
        <ele>231.20286338437</ele>
        <time>2022-05-03T06:10:39.747Z</time>
      </trkpt>
      <trkpt lat="45.6921" lon="4.76238">
        <ele>231.98012587719</ele>
        <time>2022-05-03T06:10:43.619Z</time>
      </trkpt>
      <trkpt lat="45.69059" lon="4.76174">
        <ele>233.25543883424</ele>
        <time>2022-05-03T06:10:47.516Z</time>
      </trkpt>
      <trkpt lat="45.69032" lon="4.76159">
        <ele>234.47690213051</ele>
        <time>2022-05-03T06:10:51.418Z</time>
      </trkpt>
      <trkpt lat="45.68951" lon="4.76155">
        <ele>235.72778744972</ele>
        <time>2022-05-03T06:10:55.333Z</time>
      </trkpt>
      <trkpt lat="45.68932" lon="4.76161">
        <ele>237.14230932999</ele>
        <time>2022-05-03T06:10:59.251Z</time>
      </trkpt>
      <trkpt lat="45.6893" lon="4.76161">
        <ele>238.5699960578</ele>
        <time>2022-05-03T06:11:03.169Z</time>
      </trkpt>
      <trkpt lat="45.68903" lon="4.76163">
        <ele>240.13529637111</ele>
        <time>2022-05-03T06:11:07.091Z</time>
      </trkpt>
      <trkpt lat="45.68826" lon="4.76138">
        <ele>241.86308487816</ele>
        <time>2022-05-03T06:11:11.026Z</time>
      </trkpt>
      <trkpt lat="45.68817" lon="4.76135">
        <ele>243.23696189472</ele>
        <time>2022-05-03T06:11:14.962Z</time>
      </trkpt>
      <trkpt lat="45.68797" lon="4.76125">
        <ele>244.5138874038</ele>
        <time>2022-05-03T06:11:18.902Z</time>
      </trkpt>
      <trkpt lat="45.68786" lon="4.7612">
        <ele>245.63002101624</ele>
        <time>2022-05-03T06:11:22.844Z</time>
      </trkpt>
      <trkpt lat="45.68767" lon="4.76104">
        <ele>246.58665200503</ele>
        <time>2022-05-03T06:11:26.789Z</time>
      </trkpt>
      <trkpt lat="45.6875" lon="4.76082">
        <ele>247.37230524188</ele>
        <time>2022-05-03T06:11:30.738Z</time>
      </trkpt>
      <trkpt lat="45.68728" lon="4.76063">
        <ele>247.98750410215</ele>
        <time>2022-05-03T06:11:34.691Z</time>
      </trkpt>
      <trkpt lat="45.68721" lon="4.76044">
        <ele>248.46611937641</ele>
        <time>2022-05-03T06:11:38.646Z</time>
      </trkpt>
      <trkpt lat="45.68721" lon="4.7604">
        <ele>248.87099943809</ele>
        <time>2022-05-03T06:11:42.602Z</time>
      </trkpt>
      <trkpt lat="45.68719" lon="4.76035">
        <ele>249.18175231825</ele>
        <time>2022-05-03T06:11:46.559Z</time>
      </trkpt>
      <trkpt lat="45.68716" lon="4.76032">
        <ele>249.43595193401</ele>
        <time>2022-05-03T06:11:50.516Z</time>
      </trkpt>
      <trkpt lat="45.68713" lon="4.76032">
        <ele>249.63600805013</ele>
        <time>2022-05-03T06:11:54.474Z</time>
      </trkpt>
      <trkpt lat="45.68709" lon="4.76029">
        <ele>249.80675580405</ele>
        <time>2022-05-03T06:11:58.432Z</time>
      </trkpt>
      <trkpt lat="45.68701" lon="4.76021">
        <ele>249.95927716882</ele>
        <time>2022-05-03T06:12:02.392Z</time>
      </trkpt>
      <trkpt lat="45.68695" lon="4.76013">
        <ele>250.10346091659</ele>
        <time>2022-05-03T06:12:06.353Z</time>
      </trkpt>
      <trkpt lat="45.68672" lon="4.75976">
        <ele>250.24740582242</ele>
        <time>2022-05-03T06:12:10.320Z</time>
      </trkpt>
      <trkpt lat="45.68659" lon="4.7596">
        <ele>250.3419547985</ele>
        <time>2022-05-03T06:12:14.289Z</time>
      </trkpt>
      <trkpt lat="45.68642" lon="4.75924">
        <ele>250.38557743692</ele>
        <time>2022-05-03T06:12:18.263Z</time>
      </trkpt>
      <trkpt lat="45.68625" lon="4.75894">
        <ele>250.51433160423</ele>
        <time>2022-05-03T06:12:22.242Z</time>
      </trkpt>
      <trkpt lat="45.68609" lon="4.75877">
        <ele>250.61001033694</ele>
        <time>2022-05-03T06:12:26.224Z</time>
      </trkpt>
      <trkpt lat="45.6858" lon="4.75856">
        <ele>250.67087683125</ele>
        <time>2022-05-03T06:12:30.211Z</time>
      </trkpt>
      <trkpt lat="45.68535" lon="4.75837">
        <ele>250.47777508476</ele>
        <time>2022-05-03T06:12:34.206Z</time>
      </trkpt>
      <trkpt lat="45.68458" lon="4.75811">
        <ele>250.0957088678</ele>
        <time>2022-05-03T06:12:38.213Z</time>
      </trkpt>
      <trkpt lat="45.68384" lon="4.75796">
        <ele>249.72107239829</ele>
        <time>2022-05-03T06:12:42.232Z</time>
      </trkpt>
      <trkpt lat="45.68358" lon="4.75792">
        <ele>249.09100968138</ele>
        <time>2022-05-03T06:12:46.255Z</time>
      </trkpt>
      <trkpt lat="45.68329" lon="4.75779">
        <ele>248.19802488257</ele>
        <time>2022-05-03T06:12:50.283Z</time>
      </trkpt>
      <trkpt lat="45.68297" lon="4.7576">
        <ele>247.0944951616</ele>
        <time>2022-05-03T06:12:54.317Z</time>
      </trkpt>
      <trkpt lat="45.68252" lon="4.75734">
        <ele>245.76285969165</ele>
        <time>2022-05-03T06:12:58.359Z</time>
      </trkpt>
      <trkpt lat="45.68227" lon="4.75719">
        <ele>244.22112508208</ele>
        <time>2022-05-03T06:13:02.405Z</time>
      </trkpt>
      <trkpt lat="45.6822" lon="4.75716">
        <ele>242.55730194105</ele>
        <time>2022-05-03T06:13:06.452Z</time>
      </trkpt>
      <trkpt lat="45.68211" lon="4.75711">
        <ele>240.69926391671</ele>
        <time>2022-05-03T06:13:10.501Z</time>
      </trkpt>
      <trkpt lat="45.68174" lon="4.75696">
        <ele>238.62734193907</ele>
        <time>2022-05-03T06:13:14.556Z</time>
      </trkpt>
      <trkpt lat="45.68137" lon="4.75681">
        <ele>236.51742652979</ele>
        <time>2022-05-03T06:13:18.617Z</time>
      </trkpt>
      <trkpt lat="45.6807" lon="4.7562">
        <ele>234.19669561642</ele>
        <time>2022-05-03T06:13:22.691Z</time>
      </trkpt>
      <trkpt lat="45.67995" lon="4.7555">
        <ele>231.35562494478</ele>
        <time>2022-05-03T06:13:26.779Z</time>
      </trkpt>
      <trkpt lat="45.67982" lon="4.75542">
        <ele>228.86438646366</ele>
        <time>2022-05-03T06:13:30.869Z</time>
      </trkpt>
      <trkpt lat="45.67968" lon="4.75536">
        <ele>226.36934128193</ele>
        <time>2022-05-03T06:13:34.962Z</time>
      </trkpt>
      <trkpt lat="45.67952" lon="4.75531">
        <ele>223.90927336097</ele>
        <time>2022-05-03T06:13:39.057Z</time>
      </trkpt>
      <trkpt lat="45.67947" lon="4.7553">
        <ele>221.61667087456</ele>
        <time>2022-05-03T06:13:43.153Z</time>
      </trkpt>
      <trkpt lat="45.67944" lon="4.75529">
        <ele>219.43890430277</ele>
        <time>2022-05-03T06:13:47.250Z</time>
      </trkpt>
      <trkpt lat="45.6794" lon="4.75528">
        <ele>217.37059249518</ele>
        <time>2022-05-03T06:13:51.347Z</time>
      </trkpt>
      <trkpt lat="45.67933" lon="4.75521">
        <ele>215.39628015261</ele>
        <time>2022-05-03T06:13:55.446Z</time>
      </trkpt>
      <trkpt lat="45.67916" lon="4.75489">
        <ele>213.43979231955</ele>
        <time>2022-05-03T06:13:59.549Z</time>
      </trkpt>
      <trkpt lat="45.67907" lon="4.75472">
        <ele>211.7767767336</ele>
        <time>2022-05-03T06:14:03.654Z</time>
      </trkpt>
      <trkpt lat="45.67882" lon="4.75403">
        <ele>210.28702745122</ele>
        <time>2022-05-03T06:14:07.768Z</time>
      </trkpt>
      <trkpt lat="45.67878" lon="4.75389">
        <ele>209.04441732478</ele>
        <time>2022-05-03T06:14:11.884Z</time>
      </trkpt>
      <trkpt lat="45.67868" lon="4.75361">
        <ele>207.95513870941</ele>
        <time>2022-05-03T06:14:16.003Z</time>
      </trkpt>
      <trkpt lat="45.67867" lon="4.75352">
        <ele>207.06860949296</ele>
        <time>2022-05-03T06:14:20.123Z</time>
      </trkpt>
      <trkpt lat="45.67866" lon="4.75349">
        <ele>206.3367677581</ele>
        <time>2022-05-03T06:14:24.244Z</time>
      </trkpt>
      <trkpt lat="45.67867" lon="4.75349">
        <ele>205.74389463426</ele>
        <time>2022-05-03T06:14:28.365Z</time>
      </trkpt>
      <trkpt lat="45.67866" lon="4.75343">
        <ele>205.27376211323</ele>
        <time>2022-05-03T06:14:32.487Z</time>
      </trkpt>
      <trkpt lat="45.67866" lon="4.75335">
        <ele>204.91112425114</ele>
        <time>2022-05-03T06:14:36.609Z</time>
      </trkpt>
      <trkpt lat="45.67861" lon="4.75325">
        <ele>204.64298053696</ele>
        <time>2022-05-03T06:14:40.733Z</time>
      </trkpt>
      <trkpt lat="45.67861" lon="4.75325">
        <ele>204.45959259753</ele>
        <time>2022-05-03T06:14:44.857Z</time>
      </trkpt>
      <trkpt lat="45.67853" lon="4.75323">
        <ele>204.3552402436</ele>
        <time>2022-05-03T06:14:48.982Z</time>
      </trkpt>
      <trkpt lat="45.67845" lon="4.75312">
        <ele>204.32870656161</ele>
        <time>2022-05-03T06:14:53.109Z</time>
      </trkpt>
      <trkpt lat="45.67831" lon="4.75286">
        <ele>204.37115859828</ele>
        <time>2022-05-03T06:14:57.240Z</time>
      </trkpt>
      <trkpt lat="45.67803" lon="4.75226">
        <ele>204.49404342509</ele>
        <time>2022-05-03T06:15:01.379Z</time>
      </trkpt>
      <trkpt lat="45.67791" lon="4.75199">
        <ele>204.76085822548</ele>
        <time>2022-05-03T06:15:05.521Z</time>
      </trkpt>
      <trkpt lat="45.67768" lon="4.75149">
        <ele>205.09793423415</ele>
        <time>2022-05-03T06:15:09.670Z</time>
      </trkpt>
      <trkpt lat="45.67734" lon="4.75075">
        <ele>205.65101664046</ele>
        <time>2022-05-03T06:15:13.829Z</time>
      </trkpt>
      <trkpt lat="45.67728" lon="4.7505">
        <ele>206.45380348074</ele>
        <time>2022-05-03T06:15:17.991Z</time>
      </trkpt>
      <trkpt lat="45.67726" lon="4.75029">
        <ele>207.50453703997</ele>
        <time>2022-05-03T06:15:22.155Z</time>
      </trkpt>
      <trkpt lat="45.67709" lon="4.75037">
        <ele>208.4466454421</ele>
        <time>2022-05-03T06:15:26.322Z</time>
      </trkpt>
      <trkpt lat="45.67674" lon="4.75059">
        <ele>209.52594394555</ele>
        <time>2022-05-03T06:15:30.495Z</time>
      </trkpt>
      <trkpt lat="45.67654" lon="4.75064">
        <ele>210.96581279856</ele>
        <time>2022-05-03T06:15:34.671Z</time>
      </trkpt>
      <trkpt lat="45.67596" lon="4.75061">
        <ele>212.61888485416</ele>
        <time>2022-05-03T06:15:38.857Z</time>
      </trkpt>
      <trkpt lat="45.67595" lon="4.75047">
        <ele>214.71371963708</ele>
        <time>2022-05-03T06:15:43.044Z</time>
      </trkpt>
      <trkpt lat="45.676" lon="4.74997">
        <ele>217.36800256367</ele>
        <time>2022-05-03T06:15:47.237Z</time>
      </trkpt>
      <trkpt lat="45.67605" lon="4.74988">
        <ele>220.12294586091</ele>
        <time>2022-05-03T06:15:51.431Z</time>
      </trkpt>
      <trkpt lat="45.67615" lon="4.74982">
        <ele>223.20167998006</ele>
        <time>2022-05-03T06:15:55.627Z</time>
      </trkpt>
      <trkpt lat="45.67637" lon="4.74996">
        <ele>226.53139362534</ele>
        <time>2022-05-03T06:15:59.827Z</time>
      </trkpt>
      <trkpt lat="45.67654" lon="4.74992">
        <ele>230.25077259432</ele>
        <time>2022-05-03T06:16:04.030Z</time>
      </trkpt>
      <trkpt lat="45.67679" lon="4.74964">
        <ele>234.55076619502</ele>
        <time>2022-05-03T06:16:08.238Z</time>
      </trkpt>
      <trkpt lat="45.67717" lon="4.74903">
        <ele>239.21222386212</ele>
        <time>2022-05-03T06:16:12.455Z</time>
      </trkpt>
      <trkpt lat="45.67742" lon="4.74856">
        <ele>243.76416980862</ele>
        <time>2022-05-03T06:16:16.679Z</time>
      </trkpt>
      <trkpt lat="45.67752" lon="4.74826">
        <ele>248.22030214625</ele>
        <time>2022-05-03T06:16:20.906Z</time>
      </trkpt>
      <trkpt lat="45.67762" lon="4.74752">
        <ele>252.80444012594</ele>
        <time>2022-05-03T06:16:25.142Z</time>
      </trkpt>
      <trkpt lat="45.67775" lon="4.74699">
        <ele>257.20638756154</ele>
        <time>2022-05-03T06:16:29.384Z</time>
      </trkpt>
      <trkpt lat="45.67812" lon="4.74599">
        <ele>261.53568862752</ele>
        <time>2022-05-03T06:16:33.639Z</time>
      </trkpt>
      <trkpt lat="45.67817" lon="4.7458">
        <ele>265.48365630643</ele>
        <time>2022-05-03T06:16:37.896Z</time>
      </trkpt>
      <trkpt lat="45.67818" lon="4.74577">
        <ele>269.19565846453</ele>
        <time>2022-05-03T06:16:42.153Z</time>
      </trkpt>
      <trkpt lat="45.67818" lon="4.74577">
        <ele>272.68901011058</ele>
        <time>2022-05-03T06:16:46.410Z</time>
      </trkpt>
      <trkpt lat="45.67846" lon="4.74481">
        <ele>276.2437460363</ele>
        <time>2022-05-03T06:16:50.679Z</time>
      </trkpt>
      <trkpt lat="45.67874" lon="4.7438">
        <ele>279.48462728983</ele>
        <time>2022-05-03T06:16:54.960Z</time>
      </trkpt>
      <trkpt lat="45.67878" lon="4.74365">
        <ele>282.32863115261</ele>
        <time>2022-05-03T06:16:59.243Z</time>
      </trkpt>
      <trkpt lat="45.67894" lon="4.74231">
        <ele>285.40918974028</ele>
        <time>2022-05-03T06:17:03.541Z</time>
      </trkpt>
      <trkpt lat="45.67901" lon="4.74167">
        <ele>287.70567244107</ele>
        <time>2022-05-03T06:17:07.846Z</time>
      </trkpt>
      <trkpt lat="45.67917" lon="4.74063">
        <ele>289.79638637478</ele>
        <time>2022-05-03T06:17:12.163Z</time>
      </trkpt>
      <trkpt lat="45.67918" lon="4.7406">
        <ele>291.66155860319</ele>
        <time>2022-05-03T06:17:16.481Z</time>
      </trkpt>
      <trkpt lat="45.67918" lon="4.74058">
        <ele>293.36409047335</ele>
        <time>2022-05-03T06:17:20.799Z</time>
      </trkpt>
      <trkpt lat="45.67913" lon="4.74003">
        <ele>295.07019746741</ele>
        <time>2022-05-03T06:17:25.123Z</time>
      </trkpt>
      <trkpt lat="45.67902" lon="4.73939">
        <ele>296.52797828838</ele>
        <time>2022-05-03T06:17:29.455Z</time>
      </trkpt>
      <trkpt lat="45.67896" lon="4.73875">
        <ele>298.07473130165</ele>
        <time>2022-05-03T06:17:33.794Z</time>
      </trkpt>
      <trkpt lat="45.67917" lon="4.73698">
        <ele>299.60235780217</ele>
        <time>2022-05-03T06:17:38.153Z</time>
      </trkpt>
      <trkpt lat="45.67916" lon="4.73695">
        <ele>301.15428325285</ele>
        <time>2022-05-03T06:17:42.512Z</time>
      </trkpt>
      <trkpt lat="45.67909" lon="4.73619">
        <ele>302.77800349101</ele>
        <time>2022-05-03T06:17:46.880Z</time>
      </trkpt>
      <trkpt lat="45.67909" lon="4.73516">
        <ele>304.68545976918</ele>
        <time>2022-05-03T06:17:51.260Z</time>
      </trkpt>
      <trkpt lat="45.67906" lon="4.73374">
        <ele>306.63161640267</ele>
        <time>2022-05-03T06:17:55.656Z</time>
      </trkpt>
      <trkpt lat="45.67911" lon="4.73307">
        <ele>308.60122734274</ele>
        <time>2022-05-03T06:18:00.059Z</time>
      </trkpt>
      <trkpt lat="45.67951" lon="4.73123">
        <ele>310.84958899519</ele>
        <time>2022-05-03T06:18:04.484Z</time>
      </trkpt>
      <trkpt lat="45.67966" lon="4.73001">
        <ele>313.07583478104</ele>
        <time>2022-05-03T06:18:08.923Z</time>
      </trkpt>
      <trkpt lat="45.67973" lon="4.72938">
        <ele>314.98878363616</ele>
        <time>2022-05-03T06:18:13.369Z</time>
      </trkpt>
      <trkpt lat="45.67981" lon="4.72873">
        <ele>316.88204133869</ele>
        <time>2022-05-03T06:18:17.822Z</time>
      </trkpt>
      <trkpt lat="45.6799" lon="4.72827">
        <ele>318.67109750402</ele>
        <time>2022-05-03T06:18:22.280Z</time>
      </trkpt>
      <trkpt lat="45.68015" lon="4.72724">
        <ele>320.3126483105</ele>
        <time>2022-05-03T06:18:26.751Z</time>
      </trkpt>
      <trkpt lat="45.68025" lon="4.72649">
        <ele>321.95184288308</ele>
        <time>2022-05-03T06:18:31.230Z</time>
      </trkpt>
      <trkpt lat="45.68026" lon="4.72509">
        <ele>323.14028327192</ele>
        <time>2022-05-03T06:18:35.725Z</time>
      </trkpt>
      <trkpt lat="45.68027" lon="4.72432">
        <ele>324.4601248198</ele>
        <time>2022-05-03T06:18:40.229Z</time>
      </trkpt>
      <trkpt lat="45.68019" lon="4.72393">
        <ele>325.60778941188</ele>
        <time>2022-05-03T06:18:44.737Z</time>
      </trkpt>
      <trkpt lat="45.67995" lon="4.7232">
        <ele>326.62111192853</ele>
        <time>2022-05-03T06:18:49.254Z</time>
      </trkpt>
      <trkpt lat="45.67974" lon="4.72245">
        <ele>327.58922852617</ele>
        <time>2022-05-03T06:18:53.780Z</time>
      </trkpt>
      <trkpt lat="45.67967" lon="4.72173">
        <ele>328.37250340305</ele>
        <time>2022-05-03T06:18:58.314Z</time>
      </trkpt>
      <trkpt lat="45.6797" lon="4.72116">
        <ele>328.83739777384</ele>
        <time>2022-05-03T06:19:02.855Z</time>
      </trkpt>
      <trkpt lat="45.67978" lon="4.7208">
        <ele>329.13153978344</ele>
        <time>2022-05-03T06:19:07.400Z</time>
      </trkpt>
      <trkpt lat="45.67991" lon="4.72013">
        <ele>329.33923410532</ele>
        <time>2022-05-03T06:19:11.953Z</time>
      </trkpt>
      <trkpt lat="45.68005" lon="4.71929">
        <ele>329.47594026641</ele>
        <time>2022-05-03T06:19:16.516Z</time>
      </trkpt>
      <trkpt lat="45.68013" lon="4.71888">
        <ele>329.47853854655</ele>
        <time>2022-05-03T06:19:21.083Z</time>
      </trkpt>
      <trkpt lat="45.68006" lon="4.71837">
        <ele>329.4263057464</ele>
        <time>2022-05-03T06:19:25.656Z</time>
      </trkpt>
      <trkpt lat="45.67997" lon="4.71804">
        <ele>329.32225403498</ele>
        <time>2022-05-03T06:19:30.233Z</time>
      </trkpt>
      <trkpt lat="45.6797" lon="4.71719">
        <ele>329.17312394622</ele>
        <time>2022-05-03T06:19:34.821Z</time>
      </trkpt>
      <trkpt lat="45.67961" lon="4.71695">
        <ele>329.07956063317</ele>
        <time>2022-05-03T06:19:39.412Z</time>
      </trkpt>
      <trkpt lat="45.67946" lon="4.71668">
        <ele>329.0500055276</ele>
        <time>2022-05-03T06:19:44.007Z</time>
      </trkpt>
      <trkpt lat="45.67946" lon="4.71649">
        <ele>329.06243936714</ele>
        <time>2022-05-03T06:19:48.604Z</time>
      </trkpt>
      <trkpt lat="45.67941" lon="4.71624">
        <ele>329.14430871461</ele>
        <time>2022-05-03T06:19:53.204Z</time>
      </trkpt>
      <trkpt lat="45.67929" lon="4.71614">
        <ele>329.35007602281</ele>
        <time>2022-05-03T06:19:57.806Z</time>
      </trkpt>
      <trkpt lat="45.67845" lon="4.71504">
        <ele>329.67872621007</ele>
        <time>2022-05-03T06:20:02.426Z</time>
      </trkpt>
      <trkpt lat="45.67827" lon="4.71477">
        <ele>330.05207849172</ele>
        <time>2022-05-03T06:20:07.050Z</time>
      </trkpt>
      <trkpt lat="45.67797" lon="4.71461">
        <ele>330.59077359589</ele>
        <time>2022-05-03T06:20:11.679Z</time>
      </trkpt>
      <trkpt lat="45.67744" lon="4.71432">
        <ele>331.14351748088</ele>
        <time>2022-05-03T06:20:16.317Z</time>
      </trkpt>
      <trkpt lat="45.67615" lon="4.71344">
        <ele>331.78712633989</ele>
        <time>2022-05-03T06:20:20.978Z</time>
      </trkpt>
      <trkpt lat="45.67576" lon="4.7132">
        <ele>332.44873259029</ele>
        <time>2022-05-03T06:20:25.646Z</time>
      </trkpt>
      <trkpt lat="45.67452" lon="4.71264">
        <ele>333.27917259219</ele>
        <time>2022-05-03T06:20:30.335Z</time>
      </trkpt>
      <trkpt lat="45.67422" lon="4.71244">
        <ele>334.0921504248</ele>
        <time>2022-05-03T06:20:35.029Z</time>
      </trkpt>
      <trkpt lat="45.67372" lon="4.71185">
        <ele>334.9810583666</ele>
        <time>2022-05-03T06:20:39.734Z</time>
      </trkpt>
      <trkpt lat="45.67327" lon="4.71135">
        <ele>335.86112345657</ele>
        <time>2022-05-03T06:20:44.448Z</time>
      </trkpt>
      <trkpt lat="45.67272" lon="4.71062">
        <ele>336.70440159516</ele>
        <time>2022-05-03T06:20:49.174Z</time>
      </trkpt>
      <trkpt lat="45.67269" lon="4.71058">
        <ele>337.47097461678</ele>
        <time>2022-05-03T06:20:53.900Z</time>
      </trkpt>
      <trkpt lat="45.67218" lon="4.70988">
        <ele>338.24789861797</ele>
        <time>2022-05-03T06:20:58.638Z</time>
      </trkpt>
      <trkpt lat="45.67203" lon="4.70948">
        <ele>338.84453385344</ele>
        <time>2022-05-03T06:21:03.381Z</time>
      </trkpt>
      <trkpt lat="45.67179" lon="4.7083">
        <ele>339.49142853026</ele>
        <time>2022-05-03T06:21:08.138Z</time>
      </trkpt>
      <trkpt lat="45.67155" lon="4.70748">
        <ele>339.97008790605</ele>
        <time>2022-05-03T06:21:12.905Z</time>
      </trkpt>
      <trkpt lat="45.67121" lon="4.70671">
        <ele>340.28888452627</ele>
        <time>2022-05-03T06:21:17.682Z</time>
      </trkpt>
      <trkpt lat="45.67085" lon="4.70619">
        <ele>340.52221161391</ele>
        <time>2022-05-03T06:21:22.467Z</time>
      </trkpt>
      <trkpt lat="45.67004" lon="4.70532">
        <ele>340.61988076771</ele>
        <time>2022-05-03T06:21:27.268Z</time>
      </trkpt>
      <trkpt lat="45.6693" lon="4.7042">
        <ele>340.77422653776</ele>
        <time>2022-05-03T06:21:32.087Z</time>
      </trkpt>
      <trkpt lat="45.66858" lon="4.70285">
        <ele>340.71950557853</ele>
        <time>2022-05-03T06:21:36.925Z</time>
      </trkpt>
      <trkpt lat="45.66865" lon="4.7026">
        <ele>340.66999465445</ele>
        <time>2022-05-03T06:21:41.766Z</time>
      </trkpt>
      <trkpt lat="45.66868" lon="4.70261">
        <ele>340.66242489697</ele>
        <time>2022-05-03T06:21:46.607Z</time>
      </trkpt>
      <trkpt lat="45.66865" lon="4.7026">
        <ele>340.66999465445</ele>
        <time>2022-05-03T06:21:51.449Z</time>
      </trkpt>
      <trkpt lat="45.66869" lon="4.70219">
        <ele>340.72994288096</ele>
        <time>2022-05-03T06:21:56.295Z</time>
      </trkpt>
      <trkpt lat="45.66868" lon="4.70187">
        <ele>340.86046244757</ele>
        <time>2022-05-03T06:22:01.145Z</time>
      </trkpt>
      <trkpt lat="45.66859" lon="4.70136">
        <ele>341.07727446212</ele>
        <time>2022-05-03T06:22:06.001Z</time>
      </trkpt>
      <trkpt lat="45.66854" lon="4.70071">
        <ele>341.41344094166</ele>
        <time>2022-05-03T06:22:10.864Z</time>
      </trkpt>
      <trkpt lat="45.66849" lon="4.70011">
        <ele>341.88283666879</ele>
        <time>2022-05-03T06:22:15.734Z</time>
      </trkpt>
      <trkpt lat="45.66849" lon="4.70005">
        <ele>342.42463325459</ele>
        <time>2022-05-03T06:22:20.605Z</time>
      </trkpt>
      <trkpt lat="45.66837" lon="4.69879">
        <ele>343.2005224928</ele>
        <time>2022-05-03T06:22:25.490Z</time>
      </trkpt>
      <trkpt lat="45.6682" lon="4.69799">
        <ele>343.95547079265</ele>
        <time>2022-05-03T06:22:30.384Z</time>
      </trkpt>
      <trkpt lat="45.66801" lon="4.69753">
        <ele>344.80092838831</ele>
        <time>2022-05-03T06:22:35.284Z</time>
      </trkpt>
      <trkpt lat="45.66761" lon="4.69693">
        <ele>345.70093341331</ele>
        <time>2022-05-03T06:22:40.193Z</time>
      </trkpt>
      <trkpt lat="45.66744" lon="4.69662">
        <ele>346.65398373767</ele>
        <time>2022-05-03T06:22:45.107Z</time>
      </trkpt>
      <trkpt lat="45.6673" lon="4.69633">
        <ele>347.72372136217</ele>
        <time>2022-05-03T06:22:50.025Z</time>
      </trkpt>
      <trkpt lat="45.66713" lon="4.69586">
        <ele>348.86623266212</ele>
        <time>2022-05-03T06:22:54.949Z</time>
      </trkpt>
      <trkpt lat="45.667" lon="4.69556">
        <ele>349.99743350234</ele>
        <time>2022-05-03T06:22:59.877Z</time>
      </trkpt>
      <trkpt lat="45.66712" lon="4.69558">
        <ele>350.98962207738</ele>
        <time>2022-05-03T06:23:04.807Z</time>
      </trkpt>
      <trkpt lat="45.66709" lon="4.69542">
        <ele>351.97231449804</ele>
        <time>2022-05-03T06:23:09.738Z</time>
      </trkpt>
      <trkpt lat="45.66704" lon="4.6948">
        <ele>352.94832306689</ele>
        <time>2022-05-03T06:23:14.677Z</time>
      </trkpt>
      <trkpt lat="45.66702" lon="4.69472">
        <ele>353.84100494495</ele>
        <time>2022-05-03T06:23:19.616Z</time>
      </trkpt>
      <trkpt lat="45.667" lon="4.69439">
        <ele>354.73236453431</ele>
        <time>2022-05-03T06:23:24.559Z</time>
      </trkpt>
      <trkpt lat="45.66697" lon="4.69293">
        <ele>355.69137125189</ele>
        <time>2022-05-03T06:23:29.519Z</time>
      </trkpt>
      <trkpt lat="45.66701" lon="4.69192">
        <ele>356.27426021347</ele>
        <time>2022-05-03T06:23:34.490Z</time>
      </trkpt>
      <trkpt lat="45.667" lon="4.69143">
        <ele>356.69937202406</ele>
        <time>2022-05-03T06:23:39.466Z</time>
      </trkpt>
      <trkpt lat="45.66692" lon="4.69096">
        <ele>357.0229020261</ele>
        <time>2022-05-03T06:23:44.448Z</time>
      </trkpt>
      <trkpt lat="45.66684" lon="4.6906">
        <ele>357.34413060003</ele>
        <time>2022-05-03T06:23:49.434Z</time>
      </trkpt>
      <trkpt lat="45.66659" lon="4.68998">
        <ele>357.69338044878</ele>
        <time>2022-05-03T06:23:54.428Z</time>
      </trkpt>
      <trkpt lat="45.66655" lon="4.68985">
        <ele>357.98746025341</ele>
        <time>2022-05-03T06:23:59.424Z</time>
      </trkpt>
      <trkpt lat="45.66648" lon="4.68968">
        <ele>358.30091396946</ele>
        <time>2022-05-03T06:24:04.422Z</time>
      </trkpt>
      <trkpt lat="45.66645" lon="4.68938">
        <ele>358.66521404571</ele>
        <time>2022-05-03T06:24:09.423Z</time>
      </trkpt>
      <trkpt lat="45.66656" lon="4.68925">
        <ele>359.07093585258</ele>
        <time>2022-05-03T06:24:14.427Z</time>
      </trkpt>
      <trkpt lat="45.66675" lon="4.6893">
        <ele>359.4687550574</ele>
        <time>2022-05-03T06:24:19.434Z</time>
      </trkpt>
      <trkpt lat="45.66691" lon="4.68942">
        <ele>359.87210567587</ele>
        <time>2022-05-03T06:24:24.444Z</time>
      </trkpt>
      <trkpt lat="45.66708" lon="4.68951">
        <ele>360.37312470326</ele>
        <time>2022-05-03T06:24:29.456Z</time>
      </trkpt>
      <trkpt lat="45.66729" lon="4.68945">
        <ele>361.04459847269</ele>
        <time>2022-05-03T06:24:34.472Z</time>
      </trkpt>
      <trkpt lat="45.66757" lon="4.68915">
        <ele>361.93922263846</ele>
        <time>2022-05-03T06:24:39.494Z</time>
      </trkpt>
      <trkpt lat="45.66776" lon="4.68892">
        <ele>362.92089919401</ele>
        <time>2022-05-03T06:24:44.520Z</time>
      </trkpt>
      <trkpt lat="45.6679" lon="4.68893">
        <ele>363.86906099588</ele>
        <time>2022-05-03T06:24:49.548Z</time>
      </trkpt>
      <trkpt lat="45.66795" lon="4.689">
        <ele>364.83311376574</ele>
        <time>2022-05-03T06:24:54.577Z</time>
      </trkpt>
      <trkpt lat="45.66798" lon="4.68907">
        <ele>365.84516540091</ele>
        <time>2022-05-03T06:24:59.607Z</time>
      </trkpt>
      <trkpt lat="45.66809" lon="4.68966">
        <ele>366.90378029272</ele>
        <time>2022-05-03T06:25:04.644Z</time>
      </trkpt>
      <trkpt lat="45.66817" lon="4.68979">
        <ele>368.09335571056</ele>
        <time>2022-05-03T06:25:09.683Z</time>
      </trkpt>
      <trkpt lat="45.66831" lon="4.68981">
        <ele>369.35649067139</ele>
        <time>2022-05-03T06:25:14.724Z</time>
      </trkpt>
      <trkpt lat="45.66838" lon="4.68964">
        <ele>370.53850472929</ele>
        <time>2022-05-03T06:25:19.767Z</time>
      </trkpt>
      <trkpt lat="45.66857" lon="4.68898">
        <ele>371.78707552554</ele>
        <time>2022-05-03T06:25:24.818Z</time>
      </trkpt>
      <trkpt lat="45.66866" lon="4.68884">
        <ele>372.91297190773</ele>
        <time>2022-05-03T06:25:29.871Z</time>
      </trkpt>
      <trkpt lat="45.66901" lon="4.68881">
        <ele>373.9867254034</ele>
        <time>2022-05-03T06:25:34.930Z</time>
      </trkpt>
      <trkpt lat="45.66917" lon="4.68863">
        <ele>374.89021396582</ele>
        <time>2022-05-03T06:25:39.992Z</time>
      </trkpt>
      <trkpt lat="45.66931" lon="4.68839">
        <ele>375.74491956698</ele>
        <time>2022-05-03T06:25:45.058Z</time>
      </trkpt>
      <trkpt lat="45.66939" lon="4.68822">
        <ele>376.4591150499</ele>
        <time>2022-05-03T06:25:50.126Z</time>
      </trkpt>
      <trkpt lat="45.66939" lon="4.68813">
        <ele>377.0163783968</ele>
        <time>2022-05-03T06:25:55.195Z</time>
      </trkpt>
      <trkpt lat="45.66935" lon="4.68792">
        <ele>377.42483241954</ele>
        <time>2022-05-03T06:26:00.266Z</time>
      </trkpt>
      <trkpt lat="45.66953" lon="4.68778">
        <ele>377.73374041595</ele>
        <time>2022-05-03T06:26:05.341Z</time>
      </trkpt>
      <trkpt lat="45.66969" lon="4.68766">
        <ele>377.9012349126</ele>
        <time>2022-05-03T06:26:10.418Z</time>
      </trkpt>
      <trkpt lat="45.66973" lon="4.68763">
        <ele>377.96406220208</ele>
        <time>2022-05-03T06:26:15.496Z</time>
      </trkpt>
      <trkpt lat="45.66972" lon="4.68699">
        <ele>377.94749191966</ele>
        <time>2022-05-03T06:26:20.581Z</time>
      </trkpt>
      <trkpt lat="45.66973" lon="4.68688">
        <ele>377.85316386803</ele>
        <time>2022-05-03T06:26:25.668Z</time>
      </trkpt>
      <trkpt lat="45.66968" lon="4.68658">
        <ele>377.73189226621</ele>
        <time>2022-05-03T06:26:30.758Z</time>
      </trkpt>
      <trkpt lat="45.66949" lon="4.68601">
        <ele>377.59663431205</ele>
        <time>2022-05-03T06:26:35.855Z</time>
      </trkpt>
      <trkpt lat="45.66944" lon="4.6856">
        <ele>377.40440666025</ele>
        <time>2022-05-03T06:26:40.957Z</time>
      </trkpt>
      <trkpt lat="45.66938" lon="4.68535">
        <ele>377.29417090146</ele>
        <time>2022-05-03T06:26:46.062Z</time>
      </trkpt>
      <trkpt lat="45.66937" lon="4.68484">
        <ele>377.21789555843</ele>
        <time>2022-05-03T06:26:51.173Z</time>
      </trkpt>
      <trkpt lat="45.66942" lon="4.68426">
        <ele>377.29103315786</ele>
        <time>2022-05-03T06:26:56.290Z</time>
      </trkpt>
      <trkpt lat="45.66965" lon="4.68401">
        <ele>377.43709777541</ele>
        <time>2022-05-03T06:27:01.412Z</time>
      </trkpt>
      <trkpt lat="45.6699" lon="4.68394">
        <ele>377.74103025355</ele>
        <time>2022-05-03T06:27:06.538Z</time>
      </trkpt>
      <trkpt lat="45.67011" lon="4.68396">
        <ele>378.20364483657</ele>
        <time>2022-05-03T06:27:11.667Z</time>
      </trkpt>
      <trkpt lat="45.67037" lon="4.68386">
        <ele>378.89314075943</ele>
        <time>2022-05-03T06:27:16.800Z</time>
      </trkpt>
      <trkpt lat="45.67061" lon="4.68361">
        <ele>379.8018455661</ele>
        <time>2022-05-03T06:27:21.938Z</time>
      </trkpt>
      <trkpt lat="45.67078" lon="4.68343">
        <ele>380.80349320018</ele>
        <time>2022-05-03T06:27:27.080Z</time>
      </trkpt>
      <trkpt lat="45.67037" lon="4.6827">
        <ele>382.06034944279</ele>
        <time>2022-05-03T06:27:32.232Z</time>
      </trkpt>
      <trkpt lat="45.67014" lon="4.68223">
        <ele>383.51312954968</ele>
        <time>2022-05-03T06:27:37.391Z</time>
      </trkpt>
      <trkpt lat="45.67002" lon="4.68169">
        <ele>385.24498054852</ele>
        <time>2022-05-03T06:27:42.556Z</time>
      </trkpt>
      <trkpt lat="45.66996" lon="4.68067">
        <ele>387.29541591639</ele>
        <time>2022-05-03T06:27:47.732Z</time>
      </trkpt>
      <trkpt lat="45.66981" lon="4.68005">
        <ele>389.31140574167</ele>
        <time>2022-05-03T06:27:52.916Z</time>
      </trkpt>
      <trkpt lat="45.66952" lon="4.67902">
        <ele>391.86577989417</ele>
        <time>2022-05-03T06:27:58.112Z</time>
      </trkpt>
      <trkpt lat="45.66947" lon="4.67874">
        <ele>394.04653199454</ele>
        <time>2022-05-03T06:28:03.311Z</time>
      </trkpt>
      <trkpt lat="45.66943" lon="4.67828">
        <ele>396.1201635595</ele>
        <time>2022-05-03T06:28:08.516Z</time>
      </trkpt>
      <trkpt lat="45.66937" lon="4.67781">
        <ele>398.26175501091</ele>
        <time>2022-05-03T06:28:13.726Z</time>
      </trkpt>
      <trkpt lat="45.66932" lon="4.67766">
        <ele>400.48947662859</ele>
        <time>2022-05-03T06:28:18.938Z</time>
      </trkpt>
      <trkpt lat="45.66924" lon="4.67749">
        <ele>402.74347064059</ele>
        <time>2022-05-03T06:28:24.152Z</time>
      </trkpt>
      <trkpt lat="45.66899" lon="4.67707">
        <ele>405.09017632879</ele>
        <time>2022-05-03T06:28:29.372Z</time>
      </trkpt>
      <trkpt lat="45.66856" lon="4.67629">
        <ele>407.60370818918</ele>
        <time>2022-05-03T06:28:34.603Z</time>
      </trkpt>
      <trkpt lat="45.66803" lon="4.6753">
        <ele>410.15413635727</ele>
        <time>2022-05-03T06:28:39.848Z</time>
      </trkpt>
      <trkpt lat="45.66709" lon="4.67325">
        <ele>412.76933595415</ele>
        <time>2022-05-03T06:28:45.121Z</time>
      </trkpt>
      <trkpt lat="45.66693" lon="4.67252">
        <ele>415.15467909839</ele>
        <time>2022-05-03T06:28:50.403Z</time>
      </trkpt>
      <trkpt lat="45.6669" lon="4.67241">
        <ele>417.37703878569</ele>
        <time>2022-05-03T06:28:55.686Z</time>
      </trkpt>
      <trkpt lat="45.66685" lon="4.67226">
        <ele>419.55364454473</ele>
        <time>2022-05-03T06:29:00.971Z</time>
      </trkpt>
      <trkpt lat="45.66685" lon="4.67189">
        <ele>421.69186034568</ele>
        <time>2022-05-03T06:29:06.260Z</time>
      </trkpt>
      <trkpt lat="45.66703" lon="4.67024">
        <ele>423.92172069997</ele>
        <time>2022-05-03T06:29:11.568Z</time>
      </trkpt>
      <trkpt lat="45.66685" lon="4.66984">
        <ele>426.05186321154</ele>
        <time>2022-05-03T06:29:16.881Z</time>
      </trkpt>
      <trkpt lat="45.6666" lon="4.66942">
        <ele>428.16288333654</ele>
        <time>2022-05-03T06:29:22.200Z</time>
      </trkpt>
      <trkpt lat="45.66638" lon="4.66911">
        <ele>430.22027703622</ele>
        <time>2022-05-03T06:29:27.524Z</time>
      </trkpt>
      <trkpt lat="45.66602" lon="4.66876">
        <ele>432.20311773467</ele>
        <time>2022-05-03T06:29:32.855Z</time>
      </trkpt>
      <trkpt lat="45.66561" lon="4.66841">
        <ele>434.15547156564</ele>
        <time>2022-05-03T06:29:38.194Z</time>
      </trkpt>
      <trkpt lat="45.6646" lon="4.6681">
        <ele>436.31567900917</ele>
        <time>2022-05-03T06:29:43.549Z</time>
      </trkpt>
      <trkpt lat="45.66315" lon="4.66783">
        <ele>438.80994290541</ele>
        <time>2022-05-03T06:29:48.928Z</time>
      </trkpt>
      <trkpt lat="45.6627" lon="4.6676">
        <ele>441.17994185344</ele>
        <time>2022-05-03T06:29:54.314Z</time>
      </trkpt>
      <trkpt lat="45.66238" lon="4.66738">
        <ele>443.62889015166</ele>
        <time>2022-05-03T06:29:59.706Z</time>
      </trkpt>
      <trkpt lat="45.66232" lon="4.66731">
        <ele>445.97326883085</ele>
        <time>2022-05-03T06:30:05.099Z</time>
      </trkpt>
      <trkpt lat="45.66222" lon="4.66717">
        <ele>448.38259335627</ele>
        <time>2022-05-03T06:30:10.494Z</time>
      </trkpt>
      <trkpt lat="45.66218" lon="4.66699">
        <ele>450.84493913835</ele>
        <time>2022-05-03T06:30:15.892Z</time>
      </trkpt>
      <trkpt lat="45.66203" lon="4.6668">
        <ele>453.49287523618</ele>
        <time>2022-05-03T06:30:21.293Z</time>
      </trkpt>
      <trkpt lat="45.66193" lon="4.66671">
        <ele>456.21663256175</ele>
        <time>2022-05-03T06:30:26.696Z</time>
      </trkpt>
      <trkpt lat="45.66166" lon="4.66647">
        <ele>459.13700138643</ele>
        <time>2022-05-03T06:30:32.104Z</time>
      </trkpt>
      <trkpt lat="45.66154" lon="4.66638">
        <ele>462.09691847514</ele>
        <time>2022-05-03T06:30:37.514Z</time>
      </trkpt>
      <trkpt lat="45.66087" lon="4.66569">
        <ele>465.7096381496</ele>
        <time>2022-05-03T06:30:42.937Z</time>
      </trkpt>
      <trkpt lat="45.66081" lon="4.66554">
        <ele>468.93375310969</ele>
        <time>2022-05-03T06:30:48.362Z</time>
      </trkpt>
      <trkpt lat="45.66076" lon="4.66458">
        <ele>472.33563904231</ele>
        <time>2022-05-03T06:30:53.798Z</time>
      </trkpt>
      <trkpt lat="45.66071" lon="4.66436">
        <ele>475.62625392673</ele>
        <time>2022-05-03T06:30:59.237Z</time>
      </trkpt>
      <trkpt lat="45.6607" lon="4.66402">
        <ele>478.98244669167</ele>
        <time>2022-05-03T06:31:04.679Z</time>
      </trkpt>
      <trkpt lat="45.66066" lon="4.66339">
        <ele>482.36896563325</ele>
        <time>2022-05-03T06:31:10.128Z</time>
      </trkpt>
      <trkpt lat="45.66066" lon="4.6629">
        <ele>485.76017877281</ele>
        <time>2022-05-03T06:31:15.583Z</time>
      </trkpt>
      <trkpt lat="45.66067" lon="4.66224">
        <ele>489.14665860115</ele>
        <time>2022-05-03T06:31:21.045Z</time>
      </trkpt>
      <trkpt lat="45.66043" lon="4.66111">
        <ele>492.42530000606</ele>
        <time>2022-05-03T06:31:26.521Z</time>
      </trkpt>
      <trkpt lat="45.66013" lon="4.65998">
        <ele>495.58412123803</ele>
        <time>2022-05-03T06:31:32.010Z</time>
      </trkpt>
      <trkpt lat="45.65952" lon="4.6583">
        <ele>498.76798229019</ele>
        <time>2022-05-03T06:31:37.520Z</time>
      </trkpt>
      <trkpt lat="45.65942" lon="4.65811">
        <ele>501.6620876152</ele>
        <time>2022-05-03T06:31:43.033Z</time>
      </trkpt>
      <trkpt lat="45.65927" lon="4.65791">
        <ele>504.47379863048</ele>
        <time>2022-05-03T06:31:48.549Z</time>
      </trkpt>
      <trkpt lat="45.65878" lon="4.65738">
        <ele>507.36151441821</ele>
        <time>2022-05-03T06:31:54.075Z</time>
      </trkpt>
      <trkpt lat="45.65816" lon="4.65689">
        <ele>510.31039300709</ele>
        <time>2022-05-03T06:31:59.613Z</time>
      </trkpt>
      <trkpt lat="45.65754" lon="4.65656">
        <ele>512.82878062353</ele>
        <time>2022-05-03T06:32:05.161Z</time>
      </trkpt>
      <trkpt lat="45.65726" lon="4.65637">
        <ele>515.23640316863</ele>
        <time>2022-05-03T06:32:10.714Z</time>
      </trkpt>
      <trkpt lat="45.65708" lon="4.65615">
        <ele>517.52509812089</ele>
        <time>2022-05-03T06:32:16.271Z</time>
      </trkpt>
      <trkpt lat="45.65698" lon="4.65594">
        <ele>519.6772728155</ele>
        <time>2022-05-03T06:32:21.831Z</time>
      </trkpt>
      <trkpt lat="45.65674" lon="4.65517">
        <ele>521.68605959328</ele>
        <time>2022-05-03T06:32:27.400Z</time>
      </trkpt>
      <trkpt lat="45.65665" lon="4.6548">
        <ele>523.59093700698</ele>
        <time>2022-05-03T06:32:32.974Z</time>
      </trkpt>
      <trkpt lat="45.6566" lon="4.65439">
        <ele>525.45239057683</ele>
        <time>2022-05-03T06:32:38.552Z</time>
      </trkpt>
      <trkpt lat="45.65655" lon="4.65351">
        <ele>527.31718075285</ele>
        <time>2022-05-03T06:32:44.140Z</time>
      </trkpt>
      <trkpt lat="45.65652" lon="4.65322">
        <ele>529.00770262086</ele>
        <time>2022-05-03T06:32:49.731Z</time>
      </trkpt>
      <trkpt lat="45.65643" lon="4.65292">
        <ele>530.67811363533</ele>
        <time>2022-05-03T06:32:55.326Z</time>
      </trkpt>
      <trkpt lat="45.6563" lon="4.65277">
        <ele>532.32289736128</ele>
        <time>2022-05-03T06:33:00.924Z</time>
      </trkpt>
      <trkpt lat="45.65591" lon="4.65249">
        <ele>534.04749734624</ele>
        <time>2022-05-03T06:33:06.529Z</time>
      </trkpt>
      <trkpt lat="45.65558" lon="4.65218">
        <ele>535.65222799953</ele>
        <time>2022-05-03T06:33:12.140Z</time>
      </trkpt>
      <trkpt lat="45.65524" lon="4.65184">
        <ele>537.08818799313</ele>
        <time>2022-05-03T06:33:17.758Z</time>
      </trkpt>
      <trkpt lat="45.65481" lon="4.65134">
        <ele>538.36454413024</ele>
        <time>2022-05-03T06:33:23.385Z</time>
      </trkpt>
      <trkpt lat="45.65457" lon="4.65103">
        <ele>539.50366739442</ele>
        <time>2022-05-03T06:33:29.017Z</time>
      </trkpt>
      <trkpt lat="45.65399" lon="4.65021">
        <ele>540.52335039519</ele>
        <time>2022-05-03T06:33:34.662Z</time>
      </trkpt>
      <trkpt lat="45.65374" lon="4.64989">
        <ele>541.14262547819</ele>
        <time>2022-05-03T06:33:40.312Z</time>
      </trkpt>
      <trkpt lat="45.65188" lon="4.64777">
        <ele>541.40835497787</ele>
        <time>2022-05-03T06:33:46.000Z</time>
      </trkpt>
      <trkpt lat="45.65178" lon="4.64761">
        <ele>541.71537137147</ele>
        <time>2022-05-03T06:33:51.691Z</time>
      </trkpt>
      <trkpt lat="45.65174" lon="4.64721">
        <ele>541.88754211266</ele>
        <time>2022-05-03T06:33:57.386Z</time>
      </trkpt>
      <trkpt lat="45.65162" lon="4.64684">
        <ele>542.17310746396</ele>
        <time>2022-05-03T06:34:03.086Z</time>
      </trkpt>
      <trkpt lat="45.65109" lon="4.64567">
        <ele>542.76315161199</ele>
        <time>2022-05-03T06:34:08.802Z</time>
      </trkpt>
      <trkpt lat="45.65086" lon="4.64518">
        <ele>543.23351604514</ele>
        <time>2022-05-03T06:34:14.524Z</time>
      </trkpt>
      <trkpt lat="45.65058" lon="4.6446">
        <ele>543.87968517706</ele>
        <time>2022-05-03T06:34:20.254Z</time>
      </trkpt>
      <trkpt lat="45.65038" lon="4.64422">
        <ele>544.87086710772</ele>
        <time>2022-05-03T06:34:25.989Z</time>
      </trkpt>
      <trkpt lat="45.64997" lon="4.64358">
        <ele>546.29998956687</ele>
        <time>2022-05-03T06:34:31.734Z</time>
      </trkpt>
      <trkpt lat="45.64971" lon="4.64302">
        <ele>547.9810351514</ele>
        <time>2022-05-03T06:34:37.487Z</time>
      </trkpt>
      <trkpt lat="45.64939" lon="4.64242">
        <ele>549.91573201026</ele>
        <time>2022-05-03T06:34:43.248Z</time>
      </trkpt>
      <trkpt lat="45.64936" lon="4.64235">
        <ele>552.02764918814</ele>
        <time>2022-05-03T06:34:49.010Z</time>
      </trkpt>
      <trkpt lat="45.64927" lon="4.64202">
        <ele>554.47706134016</ele>
        <time>2022-05-03T06:34:54.776Z</time>
      </trkpt>
      <trkpt lat="45.64919" lon="4.64154">
        <ele>557.25031440157</ele>
        <time>2022-05-03T06:35:00.548Z</time>
      </trkpt>
      <trkpt lat="45.64909" lon="4.64127">
        <ele>560.25704894715</ele>
        <time>2022-05-03T06:35:06.323Z</time>
      </trkpt>
      <trkpt lat="45.64868" lon="4.64055">
        <ele>563.60876700549</ele>
        <time>2022-05-03T06:35:12.108Z</time>
      </trkpt>
      <trkpt lat="45.64829" lon="4.63979">
        <ele>567.21042174109</ele>
        <time>2022-05-03T06:35:17.904Z</time>
      </trkpt>
      <trkpt lat="45.64779" lon="4.63915">
        <ele>571.14081995895</ele>
        <time>2022-05-03T06:35:23.711Z</time>
      </trkpt>
      <trkpt lat="45.64729" lon="4.6382">
        <ele>575.54944045332</ele>
        <time>2022-05-03T06:35:29.531Z</time>
      </trkpt>
      <trkpt lat="45.64704" lon="4.63796">
        <ele>579.48059848405</ele>
        <time>2022-05-03T06:35:35.356Z</time>
      </trkpt>
      <trkpt lat="45.6464" lon="4.63764">
        <ele>583.10111422804</ele>
        <time>2022-05-03T06:35:41.192Z</time>
      </trkpt>
      <trkpt lat="45.64616" lon="4.63725">
        <ele>586.63084139461</ele>
        <time>2022-05-03T06:35:47.034Z</time>
      </trkpt>
      <trkpt lat="45.64598" lon="4.63678">
        <ele>589.98897619669</ele>
        <time>2022-05-03T06:35:52.882Z</time>
      </trkpt>
      <trkpt lat="45.64589" lon="4.63616">
        <ele>593.16837864431</ele>
        <time>2022-05-03T06:35:58.737Z</time>
      </trkpt>
      <trkpt lat="45.64575" lon="4.63392">
        <ele>596.05538505986</ele>
        <time>2022-05-03T06:36:04.617Z</time>
      </trkpt>
      <trkpt lat="45.6456" lon="4.6334">
        <ele>598.51504168467</ele>
        <time>2022-05-03T06:36:10.503Z</time>
      </trkpt>
      <trkpt lat="45.64546" lon="4.63305">
        <ele>600.63805548235</ele>
        <time>2022-05-03T06:36:16.394Z</time>
      </trkpt>
      <trkpt lat="45.64521" lon="4.6327">
        <ele>602.53509706935</ele>
        <time>2022-05-03T06:36:22.290Z</time>
      </trkpt>
      <trkpt lat="45.64501" lon="4.63254">
        <ele>604.21443161986</ele>
        <time>2022-05-03T06:36:28.190Z</time>
      </trkpt>
      <trkpt lat="45.64454" lon="4.63236">
        <ele>605.79371750625</ele>
        <time>2022-05-03T06:36:34.098Z</time>
      </trkpt>
      <trkpt lat="45.64437" lon="4.63223">
        <ele>607.22791860716</ele>
        <time>2022-05-03T06:36:40.009Z</time>
      </trkpt>
      <trkpt lat="45.64357" lon="4.63123">
        <ele>608.61668994758</ele>
        <time>2022-05-03T06:36:45.937Z</time>
      </trkpt>
      <trkpt lat="45.64337" lon="4.63085">
        <ele>610.10910253249</ele>
        <time>2022-05-03T06:36:51.870Z</time>
      </trkpt>
      <trkpt lat="45.64325" lon="4.63048">
        <ele>611.81081776622</ele>
        <time>2022-05-03T06:36:57.808Z</time>
      </trkpt>
      <trkpt lat="45.64321" lon="4.63005">
        <ele>613.77423858297</ele>
        <time>2022-05-03T06:37:03.751Z</time>
      </trkpt>
      <trkpt lat="45.64315" lon="4.62974">
        <ele>616.00043423731</ele>
        <time>2022-05-03T06:37:09.697Z</time>
      </trkpt>
      <trkpt lat="45.64286" lon="4.62888">
        <ele>618.95092097619</ele>
        <time>2022-05-03T06:37:15.654Z</time>
      </trkpt>
      <trkpt lat="45.64281" lon="4.62862">
        <ele>622.12417552864</ele>
        <time>2022-05-03T06:37:21.614Z</time>
      </trkpt>
      <trkpt lat="45.64283" lon="4.62842">
        <ele>625.64543025412</ele>
        <time>2022-05-03T06:37:27.576Z</time>
      </trkpt>
      <trkpt lat="45.64277" lon="4.62769">
        <ele>629.61336591272</ele>
        <time>2022-05-03T06:37:33.547Z</time>
      </trkpt>
      <trkpt lat="45.64267" lon="4.62741">
        <ele>633.94747534014</ele>
        <time>2022-05-03T06:37:39.521Z</time>
      </trkpt>
      <trkpt lat="45.64238" lon="4.62689">
        <ele>638.81132589897</ele>
        <time>2022-05-03T06:37:45.503Z</time>
      </trkpt>
      <trkpt lat="45.64214" lon="4.62665">
        <ele>643.79371630117</ele>
        <time>2022-05-03T06:37:51.489Z</time>
      </trkpt>
      <trkpt lat="45.641" lon="4.62574">
        <ele>649.52856530642</ele>
        <time>2022-05-03T06:37:57.496Z</time>
      </trkpt>
      <trkpt lat="45.64089" lon="4.62557">
        <ele>654.54801552657</ele>
        <time>2022-05-03T06:38:03.506Z</time>
      </trkpt>
      <trkpt lat="45.64087" lon="4.62533">
        <ele>659.37902286871</ele>
        <time>2022-05-03T06:38:09.518Z</time>
      </trkpt>
      <trkpt lat="45.64089" lon="4.62505">
        <ele>663.90224573648</ele>
        <time>2022-05-03T06:38:15.534Z</time>
      </trkpt>
      <trkpt lat="45.64087" lon="4.62495">
        <ele>668.00377725671</ele>
        <time>2022-05-03T06:38:21.551Z</time>
      </trkpt>
      <trkpt lat="45.64076" lon="4.62483">
        <ele>671.67319688619</ele>
        <time>2022-05-03T06:38:27.570Z</time>
      </trkpt>
      <trkpt lat="45.64064" lon="4.62471">
        <ele>674.77859308518</ele>
        <time>2022-05-03T06:38:33.591Z</time>
      </trkpt>
      <trkpt lat="45.64049" lon="4.62407">
        <ele>677.29207983977</ele>
        <time>2022-05-03T06:38:39.620Z</time>
      </trkpt>
      <trkpt lat="45.64017" lon="4.62319">
        <ele>679.29635694357</ele>
        <time>2022-05-03T06:38:45.660Z</time>
      </trkpt>
      <trkpt lat="45.64001" lon="4.62236">
        <ele>680.25600712335</ele>
        <time>2022-05-03T06:38:51.710Z</time>
      </trkpt>
      <trkpt lat="45.64004" lon="4.622">
        <ele>680.38608040979</ele>
        <time>2022-05-03T06:38:57.764Z</time>
      </trkpt>
      <trkpt lat="45.64005" lon="4.62196">
        <ele>679.85323153658</ele>
        <time>2022-05-03T06:39:03.818Z</time>
      </trkpt>
      <trkpt lat="45.64035" lon="4.62097">
        <ele>678.40878133104</ele>
        <time>2022-05-03T06:39:09.884Z</time>
      </trkpt>
      <trkpt lat="45.64039" lon="4.62072">
        <ele>676.40758674537</ele>
        <time>2022-05-03T06:39:15.953Z</time>
      </trkpt>
      <trkpt lat="45.64043" lon="4.61999">
        <ele>673.66909455241</ele>
        <time>2022-05-03T06:39:22.030Z</time>
      </trkpt>
      <trkpt lat="45.6404" lon="4.61969">
        <ele>670.73627105837</ele>
        <time>2022-05-03T06:39:28.111Z</time>
      </trkpt>
      <trkpt lat="45.64032" lon="4.61941">
        <ele>667.35670169548</ele>
        <time>2022-05-03T06:39:34.195Z</time>
      </trkpt>
      <trkpt lat="45.64017" lon="4.61917">
        <ele>663.54102360328</ele>
        <time>2022-05-03T06:39:40.283Z</time>
      </trkpt>
      <trkpt lat="45.6396" lon="4.6187">
        <ele>659.00344572453</ele>
        <time>2022-05-03T06:39:46.381Z</time>
      </trkpt>
      <trkpt lat="45.63947" lon="4.61846">
        <ele>654.69384370744</ele>
        <time>2022-05-03T06:39:52.483Z</time>
      </trkpt>
      <trkpt lat="45.63941" lon="4.61824">
        <ele>650.4262734731</ele>
        <time>2022-05-03T06:39:58.587Z</time>
      </trkpt>
      <trkpt lat="45.63937" lon="4.61743">
        <ele>646.07598177379</ele>
        <time>2022-05-03T06:40:04.701Z</time>
      </trkpt>
      <trkpt lat="45.63921" lon="4.61662">
        <ele>641.78032594874</ele>
        <time>2022-05-03T06:40:10.824Z</time>
      </trkpt>
      <trkpt lat="45.63914" lon="4.61631">
        <ele>638.06989845723</ele>
        <time>2022-05-03T06:40:16.951Z</time>
      </trkpt>
      <trkpt lat="45.63913" lon="4.61627">
        <ele>634.85473495253</ele>
        <time>2022-05-03T06:40:23.078Z</time>
      </trkpt>
      <trkpt lat="45.63906" lon="4.61596">
        <ele>632.01338928539</ele>
        <time>2022-05-03T06:40:29.209Z</time>
      </trkpt>
      <trkpt lat="45.63888" lon="4.6153">
        <ele>629.56870346862</ele>
        <time>2022-05-03T06:40:35.348Z</time>
      </trkpt>
      <trkpt lat="45.63888" lon="4.6153">
        <ele>627.8385946335</ele>
        <time>2022-05-03T06:40:41.487Z</time>
      </trkpt>
      <trkpt lat="45.63888" lon="4.6153">
        <ele>626.63212525054</ele>
        <time>2022-05-03T06:40:47.626Z</time>
      </trkpt>
      <trkpt lat="45.63884" lon="4.61493">
        <ele>625.87067777126</ele>
        <time>2022-05-03T06:40:53.769Z</time>
      </trkpt>
      <trkpt lat="45.63881" lon="4.61441">
        <ele>625.64796675374</ele>
        <time>2022-05-03T06:40:59.918Z</time>
      </trkpt>
      <trkpt lat="45.63881" lon="4.61441">
        <ele>625.83592322049</ele>
        <time>2022-05-03T06:41:06.067Z</time>
      </trkpt>
      <trkpt lat="45.63952" lon="4.61257">
        <ele>626.68021905291</ele>
        <time>2022-05-03T06:41:12.239Z</time>
      </trkpt>
      <trkpt lat="45.63969" lon="4.61187">
        <ele>627.30981056165</ele>
        <time>2022-05-03T06:41:18.420Z</time>
      </trkpt>
      <trkpt lat="45.63948" lon="4.61081">
        <ele>628.3837181509</ele>
        <time>2022-05-03T06:41:24.613Z</time>
      </trkpt>
      <trkpt lat="45.6394" lon="4.61028">
        <ele>629.75006173688</ele>
        <time>2022-05-03T06:41:30.812Z</time>
      </trkpt>
      <trkpt lat="45.63941" lon="4.61025">
        <ele>630.84422690033</ele>
        <time>2022-05-03T06:41:37.012Z</time>
      </trkpt>
      <trkpt lat="45.63941" lon="4.61025">
        <ele>631.84743641014</ele>
        <time>2022-05-03T06:41:43.212Z</time>
      </trkpt>
      <trkpt lat="45.63948" lon="4.61003">
        <ele>632.817493459</ele>
        <time>2022-05-03T06:41:49.414Z</time>
      </trkpt>
      <trkpt lat="45.63956" lon="4.60989">
        <ele>633.60674913306</ele>
        <time>2022-05-03T06:41:55.618Z</time>
      </trkpt>
      <trkpt lat="45.63967" lon="4.60988">
        <ele>634.03041834528</ele>
        <time>2022-05-03T06:42:01.824Z</time>
      </trkpt>
      <trkpt lat="45.63995" lon="4.61001">
        <ele>634.09250152484</ele>
        <time>2022-05-03T06:42:08.035Z</time>
      </trkpt>
      <trkpt lat="45.64073" lon="4.61063">
        <ele>633.54731531376</ele>
        <time>2022-05-03T06:42:14.260Z</time>
      </trkpt>
      <trkpt lat="45.64073" lon="4.61063">
        <ele>633.19302621794</ele>
        <time>2022-05-03T06:42:20.485Z</time>
      </trkpt>
      <trkpt lat="45.64136" lon="4.61082">
        <ele>632.63200775067</ele>
        <time>2022-05-03T06:42:26.720Z</time>
      </trkpt>
      <trkpt lat="45.64179" lon="4.61104">
        <ele>631.80977582667</ele>
        <time>2022-05-03T06:42:32.963Z</time>
      </trkpt>
      <trkpt lat="45.64214" lon="4.61117">
        <ele>630.97539827638</ele>
        <time>2022-05-03T06:42:39.212Z</time>
      </trkpt>
      <trkpt lat="45.64239" lon="4.61112">
        <ele>630.09377879641</ele>
        <time>2022-05-03T06:42:45.465Z</time>
      </trkpt>
      <trkpt lat="45.64324" lon="4.61078">
        <ele>629.26688326585</ele>
        <time>2022-05-03T06:42:51.732Z</time>
      </trkpt>
      <trkpt lat="45.64344" lon="4.61076">
        <ele>628.25310677924</ele>
        <time>2022-05-03T06:42:58.002Z</time>
      </trkpt>
      <trkpt lat="45.64364" lon="4.61078">
        <ele>627.19352338492</ele>
        <time>2022-05-03T06:43:04.275Z</time>
      </trkpt>
      <trkpt lat="45.64387" lon="4.61072">
        <ele>626.37740569237</ele>
        <time>2022-05-03T06:43:10.552Z</time>
      </trkpt>
      <trkpt lat="45.64398" lon="4.61062">
        <ele>625.70069464415</ele>
        <time>2022-05-03T06:43:16.831Z</time>
      </trkpt>
      <trkpt lat="45.64402" lon="4.61046">
        <ele>625.30340102116</ele>
        <time>2022-05-03T06:43:23.112Z</time>
      </trkpt>
      <trkpt lat="45.64406" lon="4.61001">
        <ele>625.05384807899</ele>
        <time>2022-05-03T06:43:29.398Z</time>
      </trkpt>
      <trkpt lat="45.64399" lon="4.60958">
        <ele>624.82833202558</ele>
        <time>2022-05-03T06:43:35.689Z</time>
      </trkpt>
      <trkpt lat="45.644" lon="4.60922">
        <ele>624.59277828611</ele>
        <time>2022-05-03T06:43:41.984Z</time>
      </trkpt>
      <trkpt lat="45.644" lon="4.60922">
        <ele>624.31630511715</ele>
        <time>2022-05-03T06:43:48.279Z</time>
      </trkpt>
      <trkpt lat="45.64407" lon="4.60902">
        <ele>624.00676350964</ele>
        <time>2022-05-03T06:43:54.576Z</time>
      </trkpt>
      <trkpt lat="45.64418" lon="4.60894">
        <ele>623.65127925765</ele>
        <time>2022-05-03T06:44:00.875Z</time>
      </trkpt>
      <trkpt lat="45.6444" lon="4.60887">
        <ele>623.35339169973</ele>
        <time>2022-05-03T06:44:07.178Z</time>
      </trkpt>
      <trkpt lat="45.6444" lon="4.60887">
        <ele>622.90746947805</ele>
        <time>2022-05-03T06:44:13.481Z</time>
      </trkpt>
      <trkpt lat="45.64444" lon="4.60885">
        <ele>622.42848969999</ele>
        <time>2022-05-03T06:44:19.785Z</time>
      </trkpt>
      <trkpt lat="45.64477" lon="4.60902">
        <ele>621.63300941617</ele>
        <time>2022-05-03T06:44:26.094Z</time>
      </trkpt>
      <trkpt lat="45.64517" lon="4.60929">
        <ele>620.77037189957</ele>
        <time>2022-05-03T06:44:32.410Z</time>
      </trkpt>
      <trkpt lat="45.64538" lon="4.60937">
        <ele>620.01379945327</ele>
        <time>2022-05-03T06:44:38.730Z</time>
      </trkpt>
      <trkpt lat="45.6456" lon="4.60931">
        <ele>619.40369590632</ele>
        <time>2022-05-03T06:44:45.053Z</time>
      </trkpt>
      <trkpt lat="45.64562" lon="4.60929">
        <ele>618.9299277628</ele>
        <time>2022-05-03T06:44:51.377Z</time>
      </trkpt>
      <trkpt lat="45.64562" lon="4.60929">
        <ele>618.50667786356</ele>
        <time>2022-05-03T06:44:57.701Z</time>
      </trkpt>
      <trkpt lat="45.64574" lon="4.60914">
        <ele>618.19253440769</ele>
        <time>2022-05-03T06:45:04.027Z</time>
      </trkpt>
      <trkpt lat="45.64593" lon="4.60865">
        <ele>617.97204952571</ele>
        <time>2022-05-03T06:45:10.360Z</time>
      </trkpt>
      <trkpt lat="45.64597" lon="4.60846">
        <ele>617.68167591379</ele>
        <time>2022-05-03T06:45:16.695Z</time>
      </trkpt>
      <trkpt lat="45.64608" lon="4.60768">
        <ele>617.58790352757</ele>
        <time>2022-05-03T06:45:23.039Z</time>
      </trkpt>
      <trkpt lat="45.64614" lon="4.6075">
        <ele>617.2913890533</ele>
        <time>2022-05-03T06:45:29.385Z</time>
      </trkpt>
      <trkpt lat="45.64625" lon="4.60736">
        <ele>616.92855821331</ele>
        <time>2022-05-03T06:45:35.733Z</time>
      </trkpt>
      <trkpt lat="45.64638" lon="4.60729">
        <ele>616.39547647281</ele>
        <time>2022-05-03T06:45:42.084Z</time>
      </trkpt>
      <trkpt lat="45.64652" lon="4.60727">
        <ele>615.76179123066</ele>
        <time>2022-05-03T06:45:48.437Z</time>
      </trkpt>
      <trkpt lat="45.6473" lon="4.60736">
        <ele>614.51096707576</ele>
        <time>2022-05-03T06:45:54.802Z</time>
      </trkpt>
      <trkpt lat="45.6473" lon="4.60736">
        <ele>613.84959865552</ele>
        <time>2022-05-03T06:46:01.167Z</time>
      </trkpt>
      <trkpt lat="45.64738" lon="4.60735">
        <ele>613.2293313478</ele>
        <time>2022-05-03T06:46:07.534Z</time>
      </trkpt>
      <trkpt lat="45.64745" lon="4.60735">
        <ele>612.66164972664</ele>
        <time>2022-05-03T06:46:13.902Z</time>
      </trkpt>
      <trkpt lat="45.64755" lon="4.60727">
        <ele>612.25087723514</ele>
        <time>2022-05-03T06:46:20.272Z</time>
      </trkpt>
      <trkpt lat="45.64761" lon="4.60717">
        <ele>612.01919608083</ele>
        <time>2022-05-03T06:46:26.643Z</time>
      </trkpt>
      <trkpt lat="45.64766" lon="4.60698">
        <ele>611.96368559976</ele>
        <time>2022-05-03T06:46:33.016Z</time>
      </trkpt>
      <trkpt lat="45.64766" lon="4.60698">
        <ele>612.10129906957</ele>
        <time>2022-05-03T06:46:39.389Z</time>
      </trkpt>
      <trkpt lat="45.64767" lon="4.60682">
        <ele>612.47992210377</ele>
        <time>2022-05-03T06:46:45.764Z</time>
      </trkpt>
      <trkpt lat="45.6476" lon="4.6066">
        <ele>613.00381725923</ele>
        <time>2022-05-03T06:46:52.142Z</time>
      </trkpt>
      <trkpt lat="45.64737" lon="4.60622">
        <ele>613.79036132734</ele>
        <time>2022-05-03T06:46:58.526Z</time>
      </trkpt>
      <trkpt lat="45.64705" lon="4.60594">
        <ele>614.7310508609</ele>
        <time>2022-05-03T06:47:04.916Z</time>
      </trkpt>
      <trkpt lat="45.64705" lon="4.60594">
        <ele>615.71259835958</ele>
        <time>2022-05-03T06:47:11.306Z</time>
      </trkpt>
      <trkpt lat="45.64673" lon="4.60563">
        <ele>616.91029337994</ele>
        <time>2022-05-03T06:47:17.702Z</time>
      </trkpt>
      <trkpt lat="45.64661" lon="4.60549">
        <ele>618.12797472267</ele>
        <time>2022-05-03T06:47:24.100Z</time>
      </trkpt>
      <trkpt lat="45.64651" lon="4.60534">
        <ele>619.35474237494</ele>
        <time>2022-05-03T06:47:30.501Z</time>
      </trkpt>
      <trkpt lat="45.64641" lon="4.60512">
        <ele>620.55984889638</ele>
        <time>2022-05-03T06:47:36.905Z</time>
      </trkpt>
      <trkpt lat="45.64638" lon="4.60493">
        <ele>621.66240474159</ele>
        <time>2022-05-03T06:47:43.311Z</time>
      </trkpt>
      <trkpt lat="45.64639" lon="4.60485">
        <ele>622.66435975374</ele>
        <time>2022-05-03T06:47:49.718Z</time>
      </trkpt>
      <trkpt lat="45.64639" lon="4.60485">
        <ele>623.5573649119</ele>
        <time>2022-05-03T06:47:56.125Z</time>
      </trkpt>
      <trkpt lat="45.64644" lon="4.60461">
        <ele>624.36984166383</ele>
        <time>2022-05-03T06:48:02.534Z</time>
      </trkpt>
      <trkpt lat="45.64653" lon="4.60447">
        <ele>625.04855496082</ele>
        <time>2022-05-03T06:48:08.945Z</time>
      </trkpt>
      <trkpt lat="45.64668" lon="4.60438">
        <ele>625.61314552923</ele>
        <time>2022-05-03T06:48:15.359Z</time>
      </trkpt>
      <trkpt lat="45.64691" lon="4.60437">
        <ele>625.98761799794</ele>
        <time>2022-05-03T06:48:21.777Z</time>
      </trkpt>
      <trkpt lat="45.64737" lon="4.60446">
        <ele>626.14983223372</ele>
        <time>2022-05-03T06:48:28.202Z</time>
      </trkpt>
      <trkpt lat="45.64746" lon="4.60444">
        <ele>626.33141611192</ele>
        <time>2022-05-03T06:48:34.629Z</time>
      </trkpt>
      <trkpt lat="45.64754" lon="4.60439">
        <ele>626.40005719019</ele>
        <time>2022-05-03T06:48:41.057Z</time>
      </trkpt>
      <trkpt lat="45.64765" lon="4.60424">
        <ele>626.34802836561</ele>
        <time>2022-05-03T06:48:47.488Z</time>
      </trkpt>
      <trkpt lat="45.64771" lon="4.60402">
        <ele>626.24332337094</ele>
        <time>2022-05-03T06:48:53.921Z</time>
      </trkpt>
      <trkpt lat="45.64776" lon="4.60375">
        <ele>626.02736480472</ele>
        <time>2022-05-03T06:49:00.357Z</time>
      </trkpt>
      <trkpt lat="45.64786" lon="4.60333">
        <ele>625.73536294456</ele>
        <time>2022-05-03T06:49:06.798Z</time>
      </trkpt>
      <trkpt lat="45.64797" lon="4.60293">
        <ele>625.30989063769</ele>
        <time>2022-05-03T06:49:13.244Z</time>
      </trkpt>
      <trkpt lat="45.64829" lon="4.60204">
        <ele>624.91889109341</ele>
        <time>2022-05-03T06:49:19.701Z</time>
      </trkpt>
      <trkpt lat="45.64842" lon="4.6018">
        <ele>624.48659287422</ele>
        <time>2022-05-03T06:49:26.162Z</time>
      </trkpt>
      <trkpt lat="45.64867" lon="4.60148">
        <ele>624.03573011509</ele>
        <time>2022-05-03T06:49:32.628Z</time>
      </trkpt>
      <trkpt lat="45.64878" lon="4.60137">
        <ele>623.43961936968</ele>
        <time>2022-05-03T06:49:39.096Z</time>
      </trkpt>
      <trkpt lat="45.64884" lon="4.60135">
        <ele>622.75933570693</ele>
        <time>2022-05-03T06:49:45.565Z</time>
      </trkpt>
      <trkpt lat="45.64892" lon="4.60134">
        <ele>621.98422068298</ele>
        <time>2022-05-03T06:49:52.036Z</time>
      </trkpt>
      <trkpt lat="45.64899" lon="4.60136">
        <ele>621.25361063595</ele>
        <time>2022-05-03T06:49:58.508Z</time>
      </trkpt>
      <trkpt lat="45.64905" lon="4.60142">
        <ele>620.51842015412</ele>
        <time>2022-05-03T06:50:04.981Z</time>
      </trkpt>
      <trkpt lat="45.64909" lon="4.60149">
        <ele>619.82014518523</ele>
        <time>2022-05-03T06:50:11.455Z</time>
      </trkpt>
      <trkpt lat="45.64913" lon="4.60158">
        <ele>619.18764982591</ele>
        <time>2022-05-03T06:50:17.930Z</time>
      </trkpt>
      <trkpt lat="45.64919" lon="4.60203">
        <ele>618.50488452924</ele>
        <time>2022-05-03T06:50:24.410Z</time>
      </trkpt>
      <trkpt lat="45.64926" lon="4.6023">
        <ele>618.06420960843</ele>
        <time>2022-05-03T06:50:30.893Z</time>
      </trkpt>
      <trkpt lat="45.64935" lon="4.6025">
        <ele>617.96130374918</ele>
        <time>2022-05-03T06:50:37.379Z</time>
      </trkpt>
      <trkpt lat="45.64944" lon="4.60261">
        <ele>618.17164537505</ele>
        <time>2022-05-03T06:50:43.867Z</time>
      </trkpt>
      <trkpt lat="45.64942" lon="4.60247">
        <ele>618.73107807171</ele>
        <time>2022-05-03T06:50:50.357Z</time>
      </trkpt>
      <trkpt lat="45.64935" lon="4.60232">
        <ele>619.54634200299</ele>
        <time>2022-05-03T06:50:56.849Z</time>
      </trkpt>
      <trkpt lat="45.64932" lon="4.60218">
        <ele>620.79916651561</ele>
        <time>2022-05-03T06:51:03.342Z</time>
      </trkpt>
      <trkpt lat="45.6493" lon="4.60196">
        <ele>622.55144237249</ele>
        <time>2022-05-03T06:51:09.838Z</time>
      </trkpt>
      <trkpt lat="45.64934" lon="4.60119">
        <ele>624.792364305</ele>
        <time>2022-05-03T06:51:16.342Z</time>
      </trkpt>
      <trkpt lat="45.64939" lon="4.6008">
        <ele>627.35874135225</ele>
        <time>2022-05-03T06:51:22.851Z</time>
      </trkpt>
      <trkpt lat="45.64953" lon="4.60019">
        <ele>630.41043375673</ele>
        <time>2022-05-03T06:51:29.367Z</time>
      </trkpt>
      <trkpt lat="45.64968" lon="4.59977">
        <ele>633.77901257575</ele>
        <time>2022-05-03T06:51:35.888Z</time>
      </trkpt>
      <trkpt lat="45.64977" lon="4.59953">
        <ele>637.35129218026</ele>
        <time>2022-05-03T06:51:42.412Z</time>
      </trkpt>
      <trkpt lat="45.64996" lon="4.59875">
        <ele>641.47067671168</ele>
        <time>2022-05-03T06:51:48.945Z</time>
      </trkpt>
      <trkpt lat="45.65016" lon="4.59829">
        <ele>645.8593089716</ele>
        <time>2022-05-03T06:51:55.485Z</time>
      </trkpt>
      <trkpt lat="45.65027" lon="4.59794">
        <ele>650.5087555689</ele>
        <time>2022-05-03T06:52:02.029Z</time>
      </trkpt>
      <trkpt lat="45.65031" lon="4.59778">
        <ele>655.31543237467</ele>
        <time>2022-05-03T06:52:08.575Z</time>
      </trkpt>
      <trkpt lat="45.65035" lon="4.59776">
        <ele>660.37903432913</ele>
        <time>2022-05-03T06:52:15.122Z</time>
      </trkpt>
      <trkpt lat="45.65037" lon="4.59769">
        <ele>665.64557386868</ele>
        <time>2022-05-03T06:52:21.669Z</time>
      </trkpt>
      <trkpt lat="45.65037" lon="4.59732">
        <ele>671.16999484837</ele>
        <time>2022-05-03T06:52:28.221Z</time>
      </trkpt>
      <trkpt lat="45.65049" lon="4.59667">
        <ele>677.07452033601</ele>
        <time>2022-05-03T06:52:34.780Z</time>
      </trkpt>
      <trkpt lat="45.6507" lon="4.59575">
        <ele>683.14768048597</ele>
        <time>2022-05-03T06:52:41.350Z</time>
      </trkpt>
      <trkpt lat="45.65085" lon="4.59519">
        <ele>689.13237139988</ele>
        <time>2022-05-03T06:52:47.927Z</time>
      </trkpt>
      <trkpt lat="45.65103" lon="4.59469">
        <ele>695.07525052027</ele>
        <time>2022-05-03T06:52:54.510Z</time>
      </trkpt>
      <trkpt lat="45.65112" lon="4.59448">
        <ele>700.73384574555</ele>
        <time>2022-05-03T06:53:01.096Z</time>
      </trkpt>
      <trkpt lat="45.65155" lon="4.59386">
        <ele>706.66936939708</ele>
        <time>2022-05-03T06:53:07.691Z</time>
      </trkpt>
      <trkpt lat="45.65163" lon="4.59357">
        <ele>711.92213178973</ele>
        <time>2022-05-03T06:53:14.290Z</time>
      </trkpt>
      <trkpt lat="45.65176" lon="4.5933">
        <ele>716.87695465544</ele>
        <time>2022-05-03T06:53:20.893Z</time>
      </trkpt>
      <trkpt lat="45.65187" lon="4.59295">
        <ele>721.28794690572</ele>
        <time>2022-05-03T06:53:27.500Z</time>
      </trkpt>
      <trkpt lat="45.65199" lon="4.5929">
        <ele>725.167830413</ele>
        <time>2022-05-03T06:53:34.109Z</time>
      </trkpt>
      <trkpt lat="45.65208" lon="4.59281">
        <ele>728.54661118528</ele>
        <time>2022-05-03T06:53:40.720Z</time>
      </trkpt>
      <trkpt lat="45.65209" lon="4.59259">
        <ele>731.49738121</ele>
        <time>2022-05-03T06:53:47.333Z</time>
      </trkpt>
      <trkpt lat="45.65197" lon="4.59222">
        <ele>734.10598531549</ele>
        <time>2022-05-03T06:53:53.951Z</time>
      </trkpt>
      <trkpt lat="45.65197" lon="4.59193">
        <ele>736.16336600396</ele>
        <time>2022-05-03T06:54:00.572Z</time>
      </trkpt>
      <trkpt lat="45.65205" lon="4.59175">
        <ele>737.60300988522</ele>
        <time>2022-05-03T06:54:07.195Z</time>
      </trkpt>
      <trkpt lat="45.65221" lon="4.59157">
        <ele>738.4042208047</ele>
        <time>2022-05-03T06:54:13.822Z</time>
      </trkpt>
      <trkpt lat="45.65231" lon="4.5913">
        <ele>738.75379262056</ele>
        <time>2022-05-03T06:54:20.452Z</time>
      </trkpt>
      <trkpt lat="45.65247" lon="4.59062">
        <ele>738.64743832982</ele>
        <time>2022-05-03T06:54:27.090Z</time>
      </trkpt>
      <trkpt lat="45.65261" lon="4.59049">
        <ele>738.046394559</ele>
        <time>2022-05-03T06:54:33.731Z</time>
      </trkpt>
      <trkpt lat="45.6527" lon="4.59038">
        <ele>737.13514221968</ele>
        <time>2022-05-03T06:54:40.374Z</time>
      </trkpt>
      <trkpt lat="45.65279" lon="4.59001">
        <ele>735.91083136007</ele>
        <time>2022-05-03T06:54:47.021Z</time>
      </trkpt>
      <trkpt lat="45.65284" lon="4.58954">
        <ele>734.478610354</ele>
        <time>2022-05-03T06:54:53.673Z</time>
      </trkpt>
      <trkpt lat="45.65302" lon="4.58871">
        <ele>732.80738903288</ele>
        <time>2022-05-03T06:55:00.335Z</time>
      </trkpt>
      <trkpt lat="45.65303" lon="4.58844">
        <ele>731.09907839918</ele>
        <time>2022-05-03T06:55:07.000Z</time>
      </trkpt>
      <trkpt lat="45.653" lon="4.58826">
        <ele>729.35918308091</ele>
        <time>2022-05-03T06:55:13.667Z</time>
      </trkpt>
      <trkpt lat="45.65257" lon="4.58711">
        <ele>727.74719029258</ele>
        <time>2022-05-03T06:55:20.349Z</time>
      </trkpt>
      <trkpt lat="45.65254" lon="4.58683">
        <ele>726.13769525761</ele>
        <time>2022-05-03T06:55:27.034Z</time>
      </trkpt>
      <trkpt lat="45.65265" lon="4.5867">
        <ele>724.39864481701</ele>
        <time>2022-05-03T06:55:33.721Z</time>
      </trkpt>
      <trkpt lat="45.65311" lon="4.5863">
        <ele>722.68161101969</ele>
        <time>2022-05-03T06:55:40.417Z</time>
      </trkpt>
      <trkpt lat="45.65328" lon="4.58621">
        <ele>720.97525246506</ele>
        <time>2022-05-03T06:55:47.116Z</time>
      </trkpt>
      <trkpt lat="45.65332" lon="4.58627">
        <ele>719.21691780584</ele>
        <time>2022-05-03T06:55:53.816Z</time>
      </trkpt>
      <trkpt lat="45.65401" lon="4.58583">
        <ele>717.33171372813</ele>
        <time>2022-05-03T06:56:00.528Z</time>
      </trkpt>
      <trkpt lat="45.65423" lon="4.58556">
        <ele>715.92229153755</ele>
        <time>2022-05-03T06:56:07.244Z</time>
      </trkpt>
      <trkpt lat="45.65437" lon="4.58528">
        <ele>714.67163913507</ele>
        <time>2022-05-03T06:56:13.964Z</time>
      </trkpt>
      <trkpt lat="45.65456" lon="4.58477">
        <ele>713.46807821822</ele>
        <time>2022-05-03T06:56:20.691Z</time>
      </trkpt>
      <trkpt lat="45.65465" lon="4.58427">
        <ele>712.35812810885</ele>
        <time>2022-05-03T06:56:27.424Z</time>
      </trkpt>
      <trkpt lat="45.65464" lon="4.58379">
        <ele>711.5816738678</ele>
        <time>2022-05-03T06:56:34.162Z</time>
      </trkpt>
      <trkpt lat="45.65459" lon="4.58347">
        <ele>710.99301218356</ele>
        <time>2022-05-03T06:56:40.904Z</time>
      </trkpt>
      <trkpt lat="45.65442" lon="4.58247">
        <ele>710.62873518754</ele>
        <time>2022-05-03T06:56:47.657Z</time>
      </trkpt>
      <trkpt lat="45.65446" lon="4.58152">
        <ele>710.03145885516</ele>
        <time>2022-05-03T06:56:54.421Z</time>
      </trkpt>
      <trkpt lat="45.65445" lon="4.58135">
        <ele>709.97634081154</ele>
        <time>2022-05-03T06:57:01.187Z</time>
      </trkpt>
      <trkpt lat="45.65436" lon="4.58116">
        <ele>710.2264763093</ele>
        <time>2022-05-03T06:57:07.955Z</time>
      </trkpt>
      <trkpt lat="45.65427" lon="4.58102">
        <ele>710.85515398621</ele>
        <time>2022-05-03T06:57:14.726Z</time>
      </trkpt>
      <trkpt lat="45.65425" lon="4.581">
        <ele>711.48615950398</ele>
        <time>2022-05-03T06:57:21.497Z</time>
      </trkpt>
      <trkpt lat="45.65413" lon="4.58082">
        <ele>712.50399461802</ele>
        <time>2022-05-03T06:57:28.271Z</time>
      </trkpt>
      <trkpt lat="45.65408" lon="4.58069">
        <ele>713.42496719882</ele>
        <time>2022-05-03T06:57:35.046Z</time>
      </trkpt>
      <trkpt lat="45.65408" lon="4.58056">
        <ele>714.2645062164</ele>
        <time>2022-05-03T06:57:41.823Z</time>
      </trkpt>
      <trkpt lat="45.6541" lon="4.58045">
        <ele>714.96311384603</ele>
        <time>2022-05-03T06:57:48.601Z</time>
      </trkpt>
      <trkpt lat="45.65417" lon="4.58032">
        <ele>715.49229526989</ele>
        <time>2022-05-03T06:57:55.381Z</time>
      </trkpt>
      <trkpt lat="45.65426" lon="4.5802">
        <ele>715.79883738465</ele>
        <time>2022-05-03T06:58:02.163Z</time>
      </trkpt>
      <trkpt lat="45.65432" lon="4.58016">
        <ele>715.96550120881</ele>
        <time>2022-05-03T06:58:08.946Z</time>
      </trkpt>
      <trkpt lat="45.65432" lon="4.58016">
        <ele>716.09887855337</ele>
        <time>2022-05-03T06:58:15.729Z</time>
      </trkpt>
      <trkpt lat="45.65432" lon="4.58016">
        <ele>715.96550120881</ele>
        <time>2022-05-03T06:58:22.512Z</time>
      </trkpt>
      <trkpt lat="45.65436" lon="4.58013">
        <ele>716.11769492907</ele>
        <time>2022-05-03T06:58:29.296Z</time>
      </trkpt>
      <trkpt lat="45.65454" lon="4.58008">
        <ele>715.92724646949</ele>
        <time>2022-05-03T06:58:36.083Z</time>
      </trkpt>
      <trkpt lat="45.65483" lon="4.58003">
        <ele>715.79292980712</ele>
        <time>2022-05-03T06:58:42.874Z</time>
      </trkpt>
      <trkpt lat="45.65496" lon="4.57996">
        <ele>715.99345998784</ele>
        <time>2022-05-03T06:58:49.668Z</time>
      </trkpt>
      <trkpt lat="45.655" lon="4.57989">
        <ele>716.4269087112</ele>
        <time>2022-05-03T06:58:56.462Z</time>
      </trkpt>
      <trkpt lat="45.65505" lon="4.57975">
        <ele>717.06438638049</ele>
        <time>2022-05-03T06:59:03.258Z</time>
      </trkpt>
      <trkpt lat="45.65506" lon="4.57953">
        <ele>717.97019248497</ele>
        <time>2022-05-03T06:59:10.057Z</time>
      </trkpt>
      <trkpt lat="45.65479" lon="4.57809">
        <ele>719.25594459418</ele>
        <time>2022-05-03T06:59:16.872Z</time>
      </trkpt>
      <trkpt lat="45.6546" lon="4.57679">
        <ele>721.19451646217</ele>
        <time>2022-05-03T06:59:23.702Z</time>
      </trkpt>
      <trkpt lat="45.65456" lon="4.57654">
        <ele>722.53128530829</ele>
        <time>2022-05-03T06:59:30.535Z</time>
      </trkpt>
      <trkpt lat="45.65454" lon="4.57616">
        <ele>723.8278747336</ele>
        <time>2022-05-03T06:59:37.373Z</time>
      </trkpt>
      <trkpt lat="45.65459" lon="4.57599">
        <ele>724.98503861202</ele>
        <time>2022-05-03T06:59:44.213Z</time>
      </trkpt>
      <trkpt lat="45.65474" lon="4.57585">
        <ele>725.99654174798</ele>
        <time>2022-05-03T06:59:51.055Z</time>
      </trkpt>
      <trkpt lat="45.65489" lon="4.57575">
        <ele>726.92172937621</ele>
        <time>2022-05-03T06:59:57.900Z</time>
      </trkpt>
      <trkpt lat="45.65498" lon="4.57559">
        <ele>727.90033825273</ele>
        <time>2022-05-03T07:00:04.747Z</time>
      </trkpt>
      <trkpt lat="45.65515" lon="4.57489">
        <ele>729.01948317682</ele>
        <time>2022-05-03T07:00:11.603Z</time>
      </trkpt>
      <trkpt lat="45.65519" lon="4.57463">
        <ele>729.93429228632</ele>
        <time>2022-05-03T07:00:18.462Z</time>
      </trkpt>
      <trkpt lat="45.65519" lon="4.57448">
        <ele>730.91305130789</ele>
        <time>2022-05-03T07:00:25.322Z</time>
      </trkpt>
      <trkpt lat="45.65517" lon="4.57431">
        <ele>731.88433031705</ele>
        <time>2022-05-03T07:00:32.184Z</time>
      </trkpt>
      <trkpt lat="45.65465" lon="4.57342">
        <ele>732.92726617123</ele>
        <time>2022-05-03T07:00:39.059Z</time>
      </trkpt>
      <trkpt lat="45.65452" lon="4.57313">
        <ele>733.81919966221</ele>
        <time>2022-05-03T07:00:45.938Z</time>
      </trkpt>
      <trkpt lat="45.65454" lon="4.57295">
        <ele>734.68924137777</ele>
        <time>2022-05-03T07:00:52.819Z</time>
      </trkpt>
      <trkpt lat="45.65494" lon="4.57218">
        <ele>735.55077142873</ele>
        <time>2022-05-03T07:00:59.711Z</time>
      </trkpt>
      <trkpt lat="45.655" lon="4.57178">
        <ele>736.4283543083</ele>
        <time>2022-05-03T07:01:06.607Z</time>
      </trkpt>
      <trkpt lat="45.65497" lon="4.57142">
        <ele>737.29205600734</ele>
        <time>2022-05-03T07:01:13.508Z</time>
      </trkpt>
      <trkpt lat="45.6547" lon="4.5706">
        <ele>738.15793311262</ele>
        <time>2022-05-03T07:01:20.419Z</time>
      </trkpt>
      <trkpt lat="45.65452" lon="4.57025">
        <ele>738.96350868293</ele>
        <time>2022-05-03T07:01:27.335Z</time>
      </trkpt>
      <trkpt lat="45.65446" lon="4.57008">
        <ele>739.75663085822</ele>
        <time>2022-05-03T07:01:34.253Z</time>
      </trkpt>
      <trkpt lat="45.65446" lon="4.57008">
        <ele>740.48248043168</ele>
        <time>2022-05-03T07:01:41.171Z</time>
      </trkpt>
      <trkpt lat="45.65442" lon="4.56996">
        <ele>741.21986592894</ele>
        <time>2022-05-03T07:01:48.090Z</time>
      </trkpt>
      <trkpt lat="45.65444" lon="4.56973">
        <ele>741.91500457367</ele>
        <time>2022-05-03T07:01:55.012Z</time>
      </trkpt>
      <trkpt lat="45.65452" lon="4.56958">
        <ele>742.57740908735</ele>
        <time>2022-05-03T07:02:01.936Z</time>
      </trkpt>
      <trkpt lat="45.65471" lon="4.56952">
        <ele>743.01042854326</ele>
        <time>2022-05-03T07:02:08.863Z</time>
      </trkpt>
      <trkpt lat="45.65489" lon="4.56953">
        <ele>743.30305133065</ele>
        <time>2022-05-03T07:02:15.793Z</time>
      </trkpt>
      <trkpt lat="45.6552" lon="4.56948">
        <ele>743.56696009898</ele>
        <time>2022-05-03T07:02:22.728Z</time>
      </trkpt>
      <trkpt lat="45.65575" lon="4.5693">
        <ele>743.75444731124</ele>
        <time>2022-05-03T07:02:29.672Z</time>
      </trkpt>
      <trkpt lat="45.65586" lon="4.56925">
        <ele>743.80946583426</ele>
        <time>2022-05-03T07:02:36.618Z</time>
      </trkpt>
      <trkpt lat="45.65607" lon="4.56911">
        <ele>743.79401514103</ele>
        <time>2022-05-03T07:02:43.567Z</time>
      </trkpt>
      <trkpt lat="45.6561" lon="4.56908">
        <ele>743.59541206225</ele>
        <time>2022-05-03T07:02:50.517Z</time>
      </trkpt>
      <trkpt lat="45.65619" lon="4.56894">
        <ele>743.25073316286</ele>
        <time>2022-05-03T07:02:57.469Z</time>
      </trkpt>
      <trkpt lat="45.65622" lon="4.5688">
        <ele>742.74871754424</ele>
        <time>2022-05-03T07:03:04.423Z</time>
      </trkpt>
      <trkpt lat="45.65622" lon="4.56866">
        <ele>742.12438806872</ele>
        <time>2022-05-03T07:03:11.378Z</time>
      </trkpt>
      <trkpt lat="45.65604" lon="4.56793">
        <ele>741.38115547726</ele>
        <time>2022-05-03T07:03:18.342Z</time>
      </trkpt>
      <trkpt lat="45.65604" lon="4.56777">
        <ele>740.61175160163</ele>
        <time>2022-05-03T07:03:25.308Z</time>
      </trkpt>
      <trkpt lat="45.65605" lon="4.56765">
        <ele>739.72307650463</ele>
        <time>2022-05-03T07:03:32.275Z</time>
      </trkpt>
      <trkpt lat="45.65605" lon="4.56765">
        <ele>738.65585769432</ele>
        <time>2022-05-03T07:03:39.242Z</time>
      </trkpt>
      <trkpt lat="45.65647" lon="4.56653">
        <ele>737.46712229518</ele>
        <time>2022-05-03T07:03:46.224Z</time>
      </trkpt>
      <trkpt lat="45.65659" lon="4.56632">
        <ele>736.12739694232</ele>
        <time>2022-05-03T07:03:53.209Z</time>
      </trkpt>
      <trkpt lat="45.65678" lon="4.56621">
        <ele>734.68268129579</ele>
        <time>2022-05-03T07:04:00.197Z</time>
      </trkpt>
      <trkpt lat="45.65692" lon="4.56622">
        <ele>733.26675514881</ele>
        <time>2022-05-03T07:04:07.187Z</time>
      </trkpt>
      <trkpt lat="45.65727" lon="4.56647">
        <ele>731.70352615713</ele>
        <time>2022-05-03T07:04:14.183Z</time>
      </trkpt>
      <trkpt lat="45.65754" lon="4.56647">
        <ele>730.51446829927</ele>
        <time>2022-05-03T07:04:21.184Z</time>
      </trkpt>
      <trkpt lat="45.65772" lon="4.56635">
        <ele>729.49348897812</ele>
        <time>2022-05-03T07:04:28.188Z</time>
      </trkpt>
      <trkpt lat="45.65801" lon="4.56603">
        <ele>728.55452905409</ele>
        <time>2022-05-03T07:04:35.198Z</time>
      </trkpt>
      <trkpt lat="45.65817" lon="4.5658">
        <ele>727.80265301869</ele>
        <time>2022-05-03T07:04:42.211Z</time>
      </trkpt>
      <trkpt lat="45.65839" lon="4.56534">
        <ele>727.31236394777</ele>
        <time>2022-05-03T07:04:49.231Z</time>
      </trkpt>
      <trkpt lat="45.65847" lon="4.56516">
        <ele>727.02913005945</ele>
        <time>2022-05-03T07:04:56.253Z</time>
      </trkpt>
      <trkpt lat="45.65868" lon="4.56469">
        <ele>726.95057145575</ele>
        <time>2022-05-03T07:05:03.281Z</time>
      </trkpt>
      <trkpt lat="45.65872" lon="4.56469">
        <ele>727.09072755178</ele>
        <time>2022-05-03T07:05:10.310Z</time>
      </trkpt>
      <trkpt lat="45.65887" lon="4.56457">
        <ele>727.42255016647</ele>
        <time>2022-05-03T07:05:17.342Z</time>
      </trkpt>
      <trkpt lat="45.65887" lon="4.56457">
        <ele>727.9278861475</ele>
        <time>2022-05-03T07:05:24.374Z</time>
      </trkpt>
      <trkpt lat="45.6591" lon="4.56439">
        <ele>728.59780371546</ele>
        <time>2022-05-03T07:05:31.410Z</time>
      </trkpt>
      <trkpt lat="45.65918" lon="4.56436">
        <ele>729.3442396413</ele>
        <time>2022-05-03T07:05:38.447Z</time>
      </trkpt>
      <trkpt lat="45.65947" lon="4.56418">
        <ele>730.24059265406</ele>
        <time>2022-05-03T07:05:45.489Z</time>
      </trkpt>
      <trkpt lat="45.65975" lon="4.564">
        <ele>732.03618942654</ele>
        <time>2022-05-03T07:05:52.536Z</time>
      </trkpt>
      <trkpt lat="45.66007" lon="4.56386">
        <ele>732.64739659705</ele>
        <time>2022-05-03T07:05:59.589Z</time>
      </trkpt>
      <trkpt lat="45.66024" lon="4.56378">
        <ele>733.05215017832</ele>
        <time>2022-05-03T07:06:06.644Z</time>
      </trkpt>
      <trkpt lat="45.66047" lon="4.56366">
        <ele>733.15566620136</ele>
        <time>2022-05-03T07:06:13.703Z</time>
      </trkpt>
      <trkpt lat="45.66075" lon="4.56349">
        <ele>732.85112716234</ele>
        <time>2022-05-03T07:06:20.767Z</time>
      </trkpt>
      <trkpt lat="45.66091" lon="4.56342">
        <ele>732.19898117897</ele>
        <time>2022-05-03T07:06:27.834Z</time>
      </trkpt>
      <trkpt lat="45.66093" lon="4.56366">
        <ele>731.2281389148</ele>
        <time>2022-05-03T07:06:34.904Z</time>
      </trkpt>
      <trkpt lat="45.66101" lon="4.56407">
        <ele>729.86601070215</ele>
        <time>2022-05-03T07:06:41.978Z</time>
      </trkpt>
      <trkpt lat="45.66104" lon="4.56413">
        <ele>728.47200608717</ele>
        <time>2022-05-03T07:06:49.053Z</time>
      </trkpt>
      <trkpt lat="45.66116" lon="4.56434">
        <ele>726.83651121671</ele>
        <time>2022-05-03T07:06:56.131Z</time>
      </trkpt>
      <trkpt lat="45.66134" lon="4.56473">
        <ele>725.24645832143</ele>
        <time>2022-05-03T07:07:03.215Z</time>
      </trkpt>
      <trkpt lat="45.66136" lon="4.56479">
        <ele>724.20080473791</ele>
        <time>2022-05-03T07:07:10.299Z</time>
      </trkpt>
      <trkpt lat="45.66138" lon="4.56485">
        <ele>723.01871076052</ele>
        <time>2022-05-03T07:07:17.384Z</time>
      </trkpt>
      <trkpt lat="45.6614" lon="4.56489">
        <ele>721.89433723154</ele>
        <time>2022-05-03T07:07:24.470Z</time>
      </trkpt>
      <trkpt lat="45.66139" lon="4.56492">
        <ele>720.85534709133</ele>
        <time>2022-05-03T07:07:31.556Z</time>
      </trkpt>
      <trkpt lat="45.66139" lon="4.56496">
        <ele>719.88886865544</ele>
        <time>2022-05-03T07:07:38.642Z</time>
      </trkpt>
      <trkpt lat="45.66144" lon="4.56505">
        <ele>718.97569832825</ele>
        <time>2022-05-03T07:07:45.730Z</time>
      </trkpt>
      <trkpt lat="45.66147" lon="4.56507">
        <ele>718.20952353277</ele>
        <time>2022-05-03T07:07:52.818Z</time>
      </trkpt>
      <trkpt lat="45.66149" lon="4.56507">
        <ele>717.53843639447</ele>
        <time>2022-05-03T07:07:59.907Z</time>
      </trkpt>
      <trkpt lat="45.66152" lon="4.56506">
        <ele>716.92892959963</ele>
        <time>2022-05-03T07:08:06.996Z</time>
      </trkpt>
      <trkpt lat="45.66157" lon="4.56507">
        <ele>716.35335986743</ele>
        <time>2022-05-03T07:08:14.086Z</time>
      </trkpt>
      <trkpt lat="45.66172" lon="4.56515">
        <ele>715.77431610093</ele>
        <time>2022-05-03T07:08:21.178Z</time>
      </trkpt>
      <trkpt lat="45.66174" lon="4.56517">
        <ele>715.29626262627</ele>
        <time>2022-05-03T07:08:28.271Z</time>
      </trkpt>
      <trkpt lat="45.66184" lon="4.56526">
        <ele>714.792508722</ele>
        <time>2022-05-03T07:08:35.366Z</time>
      </trkpt>
      <trkpt lat="45.66192" lon="4.56532">
        <ele>714.26152022944</ele>
        <time>2022-05-03T07:08:42.462Z</time>
      </trkpt>
      <trkpt lat="45.66194" lon="4.56534">
        <ele>713.67998199295</ele>
        <time>2022-05-03T07:08:49.559Z</time>
      </trkpt>
      <trkpt lat="45.66207" lon="4.56546">
        <ele>713.00586798981</ele>
        <time>2022-05-03T07:08:56.658Z</time>
      </trkpt>
      <trkpt lat="45.66221" lon="4.5656">
        <ele>712.27981047253</ele>
        <time>2022-05-03T07:09:03.760Z</time>
      </trkpt>
      <trkpt lat="45.66232" lon="4.56573">
        <ele>711.49858508463</ele>
        <time>2022-05-03T07:09:10.864Z</time>
      </trkpt>
      <trkpt lat="45.66242" lon="4.56586">
        <ele>710.77665350758</ele>
        <time>2022-05-03T07:09:17.970Z</time>
      </trkpt>
      <trkpt lat="45.66257" lon="4.56613">
        <ele>710.17980594337</ele>
        <time>2022-05-03T07:09:25.080Z</time>
      </trkpt>
      <trkpt lat="45.66262" lon="4.56629">
        <ele>709.93014933309</ele>
        <time>2022-05-03T07:09:32.192Z</time>
      </trkpt>
      <trkpt lat="45.66266" lon="4.56643">
        <ele>709.91134136702</ele>
        <time>2022-05-03T07:09:39.306Z</time>
      </trkpt>
      <trkpt lat="45.66272" lon="4.5664">
        <ele>710.61970807583</ele>
        <time>2022-05-03T07:09:46.421Z</time>
      </trkpt>
      <trkpt lat="45.66277" lon="4.56638">
        <ele>710.69424687648</ele>
        <time>2022-05-03T07:09:53.537Z</time>
      </trkpt>
      <trkpt lat="45.6628" lon="4.56637">
        <ele>710.68011950987</ele>
        <time>2022-05-03T07:10:00.653Z</time>
      </trkpt>
      <trkpt lat="45.66284" lon="4.56637">
        <ele>710.5496130019</ele>
        <time>2022-05-03T07:10:07.770Z</time>
      </trkpt>
      <trkpt lat="45.66289" lon="4.56641">
        <ele>710.23533842598</ele>
        <time>2022-05-03T07:10:14.888Z</time>
      </trkpt>
      <trkpt lat="45.66292" lon="4.56646">
        <ele>709.70426635743</ele>
        <time>2022-05-03T07:10:22.006Z</time>
      </trkpt>
      <trkpt lat="45.66305" lon="4.56685">
        <ele>708.95646197954</ele>
        <time>2022-05-03T07:10:29.129Z</time>
      </trkpt>
      <trkpt lat="45.66274" lon="4.56883">
        <ele>707.23740391843</ele>
        <time>2022-05-03T07:10:36.275Z</time>
      </trkpt>
    </trkseg>
  </trk>
</gpx>